Darstellungsparameter: Aktuell verwendete Einstellungen:
Skalierung der Graphiken ... ?
xyx+y,   Skalierungsfaktor:      Skalierung: Modus: x, Faktor: 1
Darstellungszeitraum ... ?
Vom - - bis: - -   Zeitraum: 10.08.2010 - 09.08.2020
Min/Max/Avg-Anzeige ... ?
Zeige MMA aktuell
Zeige MMA Monat
Zeige MMA alles
Zeige --A aktuell
Zeige --A Monat
Zeige --A alles
Keine MMA-Anzeige
MMA:
Average (ber die Originaldaten)
MMA-Basis: 23.02.2003 - 03.08.2020
Quicknavigation für Darstellung... ?
Tage:      1T, 2T, 3T, 5T -1T -2T -3T -5T +1T +2T +3T +5T
Wochen: 1W, 2W, 3W -1W -2W -3W +1W +2W +3W
Monate: 1M, 3M, 6M -1M -3M -6M +1M +3M +6M
Jahre:    1J, 3J, 5J, 10J -1J -3J -5J -10J +1J +3J +5J +10J
Nutze für die Darstellung ... ?
Originaldaten oder ...
Mittelwerte Minima Maxima auf...
Stundenbasis Tagesbasis Wochenbasis
Monatsbasis Jahresbasis      Datenbasis: Mittelwerte auf Stundenbasis
Darstellen als:
Statistik (Auto) Statistik J:M      Darstellung:
Zur Graphik,    zurück zur Übersicht aller Sensoren.
 
Tabellarische Datenbersicht: ?
 
Sensor: Nr:Datum:Temp:Abs-Feuchte:Windchill:Wind:
Aussen-T/F 1 10-08-2010 00:00:00 17.62 C 9.79 g/m*3 17.62 C 0 km/h
2 10-08-2010 01:00:00 17.52 C 10.15 g/m*3 17.52 C 0 km/h
3 10-08-2010 02:00:00 17.38 C 10.04 g/m*3 17.38 C 0 km/h
4 10-08-2010 03:00:00 17.14 C 10.1 g/m*3 17.14 C 0 km/h
5 10-08-2010 04:00:00 16.86 C 10.24 g/m*3 16.86 C 0 km/h
6 10-08-2010 05:00:00 15.62 C 10.09 g/m*3 15.62 C 0 km/h
7 10-08-2010 06:00:00 14.66 C 9.92 g/m*3 14.66 C 0 km/h
8 10-08-2010 07:00:00 14.88 C 10.31 g/m*3 14.88 C 0 km/h
9 10-08-2010 08:00:00 15.84 C 10.71 g/m*3 15.84 C 0 km/h
10 10-08-2010 09:00:00 18.2 C 10.6 g/m*3 18.2 C 0 km/h
11 10-08-2010 10:00:00 20.92 C 11.01 g/m*3 20.92 C 0 km/h
12 10-08-2010 11:00:00 23.74 C 9.52 g/m*3 23.74 C 0 km/h
13 10-08-2010 12:00:00 25.9 C 6.83 g/m*3 25.9 C 0 km/h
14 10-08-2010 13:00:00 28.16 C 5.98 g/m*3 28.16 C 0 km/h
15 10-08-2010 14:00:00 29.04 C 6.22 g/m*3 29.04 C 0 km/h
16 10-08-2010 15:00:00 28.46 C 7.36 g/m*3 28.46 C 0 km/h
17 10-08-2010 16:00:00 29.88 C 6.51 g/m*3 29.88 C 0 km/h
18 10-08-2010 17:00:00 29.94 C 6.47 g/m*3 29.94 C 0 km/h
19 10-08-2010 18:00:00 29.68 C 6.74 g/m*3 29.68 C 0 km/h
20 10-08-2010 19:00:00 26.94 C 8.16 g/m*3 26.94 C 0 km/h
21 10-08-2010 20:00:00 24.76 C 8.27 g/m*3 24.76 C 0 km/h
22 10-08-2010 21:00:00 23.36 C 8.77 g/m*3 23.36 C 0 km/h
23 10-08-2010 22:00:00 22.86 C 8.93 g/m*3 22.86 C 0 km/h
24 10-08-2010 23:00:00 21.9 C 9.26 g/m*3 21.9 C 0 km/h
25 11-08-2010 00:00:00 21.46 C 9.67 g/m*3 21.46 C 0 km/h
Sensor: Nr:Datum:Temp:Abs-Feuchte:Windchill:Wind:
Aussen-T/F 26 11-08-2010 01:00:00 20.54 C 10.56 g/m*3 20.54 C 0 km/h
27 11-08-2010 02:00:00 18.38 C 12.32 g/m*3 18.38 C 0 km/h
28 11-08-2010 03:00:00 17.64 C 13.14 g/m*3 17.64 C 0 km/h
29 11-08-2010 04:00:00 17.52 C 13.4 g/m*3 17.52 C 0 km/h
30 11-08-2010 05:00:00 17.42 C 13.24 g/m*3 17.42 C 0 km/h
31 11-08-2010 06:00:00 17.4 C 13.04 g/m*3 17.4 C 0 km/h
32 11-08-2010 07:00:00 17.62 C 13.03 g/m*3 17.62 C 0 km/h
33 11-08-2010 08:00:00 18.68 C 13.02 g/m*3 18.68 C 0 km/h
34 11-08-2010 09:00:00 19.64 C 11.51 g/m*3 19.64 C 0 km/h
35 11-08-2010 10:00:00 20.8 C 11.08 g/m*3 20.8 C 0 km/h
36 11-08-2010 11:00:00 20.62 C 11.18 g/m*3 20.62 C 0 km/h
37 11-08-2010 12:00:00 22.46 C 11 g/m*3 22.46 C 0 km/h
38 11-08-2010 13:00:00 23.8 C 10.37 g/m*3 23.8 C 0 km/h
39 11-08-2010 14:00:00 24.4 C 10.1 g/m*3 24.4 C 0 km/h
40 11-08-2010 15:00:00 25.56 C 9.88 g/m*3 25.56 C 0 km/h
41 11-08-2010 16:00:00 22.88 C 12 g/m*3 22.88 C 0 km/h
42 11-08-2010 17:00:00 21.74 C 14 g/m*3 21.74 C 0 km/h
43 11-08-2010 18:00:00 22.86 C 14.31 g/m*3 22.86 C 0 km/h
44 11-08-2010 19:00:00 21.28 C 13.7 g/m*3 21.28 C 0 km/h
45 11-08-2010 20:00:00 19.56 C 13.57 g/m*3 19.56 C 0 km/h
46 11-08-2010 21:00:00 18.84 C 14.4 g/m*3 18.84 C 0 km/h
47 11-08-2010 22:00:00 18.48 C 14.38 g/m*3 18.48 C 0 km/h
48 11-08-2010 23:00:00 18.3 C 14.38 g/m*3 18.3 C 0 km/h
49 12-08-2010 00:00:00 17.88 C 14.27 g/m*3 17.88 C 0 km/h
50 12-08-2010 01:00:00 17.52 C 14.03 g/m*3 17.52 C 0 km/h
Sensor: Nr:Datum:Temp:Abs-Feuchte:Windchill:Wind:
Aussen-T/F 51 12-08-2010 02:00:00 17.16 C 13.73 g/m*3 17.16 C 0 km/h
52 12-08-2010 03:00:00 16.86 C 13.49 g/m*3 16.86 C 0 km/h
53 12-08-2010 04:00:00 16.46 C 13.22 g/m*3 16.46 C 0 km/h
54 12-08-2010 05:00:00 16.48 C 13.3 g/m*3 16.48 C 0 km/h
55 12-08-2010 06:00:00 16.72 C 13.52 g/m*3 16.72 C 0 km/h
56 12-08-2010 07:00:00 16.86 C 13.6 g/m*3 16.86 C 0 km/h
57 12-08-2010 08:00:00 16.64 C 12.89 g/m*3 16.64 C 0 km/h
58 12-08-2010 09:00:00 17.72 C 13.44 g/m*3 17.72 C 0 km/h
59 12-08-2010 10:00:00 18.58 C 12.24 g/m*3 18.58 C 0 km/h
60 12-08-2010 11:00:00 18.62 C 12.17 g/m*3 18.62 C 0 km/h
61 12-08-2010 12:00:00 19.56 C 11.25 g/m*3 19.56 C 0 km/h
62 12-08-2010 13:00:00 20.26 C 9.58 g/m*3 20.26 C 0 km/h
63 12-08-2010 14:00:00 20.3 C 9.04 g/m*3 20.3 C 0 km/h
64 12-08-2010 15:00:00 23.02 C 8.4 g/m*3 23.02 C 0 km/h
65 12-08-2010 16:00:00 22.56 C 7.14 g/m*3 22.56 C 0 km/h
66 12-08-2010 17:00:00 25.42 C 5.89 g/m*3 25.42 C 0 km/h
67 12-08-2010 18:00:00 23.3 C 6.65 g/m*3 23.3 C 0 km/h
68 12-08-2010 19:00:00 21.68 C 8.23 g/m*3 21.68 C 0 km/h
69 12-08-2010 20:00:00 20.1 C 8.45 g/m*3 20.1 C 0 km/h
70 12-08-2010 21:00:00 19.14 C 7.99 g/m*3 19.14 C 0 km/h
71 12-08-2010 22:00:00 18.44 C 8.58 g/m*3 18.44 C 0 km/h
72 12-08-2010 23:00:00 17.34 C 9.19 g/m*3 17.34 C 0 km/h
73 13-08-2010 00:00:00 16.82 C 9.42 g/m*3 16.82 C 0 km/h
74 13-08-2010 01:00:00 16.18 C 9.26 g/m*3 16.18 C 0 km/h
75 13-08-2010 02:00:00 15.82 C 9.68 g/m*3 15.82 C 0 km/h
Sensor: Nr:Datum:Temp:Abs-Feuchte:Windchill:Wind:
Aussen-T/F 76 13-08-2010 03:00:00 15.34 C 9.84 g/m*3 15.34 C 0 km/h
77 13-08-2010 04:00:00 15.04 C 10 g/m*3 15.04 C 0 km/h
78 13-08-2010 05:00:00 14.76 C 9.98 g/m*3 14.76 C 0 km/h
79 13-08-2010 06:00:00 14.7 C 10.05 g/m*3 14.7 C 0 km/h
80 13-08-2010 07:00:00 15.02 C 10.12 g/m*3 15.02 C 0 km/h
81 13-08-2010 08:00:00 15.16 C 10.33 g/m*3 15.16 C 0 km/h
82 13-08-2010 09:00:00 16.26 C 10.3 g/m*3 16.26 C 0 km/h
83 13-08-2010 10:00:00 18.84 C 9.65 g/m*3 18.84 C 0 km/h
84 13-08-2010 11:00:00 21.24 C 8.4 g/m*3 21.24 C 0 km/h
85 13-08-2010 12:00:00 22.2 C 7.74 g/m*3 22.2 C 0 km/h
86 13-08-2010 13:00:00 23 C 6.99 g/m*3 23 C 0 km/h
87 13-08-2010 14:00:00 23.92 C 6.5 g/m*3 23.92 C 0 km/h
88 13-08-2010 15:00:00 24.42 C 6.02 g/m*3 24.42 C 0 km/h
89 13-08-2010 16:00:00 24.24 C 6.75 g/m*3 24.24 C 0 km/h
90 13-08-2010 17:00:00 23.66 C 7.43 g/m*3 23.66 C 0 km/h
91 13-08-2010 18:00:00 22.5 C 8.15 g/m*3 22.5 C 0 km/h
92 13-08-2010 19:00:00 21.84 C 7.88 g/m*3 21.84 C 0 km/h
93 13-08-2010 20:00:00 19.9 C 7.94 g/m*3 19.9 C 0 km/h
94 13-08-2010 21:00:00 17.66 C 7.83 g/m*3 17.66 C 0 km/h
95 13-08-2010 22:00:00 16.72 C 8.2 g/m*3 16.72 C 0 km/h
96 13-08-2010 23:00:00 15.44 C 8.64 g/m*3 15.44 C 0 km/h
97 14-08-2010 00:00:00 14.7 C 8.91 g/m*3 14.7 C 0 km/h
98 14-08-2010 01:00:00 13.98 C 9.11 g/m*3 13.98 C 0 km/h
99 14-08-2010 02:00:00 13.32 C 9 g/m*3 13.32 C 0 km/h
100 14-08-2010 03:00:00 12.6 C 8.87 g/m*3 12.6 C 0 km/h
Sensor: Nr:Datum:Temp:Abs-Feuchte:Windchill:Wind:
Aussen-T/F 101 14-08-2010 04:00:00 12.06 C 8.75 g/m*3 12.06 C 0 km/h
102 14-08-2010 05:00:00 11.62 C 8.76 g/m*3 11.62 C 0 km/h
103 14-08-2010 06:00:00 11.12 C 8.73 g/m*3 11.12 C 0 km/h
104 14-08-2010 07:00:00 11.28 C 8.9 g/m*3 11.28 C 0 km/h
105 14-08-2010 08:00:00 12.32 C 9.42 g/m*3 12.32 C 0 km/h
106 14-08-2010 09:00:00 14.4 C 9.94 g/m*3 14.4 C 0 km/h
107 14-08-2010 10:00:00 17.62 C 10.39 g/m*3 17.62 C 0 km/h
108 14-08-2010 11:00:00 20.68 C 10.36 g/m*3 20.68 C 0 km/h
109 14-08-2010 12:00:00 22.96 C 9.19 g/m*3 22.96 C 0 km/h
110 14-08-2010 13:00:00 26.24 C 7.4 g/m*3 26.24 C 0 km/h
111 14-08-2010 14:00:00 27.62 C 6.98 g/m*3 27.62 C 0 km/h
112 14-08-2010 15:00:00 28.04 C 6.7 g/m*3 28.04 C 0 km/h
113 14-08-2010 16:00:00 30.1 C 6.46 g/m*3 30.1 C 0 km/h
114 14-08-2010 17:00:00 30.88 C 6.36 g/m*3 30.88 C 0 km/h
115 14-08-2010 18:00:00 31.22 C 6.48 g/m*3 31.22 C 0 km/h
116 14-08-2010 19:00:00 27.86 C 7.56 g/m*3 27.86 C 0 km/h
117 14-08-2010 20:00:00 24.86 C 8.18 g/m*3 24.86 C 0 km/h
118 14-08-2010 21:00:00 22.14 C 8.73 g/m*3 22.14 C 0 km/h
119 14-08-2010 22:00:00 21.24 C 9.14 g/m*3 21.24 C 0 km/h
120 14-08-2010 23:00:00 20.36 C 9.14 g/m*3 20.36 C 0 km/h
121 15-08-2010 00:00:00 19.74 C 8.82 g/m*3 19.74 C 0 km/h
122 15-08-2010 01:00:00 19.38 C 8.73 g/m*3 19.38 C 0 km/h
123 15-08-2010 02:00:00 18.98 C 8.98 g/m*3 18.98 C 0 km/h
124 15-08-2010 03:00:00 18.6 C 9.29 g/m*3 18.6 C 0 km/h
125 15-08-2010 04:00:00 18.14 C 9.14 g/m*3 18.14 C 0 km/h
Sensor: Nr:Datum:Temp:Abs-Feuchte:Windchill:Wind:
Aussen-T/F 126 15-08-2010 05:00:00 18.06 C 8.88 g/m*3 18.06 C 0 km/h
127 15-08-2010 06:00:00 17.9 C 9.04 g/m*3 17.9 C 0 km/h
128 15-08-2010 07:00:00 17.1 C 9.69 g/m*3 17.1 C 0 km/h
129 15-08-2010 08:00:00 15.24 C 11.48 g/m*3 15.24 C 0 km/h
130 15-08-2010 09:00:00 15.2 C 11.99 g/m*3 15.2 C 0 km/h
131 15-08-2010 10:00:00 15.48 C 12.44 g/m*3 15.48 C 0 km/h
132 15-08-2010 11:00:00 15.82 C 12.8 g/m*3 15.82 C 0 km/h
133 15-08-2010 12:00:00 16.04 C 12.97 g/m*3 16.04 C 0 km/h
134 15-08-2010 13:00:00 16.14 C 13.05 g/m*3 16.14 C 0 km/h
135 15-08-2010 14:00:00 16.44 C 13.29 g/m*3 16.44 C 0 km/h
136 15-08-2010 15:00:00 16.4 C 13.26 g/m*3 16.4 C 0 km/h
137 15-08-2010 16:00:00 16.48 C 13.32 g/m*3 16.48 C 0 km/h
138 15-08-2010 17:00:00 16.68 C 13.48 g/m*3 16.68 C 0 km/h
139 15-08-2010 18:00:00 16.6 C 13.42 g/m*3 16.6 C 0 km/h
140 15-08-2010 19:00:00 16.6 C 13.42 g/m*3 16.6 C 0 km/h
141 15-08-2010 20:00:00 16.38 C 13.24 g/m*3 16.38 C 0 km/h
142 15-08-2010 21:00:00 16.24 C 13.13 g/m*3 16.24 C 0 km/h
143 15-08-2010 22:00:00 16.14 C 13.05 g/m*3 16.14 C 0 km/h
144 15-08-2010 23:00:00 15.5 C 12.56 g/m*3 15.5 C 0 km/h
145 16-08-2010 00:00:00 14.9 C 12.11 g/m*3 14.9 C 0 km/h
146 16-08-2010 01:00:00 14.72 C 11.87 g/m*3 14.72 C 0 km/h
147 16-08-2010 02:00:00 14.6 C 11.61 g/m*3 14.6 C 0 km/h
148 16-08-2010 03:00:00 14.6 C 11.64 g/m*3 14.6 C 0 km/h
149 16-08-2010 04:00:00 14.5 C 11.34 g/m*3 14.5 C 0 km/h
150 16-08-2010 05:00:00 14.5 C 11.39 g/m*3 14.5 C 0 km/h
Sensor: Nr:Datum:Temp:Abs-Feuchte:Windchill:Wind:
Aussen-T/F 151 16-08-2010 06:00:00 14.54 C 11.37 g/m*3 14.54 C 0 km/h
152 16-08-2010 07:00:00 14.84 C 11.45 g/m*3 14.84 C 0 km/h
153 16-08-2010 08:00:00 15.92 C 11.44 g/m*3 15.92 C 0 km/h
154 16-08-2010 09:00:00 17.4 C 11.09 g/m*3 17.4 C 0 km/h
155 16-08-2010 10:00:00 17.2 C 10.84 g/m*3 17.2 C 0 km/h
156 16-08-2010 11:00:00 17.7 C 11.09 g/m*3 17.7 C 0 km/h
157 16-08-2010 12:00:00 17.76 C 11.45 g/m*3 17.76 C 0 km/h
158 16-08-2010 13:00:00 18.38 C 10.59 g/m*3 18.38 C 0 km/h
159 16-08-2010 14:00:00 19.88 C 9.88 g/m*3 19.88 C 0 km/h
160 16-08-2010 15:00:00 19.72 C 9.42 g/m*3 19.72 C 0 km/h
161 16-08-2010 16:00:00 19.76 C 9.75 g/m*3 19.76 C 0 km/h
162 16-08-2010 17:00:00 19.96 C 9.79 g/m*3 19.96 C 0 km/h
163 16-08-2010 18:00:00 19.76 C 9.65 g/m*3 19.76 C 0 km/h
164 16-08-2010 19:00:00 18.6 C 10.06 g/m*3 18.6 C 0 km/h
165 16-08-2010 20:00:00 17.9 C 10.63 g/m*3 17.9 C 0 km/h
166 16-08-2010 21:00:00 17.44 C 11.32 g/m*3 17.44 C 0 km/h
167 16-08-2010 22:00:00 17.58 C 11.83 g/m*3 17.58 C 0 km/h
168 16-08-2010 23:00:00 17.76 C 12.05 g/m*3 17.76 C 0 km/h
169 17-08-2010 00:00:00 17.62 C 11.95 g/m*3 17.62 C 0 km/h
170 17-08-2010 01:00:00 16.68 C 12.29 g/m*3 16.68 C 0 km/h
171 17-08-2010 02:00:00 16.48 C 12.37 g/m*3 16.48 C 0 km/h
172 17-08-2010 03:00:00 16.42 C 11.79 g/m*3 16.42 C 0 km/h
173 17-08-2010 04:00:00 16.42 C 11.18 g/m*3 16.42 C 0 km/h
174 17-08-2010 05:00:00 15.62 C 11.34 g/m*3 15.62 C 0 km/h
175 17-08-2010 06:00:00 15.84 C 11.23 g/m*3 15.84 C 0 km/h
Sensor: Nr:Datum:Temp:Abs-Feuchte:Windchill:Wind:
Aussen-T/F 176 17-08-2010 07:00:00 16.36 C 10.83 g/m*3 16.36 C 0 km/h
177 17-08-2010 08:00:00 16.72 C 10.33 g/m*3 16.72 C 0 km/h
178 17-08-2010 09:00:00 16.98 C 9.65 g/m*3 16.98 C 0 km/h
179 17-08-2010 10:00:00 17.06 C 9.35 g/m*3 17.06 C 0 km/h
180 17-08-2010 11:00:00 17.58 C 9.2 g/m*3 17.58 C 0 km/h
181 17-08-2010 12:00:00 16.62 C 10.13 g/m*3 16.62 C 0 km/h
182 17-08-2010 13:00:00 17.3 C 11.73 g/m*3 17.3 C 0 km/h
183 17-08-2010 14:00:00 17.74 C 9.16 g/m*3 17.74 C 0 km/h
184 17-08-2010 15:00:00 17.08 C 8.75 g/m*3 17.08 C 0 km/h
185 17-08-2010 16:00:00 14.7 C 9.74 g/m*3 14.7 C 0 km/h
186 17-08-2010 17:00:00 14.42 C 9.98 g/m*3 14.42 C 0 km/h
187 17-08-2010 18:00:00 14.8 C 11 g/m*3 14.8 C 0 km/h
188 17-08-2010 19:00:00 14.84 C 11.05 g/m*3 14.84 C 0 km/h
189 17-08-2010 20:00:00 14.32 C 11.02 g/m*3 14.32 C 0 km/h
190 17-08-2010 21:00:00 14.38 C 11.31 g/m*3 14.38 C 0 km/h
191 17-08-2010 22:00:00 14.62 C 10.75 g/m*3 14.62 C 0 km/h
192 17-08-2010 23:00:00 15 C 10.05 g/m*3 15 C 0 km/h
193 18-08-2010 00:00:00 15.52 C 9.66 g/m*3 15.52 C 0 km/h
194 18-08-2010 01:00:00 15.76 C 9.43 g/m*3 15.76 C 0 km/h
195 18-08-2010 02:00:00 15.54 C 9.43 g/m*3 15.54 C 0 km/h
196 18-08-2010 03:00:00 15.46 C 9.49 g/m*3 15.46 C 0 km/h
197 18-08-2010 04:00:00 15.2 C 9.55 g/m*3 15.2 C 0 km/h
198 18-08-2010 05:00:00 14.96 C 9.8 g/m*3 14.96 C 0 km/h
199 18-08-2010 06:00:00 15.08 C 9.56 g/m*3 15.08 C 0 km/h
200 18-08-2010 07:00:00 15.44 C 9.69 g/m*3 15.44 C 0 km/h
Sensor: Nr:Datum:Temp:Abs-Feuchte:Windchill:Wind:
Aussen-T/F 201 18-08-2010 08:00:00 16.16 C 9.88 g/m*3 16.16 C 0 km/h
202 18-08-2010 09:00:00 17.1 C 10.16 g/m*3 17.1 C 0 km/h
203 18-08-2010 10:00:00 18.16 C 10.2 g/m*3 18.16 C 0 km/h
204 18-08-2010 11:00:00 18.7 C 10.18 g/m*3 18.7 C 0 km/h
205 18-08-2010 12:00:00 18.82 C 10.67 g/m*3 18.82 C 0 km/h
206 18-08-2010 13:00:00 20.8 C 10.25 g/m*3 20.8 C 0 km/h
207 18-08-2010 14:00:00 22.84 C 9.04 g/m*3 22.84 C 0 km/h
208 18-08-2010 15:00:00 22.24 C 9.01 g/m*3 22.24 C 0 km/h
209 18-08-2010 16:00:00 23.68 C 9.02 g/m*3 23.68 C 0 km/h
210 18-08-2010 17:00:00 23.88 C 8.86 g/m*3 23.88 C 0 km/h
211 18-08-2010 18:00:00 22.36 C 9.15 g/m*3 22.36 C 0 km/h
212 18-08-2010 19:00:00 20.68 C 9.35 g/m*3 20.68 C 0 km/h
213 18-08-2010 20:00:00 19.44 C 10 g/m*3 19.44 C 0 km/h
214 18-08-2010 21:00:00 18.82 C 10.19 g/m*3 18.82 C 0 km/h
215 18-08-2010 22:00:00 17.6 C 10.59 g/m*3 17.6 C 0 km/h
216 18-08-2010 23:00:00 17.58 C 10.19 g/m*3 17.58 C 0 km/h
217 19-08-2010 00:00:00 17.36 C 9.14 g/m*3 17.36 C 0 km/h
218 19-08-2010 01:00:00 16.86 C 9.18 g/m*3 16.86 C 0 km/h
219 19-08-2010 02:00:00 16.32 C 8.81 g/m*3 16.32 C 0 km/h
220 19-08-2010 03:00:00 15.9 C 9.21 g/m*3 15.9 C 0 km/h
221 19-08-2010 04:00:00 15.54 C 9.38 g/m*3 15.54 C 0 km/h
222 19-08-2010 05:00:00 15.1 C 9.31 g/m*3 15.1 C 0 km/h
223 19-08-2010 06:00:00 14.18 C 8.9 g/m*3 14.18 C 0 km/h
224 19-08-2010 07:00:00 13.92 C 8.21 g/m*3 13.92 C 0 km/h
225 19-08-2010 08:00:00 14.78 C 8.05 g/m*3 14.78 C 0 km/h
Sensor: Nr:Datum:Temp:Abs-Feuchte:Windchill:Wind:
Aussen-T/F 226 19-08-2010 09:00:00 15.72 C 8.06 g/m*3 15.72 C 0 km/h
227 19-08-2010 10:00:00 17.9 C 7.7 g/m*3 17.9 C 0 km/h
228 19-08-2010 11:00:00 20 C 7.26 g/m*3 20 C 0 km/h
229 19-08-2010 12:00:00 21.44 C 6.65 g/m*3 21.44 C 0 km/h
230 19-08-2010 13:00:00 22.64 C 6.16 g/m*3 22.64 C 0 km/h
231 19-08-2010 14:00:00 23.04 C 6.02 g/m*3 23.04 C 0 km/h
232 19-08-2010 15:00:00 23.74 C 6.22 g/m*3 23.74 C 0 km/h
233 19-08-2010 16:00:00 23.28 C 7.64 g/m*3 23.28 C 0 km/h
234 19-08-2010 17:00:00 23.9 C 7.53 g/m*3 23.9 C 0 km/h
235 19-08-2010 18:00:00 25.42 C 5.75 g/m*3 25.42 C 0 km/h
236 19-08-2010 19:00:00 25.24 C 6.63 g/m*3 25.24 C 0 km/h
237 19-08-2010 20:00:00 20.5 C 7.15 g/m*3 20.5 C 0 km/h
238 19-08-2010 21:00:00 18.08 C 7.78 g/m*3 18.08 C 0 km/h
239 19-08-2010 22:00:00 16.86 C 8.01 g/m*3 16.86 C 0 km/h
240 19-08-2010 23:00:00 15.62 C 8.36 g/m*3 15.62 C 0 km/h
241 20-08-2010 00:00:00 14.72 C 8.55 g/m*3 14.72 C 0 km/h
242 20-08-2010 01:00:00 14.04 C 8.61 g/m*3 14.04 C 0 km/h
243 20-08-2010 02:00:00 13.34 C 8.59 g/m*3 13.34 C 0 km/h
244 20-08-2010 03:00:00 12.8 C 8.62 g/m*3 12.8 C 0 km/h
245 20-08-2010 04:00:00 12.26 C 8.58 g/m*3 12.26 C 0 km/h
246 20-08-2010 05:00:00 11.9 C 8.56 g/m*3 11.9 C 0 km/h
247 20-08-2010 06:00:00 11.48 C 8.54 g/m*3 11.48 C 0 km/h
248 20-08-2010 07:00:00 11.76 C 8.78 g/m*3 11.76 C 0 km/h
249 20-08-2010 08:00:00 12.54 C 9.19 g/m*3 12.54 C 0 km/h
250 20-08-2010 09:00:00 14.5 C 9.85 g/m*3 14.5 C 0 km/h
Sensor: Nr:Datum:Temp:Abs-Feuchte:Windchill:Wind:
Aussen-T/F 251 20-08-2010 10:00:00 18.02 C 10.3 g/m*3 18.02 C 0 km/h
252 20-08-2010 11:00:00 20.98 C 10.87 g/m*3 20.98 C 0 km/h
253 20-08-2010 12:00:00 23.76 C 10.86 g/m*3 23.76 C 0 km/h
254 20-08-2010 13:00:00 26.76 C 9.04 g/m*3 26.76 C 0 km/h
255 20-08-2010 14:00:00 28.36 C 7.82 g/m*3 28.36 C 0 km/h
256 20-08-2010 15:00:00 29.54 C 7.45 g/m*3 29.54 C 0 km/h
257 20-08-2010 16:00:00 30.72 C 7.57 g/m*3 30.72 C 0 km/h
258 20-08-2010 17:00:00 31.16 C 7.29 g/m*3 31.16 C 0 km/h
259 20-08-2010 18:00:00 31.22 C 7.64 g/m*3 31.22 C 0 km/h
260 20-08-2010 19:00:00 29.58 C 8.42 g/m*3 29.58 C 0 km/h
261 20-08-2010 20:00:00 25.1 C 9.07 g/m*3 25.1 C 0 km/h
262 20-08-2010 21:00:00 23.08 C 9.58 g/m*3 23.08 C 0 km/h
263 20-08-2010 22:00:00 22.025 C 10.2 g/m*3 22.03 C 0 km/h
264 20-08-2010 23:00:00 20.9 C 10.64 g/m*3 20.9 C 0 km/h
265 21-08-2010 00:00:00 19.76 C 10.77 g/m*3 19.76 C 0 km/h
266 21-08-2010 01:00:00 18.84 C 11.01 g/m*3 18.84 C 0 km/h
267 21-08-2010 02:00:00 18.16 C 11.04 g/m*3 18.16 C 0 km/h
268 21-08-2010 03:00:00 17.66 C 11.11 g/m*3 17.66 C 0 km/h
269 21-08-2010 04:00:00 17.06 C 11.12 g/m*3 17.06 C 0 km/h
270 21-08-2010 05:00:00 16.46 C 10.95 g/m*3 16.46 C 0 km/h
271 21-08-2010 06:00:00 16.04 C 10.9 g/m*3 16.04 C 0 km/h
272 21-08-2010 07:00:00 16 C 11.06 g/m*3 16 C 0 km/h
273 21-08-2010 08:00:00 16.78 C 11.54 g/m*3 16.78 C 0 km/h
274 21-08-2010 09:00:00 18.42 C 12.22 g/m*3 18.42 C 0 km/h
275 21-08-2010 10:00:00 21.4 C 12.86 g/m*3 21.4 C 0 km/h
Sensor: Nr:Datum:Temp:Abs-Feuchte:Windchill:Wind:
Aussen-T/F 276 21-08-2010 11:00:00 24.76 C 12.17 g/m*3 24.76 C 0 km/h
277 21-08-2010 12:00:00 27.54 C 9.81 g/m*3 27.54 C 0 km/h
278 21-08-2010 13:00:00 29.12 C 9.19 g/m*3 29.12 C 0 km/h
279 21-08-2010 14:00:00 30.42 C 8.69 g/m*3 30.42 C 0 km/h
280 21-08-2010 15:00:00 31.28 C 8.51 g/m*3 31.28 C 0 km/h
281 21-08-2010 16:00:00 32.14 C 7.89 g/m*3 32.14 C 0 km/h
282 21-08-2010 17:00:00 32.38 C 7.58 g/m*3 32.38 C 0 km/h
283 21-08-2010 18:00:00 32.42 C 7.39 g/m*3 32.42 C 0 km/h
284 21-08-2010 19:00:00 31.66 C 7.96 g/m*3 31.66 C 0 km/h
285 21-08-2010 20:00:00 28.82 C 9.33 g/m*3 28.82 C 0 km/h
286 21-08-2010 21:00:00 25.72 C 10.26 g/m*3 25.72 C 0 km/h
287 21-08-2010 22:00:00 24.34 C 10.87 g/m*3 24.34 C 0 km/h
288 21-08-2010 23:00:00 23.16 C 11.24 g/m*3 23.16 C 0 km/h
289 22-08-2010 00:00:00 22 C 11.45 g/m*3 22 C 0 km/h
290 22-08-2010 01:00:00 21.04 C 11.68 g/m*3 21.04 C 0 km/h
291 22-08-2010 02:00:00 20.14 C 11.88 g/m*3 20.14 C 0 km/h
292 22-08-2010 03:00:00 19.52 C 12.1 g/m*3 19.52 C 0 km/h
293 22-08-2010 04:00:00 19.16 C 12.11 g/m*3 19.16 C 0 km/h
294 22-08-2010 05:00:00 18.54 C 12.08 g/m*3 18.54 C 0 km/h
295 22-08-2010 06:00:00 18 C 12.01 g/m*3 18 C 0 km/h
296 22-08-2010 07:00:00 18.3 C 12.2 g/m*3 18.3 C 0 km/h
297 22-08-2010 08:00:00 18.96 C 12.62 g/m*3 18.96 C 0 km/h
298 22-08-2010 09:00:00 20.32 C 12.64 g/m*3 20.32 C 0 km/h
299 22-08-2010 10:00:00 23.1 C 12.69 g/m*3 23.1 C 0 km/h
300 22-08-2010 11:00:00 24.88 C 12.71 g/m*3 24.88 C 0 km/h
Sensor: Nr:Datum:Temp:Abs-Feuchte:Windchill:Wind:
Aussen-T/F 301 22-08-2010 12:00:00 27.46 C 11.67 g/m*3 27.46 C 0 km/h
302 22-08-2010 13:00:00 28.44 C 10.53 g/m*3 28.44 C 0 km/h
303 22-08-2010 14:00:00 28.74 C 10.48 g/m*3 28.74 C 0 km/h
304 22-08-2010 15:00:00 25.76 C 12.2 g/m*3 25.76 C 0 km/h
305 22-08-2010 16:00:00 27.8 C 11.89 g/m*3 27.8 C 0 km/h
306 22-08-2010 17:00:00 26.68 C 11.88 g/m*3 26.68 C 0 km/h
307 22-08-2010 18:00:00 26.28 C 11.72 g/m*3 26.28 C 0 km/h
308 22-08-2010 19:00:00 25.52 C 11.57 g/m*3 25.52 C 0 km/h
309 22-08-2010 20:00:00 24.42 C 10.65 g/m*3 24.42 C 0 km/h
310 22-08-2010 21:00:00 23.16 C 11.49 g/m*3 23.16 C 0 km/h
311 22-08-2010 22:00:00 22.66 C 11.69 g/m*3 22.66 C 0 km/h
312 22-08-2010 23:00:00 21.52 C 11.89 g/m*3 21.52 C 0 km/h
313 23-08-2010 00:00:00 20.88 C 12.01 g/m*3 20.88 C 0 km/h
314 23-08-2010 01:00:00 20.38 C 12.16 g/m*3 20.38 C 0 km/h
315 23-08-2010 02:00:00 20.02 C 12.32 g/m*3 20.02 C 0 km/h
316 23-08-2010 03:00:00 19.82 C 12.31 g/m*3 19.82 C 0 km/h
317 23-08-2010 04:00:00 19.52 C 12.33 g/m*3 19.52 C 0 km/h
318 23-08-2010 05:00:00 19.44 C 12.21 g/m*3 19.44 C 0 km/h
319 23-08-2010 06:00:00 19.48 C 12.34 g/m*3 19.48 C 0 km/h
320 23-08-2010 07:00:00 19.92 C 12.49 g/m*3 19.92 C 0 km/h
321 23-08-2010 08:00:00 19.74 C 13.31 g/m*3 19.74 C 0 km/h
322 23-08-2010 09:00:00 19.44 C 14.52 g/m*3 19.44 C 0 km/h
323 23-08-2010 10:00:00 20.64 C 15.07 g/m*3 20.64 C 0 km/h
324 23-08-2010 11:00:00 22.26 C 14.78 g/m*3 22.26 C 0 km/h
325 23-08-2010 12:00:00 23.08 C 15.61 g/m*3 23.08 C 0 km/h
Sensor: Nr:Datum:Temp:Abs-Feuchte:Windchill:Wind:
Aussen-T/F 326 23-08-2010 13:00:00 23.68 C 14.36 g/m*3 23.68 C 0 km/h
327 23-08-2010 14:00:00 24.34 C 14.28 g/m*3 24.34 C 0 km/h
328 23-08-2010 15:00:00 25.86 C 12.32 g/m*3 25.86 C 0 km/h
329 23-08-2010 16:00:00 25.94 C 11.4 g/m*3 25.94 C 0 km/h
330 23-08-2010 17:00:00 23.58 C 11.98 g/m*3 23.58 C 0 km/h
331 23-08-2010 18:00:00 21.12 C 13.76 g/m*3 21.12 C 0 km/h
332 23-08-2010 19:00:00 20.76 C 13.77 g/m*3 20.76 C 0 km/h
333 23-08-2010 20:00:00 20.34 C 12.94 g/m*3 20.34 C 0 km/h
334 23-08-2010 21:00:00 19.8 C 12.61 g/m*3 19.8 C 0 km/h
335 23-08-2010 22:00:00 19.58 C 12.24 g/m*3 19.58 C 0 km/h
336 23-08-2010 23:00:00 19.3 C 11.94 g/m*3 19.3 C 0 km/h
337 24-08-2010 00:00:00 19.18 C 12.09 g/m*3 19.18 C 0 km/h
338 24-08-2010 01:00:00 19.2 C 12.43 g/m*3 19.2 C 0 km/h
339 24-08-2010 02:00:00 19.68 C 12.28 g/m*3 19.68 C 0 km/h
340 24-08-2010 03:00:00 18.34 C 11.85 g/m*3 18.34 C 0 km/h
341 24-08-2010 04:00:00 18.06 C 9.53 g/m*3 18.06 C 0 km/h
342 24-08-2010 05:00:00 17.24 C 9.51 g/m*3 17.24 C 0 km/h
343 24-08-2010 06:00:00 17.08 C 9.48 g/m*3 17.08 C 0 km/h
344 24-08-2010 07:00:00 16.44 C 9.23 g/m*3 16.44 C 0 km/h
345 24-08-2010 08:00:00 16.16 C 8.45 g/m*3 16.16 C 0 km/h
346 24-08-2010 09:00:00 16.76 C 7.3 g/m*3 16.76 C 0 km/h
347 24-08-2010 10:00:00 17.88 C 7.23 g/m*3 17.88 C 0 km/h
348 24-08-2010 11:00:00 19.08 C 6.88 g/m*3 19.08 C 0 km/h
349 24-08-2010 12:00:00 20.04 C 6.34 g/m*3 20.04 C 0 km/h
350 24-08-2010 13:00:00 21 C 5.94 g/m*3 21 C 0 km/h
Sensor: Nr:Datum:Temp:Abs-Feuchte:Windchill:Wind:
Aussen-T/F 351 24-08-2010 14:00:00 21.46 C 5.49 g/m*3 21.46 C 0 km/h
352 24-08-2010 15:00:00 21.82 C 5.11 g/m*3 21.82 C 0 km/h
353 24-08-2010 16:00:00 23.04 C 4.61 g/m*3 23.04 C 0 km/h
354 24-08-2010 17:00:00 23.22 C 4.7 g/m*3 23.22 C 0 km/h
355 24-08-2010 18:00:00 22.92 C 5.11 g/m*3 22.92 C 0 km/h
356 24-08-2010 19:00:00 21.68 C 5.18 g/m*3 21.68 C 0 km/h
357 24-08-2010 20:00:00 19.76 C 5.79 g/m*3 19.76 C 0 km/h
358 24-08-2010 21:00:00 18.28 C 6.12 g/m*3 18.28 C 0 km/h
359 24-08-2010 22:00:00 17.4 C 6.28 g/m*3 17.4 C 0 km/h
360 24-08-2010 23:00:00 16.78 C 6.43 g/m*3 16.78 C 0 km/h
361 25-08-2010 00:00:00 16.16 C 6.55 g/m*3 16.16 C 0 km/h
362 25-08-2010 01:00:00 15.52 C 6.8 g/m*3 15.52 C 0 km/h
363 25-08-2010 02:00:00 14.66 C 7.11 g/m*3 14.66 C 0 km/h
364 25-08-2010 03:00:00 13.76 C 7.56 g/m*3 13.76 C 0 km/h
365 25-08-2010 04:00:00 13.4 C 7.7 g/m*3 13.4 C 0 km/h
366 25-08-2010 05:00:00 13.38 C 7.52 g/m*3 13.38 C 0 km/h
367 25-08-2010 06:00:00 12.94 C 7.71 g/m*3 12.94 C 0 km/h
368 25-08-2010 07:00:00 12.76 C 7.84 g/m*3 12.76 C 0 km/h
369 25-08-2010 08:00:00 13.54 C 7.86 g/m*3 13.54 C 0 km/h
370 25-08-2010 09:00:00 14.92 C 7.91 g/m*3 14.92 C 0 km/h
371 25-08-2010 10:00:00 16.3 C 7.8 g/m*3 16.3 C 0 km/h
372 25-08-2010 11:00:00 17.9 C 7.82 g/m*3 17.9 C 0 km/h
373 25-08-2010 12:00:00 20 C 7.19 g/m*3 20 C 0 km/h
374 25-08-2010 13:00:00 20.82 C 6.67 g/m*3 20.82 C 0 km/h
375 25-08-2010 14:00:00 21.46 C 6.43 g/m*3 21.46 C 0 km/h
Sensor: Nr:Datum:Temp:Abs-Feuchte:Windchill:Wind:
Aussen-T/F 376 25-08-2010 15:00:00 23.54 C 6.1 g/m*3 23.54 C 0 km/h
377 25-08-2010 16:00:00 24.46 C 5.67 g/m*3 24.46 C 0 km/h
378 25-08-2010 17:00:00 23.2 C 6.65 g/m*3 23.2 C 0 km/h
379 25-08-2010 18:00:00 21.9 C 7.1 g/m*3 21.9 C 0 km/h
380 25-08-2010 19:00:00 20.22 C 7.91 g/m*3 20.22 C 0 km/h
381 25-08-2010 20:00:00 19.04 C 8.23 g/m*3 19.04 C 0 km/h
382 25-08-2010 21:00:00 18.12 C 8.35 g/m*3 18.12 C 0 km/h
383 25-08-2010 22:00:00 17.56 C 8.5 g/m*3 17.56 C 0 km/h
384 25-08-2010 23:00:00 17.3 C 8.81 g/m*3 17.3 C 0 km/h
385 26-08-2010 00:00:00 17.28 C 9.06 g/m*3 17.28 C 0 km/h
386 26-08-2010 01:00:00 17.48 C 9.11 g/m*3 17.48 C 0 km/h
387 26-08-2010 02:00:00 16.88 C 9.97 g/m*3 16.88 C 0 km/h
388 26-08-2010 03:00:00 16.86 C 10.04 g/m*3 16.86 C 0 km/h
389 26-08-2010 04:00:00 16.94 C 9.86 g/m*3 16.94 C 0 km/h
390 26-08-2010 05:00:00 18.28 C 10.31 g/m*3 18.28 C 0 km/h
391 26-08-2010 06:00:00 18.18 C 10.53 g/m*3 18.18 C 0 km/h
392 26-08-2010 07:00:00 19.26 C 10.69 g/m*3 19.26 C 0 km/h
393 26-08-2010 08:00:00 20.2 C 11.12 g/m*3 20.2 C 0 km/h
394 26-08-2010 09:00:00 21.52 C 11.33 g/m*3 21.52 C 0 km/h
395 26-08-2010 10:00:00 22.76 C 11.19 g/m*3 22.76 C 0 km/h
396 26-08-2010 11:00:00 23.76 C 11.16 g/m*3 23.76 C 0 km/h
397 26-08-2010 12:00:00 23.54 C 11.15 g/m*3 23.54 C 0 km/h
398 26-08-2010 13:00:00 22.96 C 11.2 g/m*3 22.96 C 0 km/h
399 26-08-2010 14:00:00 23.8 C 11.19 g/m*3 23.8 C 0 km/h
400 26-08-2010 15:00:00 23.68 C 11.32 g/m*3 23.68 C 0 km/h
Sensor: Nr:Datum:Temp:Abs-Feuchte:Windchill:Wind:
Aussen-T/F 401 26-08-2010 16:00:00 23.94 C 11.28 g/m*3 23.94 C 0 km/h
402 26-08-2010 17:00:00 23.62 C 11.29 g/m*3 23.62 C 0 km/h
403 26-08-2010 18:00:00 23.18 C 11.67 g/m*3 23.18 C 0 km/h
404 26-08-2010 19:00:00 21.66 C 13.36 g/m*3 21.66 C 0 km/h
405 26-08-2010 20:00:00 20.94 C 14.49 g/m*3 20.94 C 0 km/h
406 26-08-2010 21:00:00 20.42 C 14.03 g/m*3 20.42 C 0 km/h
407 26-08-2010 22:00:00 19.76 C 14.62 g/m*3 19.76 C 0 km/h
408 26-08-2010 23:00:00 19.44 C 14.95 g/m*3 19.44 C 0 km/h
409 27-08-2010 00:00:00 18.98 C 14.91 g/m*3 18.98 C 0 km/h
410 27-08-2010 01:00:00 18.76 C 14.97 g/m*3 18.76 C 0 km/h
411 27-08-2010 02:00:00 18.62 C 14.98 g/m*3 18.62 C 0 km/h
412 27-08-2010 03:00:00 18.38 C 14.77 g/m*3 18.38 C 0 km/h
413 27-08-2010 04:00:00 18.34 C 14.73 g/m*3 18.34 C 0 km/h
414 27-08-2010 05:00:00 18.4 C 14.88 g/m*3 18.4 C 0 km/h
415 27-08-2010 06:00:00 18.82 C 15.32 g/m*3 18.82 C 0 km/h
416 27-08-2010 07:00:00 18.68 C 15.03 g/m*3 18.68 C 0 km/h
417 27-08-2010 08:00:00 18.58 C 14.94 g/m*3 18.58 C 0 km/h
418 27-08-2010 09:00:00 19.26 C 15.06 g/m*3 19.26 C 0 km/h
419 27-08-2010 10:00:00 19.32 C 14.35 g/m*3 19.32 C 0 km/h
420 27-08-2010 11:00:00 18.16 C 13.58 g/m*3 18.16 C 0 km/h
421 27-08-2010 12:00:00 20.1 C 13.52 g/m*3 20.1 C 0 km/h
422 27-08-2010 13:00:00 22.92 C 12.6 g/m*3 22.92 C 0 km/h
423 27-08-2010 14:00:00 20.76 C 12.07 g/m*3 20.76 C 0 km/h
424 27-08-2010 15:00:00 18.92 C 13.49 g/m*3 18.92 C 0 km/h
425 27-08-2010 16:00:00 21.9 C 12.89 g/m*3 21.9 C 0 km/h
Sensor: Nr:Datum:Temp:Abs-Feuchte:Windchill:Wind:
Aussen-T/F 426 27-08-2010 17:00:00 21.3 C 11.71 g/m*3 21.3 C 0 km/h
427 27-08-2010 18:00:00 16.8 C 12.01 g/m*3 16.8 C 0 km/h
428 27-08-2010 19:00:00 15.64 C 10.93 g/m*3 15.64 C 0 km/h
429 27-08-2010 20:00:00 15.12 C 10.44 g/m*3 15.12 C 0 km/h
430 27-08-2010 21:00:00 14.58 C 10.17 g/m*3 14.58 C 0 km/h
431 27-08-2010 22:00:00 14.74 C 10.02 g/m*3 14.74 C 0 km/h
432 27-08-2010 23:00:00 13.96 C 9.34 g/m*3 13.96 C 0 km/h
433 28-08-2010 00:00:00 13.78 C 9.21 g/m*3 13.78 C 0 km/h
434 28-08-2010 01:00:00 13.1 C 9.88 g/m*3 13.1 C 0 km/h
435 28-08-2010 02:00:00 13.14 C 9.82 g/m*3 13.14 C 0 km/h
436 28-08-2010 03:00:00 13.1 C 9.56 g/m*3 13.1 C 0 km/h
437 28-08-2010 04:00:00 12.54 C 9.3 g/m*3 12.54 C 0 km/h
438 28-08-2010 05:00:00 12.12 C 9.15 g/m*3 12.12 C 0 km/h
439 28-08-2010 06:00:00 11.58 C 8.76 g/m*3 11.58 C 0 km/h
440 28-08-2010 07:00:00 11.72 C 8.88 g/m*3 11.72 C 0 km/h
441 28-08-2010 08:00:00 13.08 C 8.94 g/m*3 13.08 C 0 km/h
442 28-08-2010 09:00:00 14.22 C 8.58 g/m*3 14.22 C 0 km/h
443 28-08-2010 10:00:00 15.14 C 8.35 g/m*3 15.14 C 0 km/h
444 28-08-2010 11:00:00 16.44 C 7.81 g/m*3 16.44 C 0 km/h
445 28-08-2010 12:00:00 15.42 C 8.71 g/m*3 15.42 C 0 km/h
446 28-08-2010 13:00:00 16.24 C 10.62 g/m*3 16.24 C 0 km/h
447 28-08-2010 14:00:00 15.6 C 7.69 g/m*3 15.6 C 0 km/h
448 28-08-2010 15:00:00 16.72 C 7.46 g/m*3 16.72 C 0 km/h
449 28-08-2010 16:00:00 15.1 C 8.08 g/m*3 15.1 C 0 km/h
450 28-08-2010 17:00:00 15.6 C 8.67 g/m*3 15.6 C 0 km/h
Sensor: Nr:Datum:Temp:Abs-Feuchte:Windchill:Wind:
Aussen-T/F 451 28-08-2010 18:00:00 17.56 C 7.42 g/m*3 17.56 C 0 km/h
452 28-08-2010 19:00:00 15.26 C 8.34 g/m*3 15.26 C 0 km/h
453 28-08-2010 20:00:00 13.1 C 9.04 g/m*3 13.1 C 0 km/h
454 28-08-2010 21:00:00 12.46 C 9.12 g/m*3 12.46 C 0 km/h
455 28-08-2010 22:00:00 12.24 C 8.96 g/m*3 12.24 C 0 km/h
456 28-08-2010 23:00:00 12.36 C 8.72 g/m*3 12.36 C 0 km/h
457 29-08-2010 00:00:00 11.9 C 8.47 g/m*3 11.9 C 0 km/h
458 29-08-2010 01:00:00 11.5 C 8.45 g/m*3 11.5 C 0 km/h
459 29-08-2010 02:00:00 11.74 C 8.54 g/m*3 11.74 C 0 km/h
460 29-08-2010 03:00:00 11.76 C 8.48 g/m*3 11.76 C 0 km/h
461 29-08-2010 04:00:00 11.5 C 8.39 g/m*3 11.5 C 0 km/h
462 29-08-2010 05:00:00 11.74 C 8.33 g/m*3 11.74 C 0 km/h
463 29-08-2010 06:00:00 12.1 C 8.3 g/m*3 12.1 C 0 km/h
464 29-08-2010 07:00:00 12.2 C 8.33 g/m*3 12.2 C 0 km/h
465 29-08-2010 08:00:00 12.44 C 8.35 g/m*3 12.44 C 0 km/h
466 29-08-2010 09:00:00 14 C 8.18 g/m*3 14 C 0 km/h
467 29-08-2010 10:00:00 15.4 C 8.04 g/m*3 15.4 C 0 km/h
468 29-08-2010 11:00:00 16.26 C 7.92 g/m*3 16.26 C 0 km/h
469 29-08-2010 12:00:00 15.12 C 9.04 g/m*3 15.12 C 0 km/h
470 29-08-2010 13:00:00 16.04 C 8.71 g/m*3 16.04 C 0 km/h
471 29-08-2010 14:00:00 16.46 C 8.4 g/m*3 16.46 C 0 km/h
472 29-08-2010 15:00:00 15.08 C 8.92 g/m*3 15.08 C 0 km/h
473 29-08-2010 16:00:00 15.76 C 8.51 g/m*3 15.76 C 0 km/h
474 29-08-2010 17:00:00 14.96 C 8.31 g/m*3 14.96 C 0 km/h
475 29-08-2010 18:00:00 13.06 C 9.31 g/m*3 13.06 C 0 km/h
Sensor: Nr:Datum:Temp:Abs-Feuchte:Windchill:Wind:
Aussen-T/F 476 29-08-2010 19:00:00 12 C 9.29 g/m*3 12 C 0 km/h
477 29-08-2010 20:00:00 11.78 C 8.96 g/m*3 11.78 C 0 km/h
478 29-08-2010 21:00:00 11.64 C 8.71 g/m*3 11.64 C 0 km/h
479 29-08-2010 22:00:00 9.2 C 8.02 g/m*3 9.2 C 0 km/h
480 29-08-2010 23:00:00 9.12 C 8.16 g/m*3 9.12 C 0 km/h
481 30-08-2010 00:00:00 9.2 C 7.98 g/m*3 9.2 C 0 km/h
482 30-08-2010 01:00:00 9.94 C 7.84 g/m*3 9.94 C 0 km/h
483 30-08-2010 02:00:00 10.52 C 7.77 g/m*3 10.52 C 0 km/h
484 30-08-2010 03:00:00 10.82 C 7.66 g/m*3 10.82 C 0 km/h
485 30-08-2010 04:00:00 10.26 C 7.99 g/m*3 10.26 C 0 km/h
486 30-08-2010 05:00:00 9.62 C 8.02 g/m*3 9.62 C 0 km/h
487 30-08-2010 06:00:00 10.06 C 8.47 g/m*3 10.06 C 0 km/h
488 30-08-2010 07:00:00 9.96 C 8.4 g/m*3 9.96 C 0 km/h
489 30-08-2010 08:00:00 10.82 C 8.63 g/m*3 10.82 C 0 km/h
490 30-08-2010 09:00:00 10.98 C 8.64 g/m*3 10.98 C 0 km/h
491 30-08-2010 10:00:00 11.86 C 8.83 g/m*3 11.86 C 0 km/h
492 30-08-2010 11:00:00 13 C 8.32 g/m*3 13 C 0 km/h
493 30-08-2010 12:00:00 14.02 C 7.63 g/m*3 14.02 C 0 km/h
494 30-08-2010 13:00:00 16.04 C 6.77 g/m*3 16.04 C 0 km/h
495 30-08-2010 14:00:00 16.28 C 7.73 g/m*3 16.28 C 0 km/h
496 30-08-2010 15:00:00 17.48 C 7.8 g/m*3 17.48 C 0 km/h
497 30-08-2010 16:00:00 15.86 C 9.16 g/m*3 15.86 C 0 km/h
498 30-08-2010 17:00:00 15.04 C 9.23 g/m*3 15.04 C 0 km/h
499 30-08-2010 18:00:00 14.32 C 8.76 g/m*3 14.32 C 0 km/h
500 30-08-2010 19:00:00 14.04 C 8.97 g/m*3 14.04 C 0 km/h
Sensor: Nr:Datum:Temp:Abs-Feuchte:Windchill:Wind:
Aussen-T/F 501 30-08-2010 20:00:00 13.76 C 8.72 g/m*3 13.76 C 0 km/h
502 30-08-2010 21:00:00 12.72 C 9.56 g/m*3 12.72 C 0 km/h
503 30-08-2010 22:00:00 12.72 C 9.92 g/m*3 12.72 C 0 km/h
504 30-08-2010 23:00:00 12.3 C 9.69 g/m*3 12.3 C 0 km/h
505 31-08-2010 00:00:00 12.22 C 9.62 g/m*3 12.22 C 0 km/h
506 31-08-2010 01:00:00 12.42 C 9.45 g/m*3 12.42 C 0 km/h
507 31-08-2010 02:00:00 12.36 C 9.31 g/m*3 12.36 C 0 km/h
508 31-08-2010 03:00:00 12.1 C 9.07 g/m*3 12.1 C 0 km/h
509 31-08-2010 04:00:00 11.52 C 9.06 g/m*3 11.52 C 0 km/h
510 31-08-2010 05:00:00 11.38 C 9.04 g/m*3 11.38 C 0 km/h
511 31-08-2010 06:00:00 11.7 C 9.22 g/m*3 11.7 C 0 km/h
512 31-08-2010 07:00:00 12.2 C 9.09 g/m*3 12.2 C 0 km/h
513 31-08-2010 08:00:00 12.64 C 9.07 g/m*3 12.64 C 0 km/h
514 31-08-2010 09:00:00 13.58 C 8.86 g/m*3 13.58 C 0 km/h
515 31-08-2010 10:00:00 14.14 C 8.35 g/m*3 14.14 C 0 km/h
516 31-08-2010 11:00:00 15.6 C 8.09 g/m*3 15.6 C 0 km/h
517 31-08-2010 12:00:00 16.88 C 7.93 g/m*3 16.88 C 0 km/h
518 31-08-2010 13:00:00 17.96 C 6.99 g/m*3 17.96 C 0 km/h
519 31-08-2010 14:00:00 20.16 C 6.45 g/m*3 20.16 C 0 km/h
520 31-08-2010 15:00:00 21.2 C 5.86 g/m*3 21.2 C 0 km/h
521 31-08-2010 16:00:00 21.46 C 5.64 g/m*3 21.46 C 0 km/h
522 31-08-2010 17:00:00 21.82 C 5.57 g/m*3 21.82 C 0 km/h
523 31-08-2010 18:00:00 22.26 C 5.67 g/m*3 22.26 C 0 km/h
524 31-08-2010 19:00:00 20.32 C 6.55 g/m*3 20.32 C 0 km/h
525 31-08-2010 20:00:00 16.38 C 7.17 g/m*3 16.38 C 0 km/h
Sensor: Nr:Datum:Temp:Abs-Feuchte:Windchill:Wind:
Aussen-T/F 526 31-08-2010 21:00:00 14.44 C 7.61 g/m*3 14.44 C 0 km/h
527 31-08-2010 22:00:00 13.24 C 8.1 g/m*3 13.24 C 0 km/h
528 31-08-2010 23:00:00 12.32 C 8.09 g/m*3 12.32 C 0 km/h
529 01-09-2010 00:00:00 11.58 C 8.08 g/m*3 11.58 C 0 km/h
530 01-09-2010 01:00:00 10.98 C 8.1 g/m*3 10.98 C 0 km/h
531 01-09-2010 02:00:00 10.36 C 7.96 g/m*3 10.36 C 0 km/h
532 01-09-2010 03:00:00 9.74 C 7.97 g/m*3 9.74 C 0 km/h
533 01-09-2010 04:00:00 9.14 C 7.86 g/m*3 9.14 C 0 km/h
534 01-09-2010 05:00:00 8.92 C 7.95 g/m*3 8.92 C 0 km/h
535 01-09-2010 06:00:00 8.94 C 8.04 g/m*3 8.94 C 0 km/h
536 01-09-2010 07:00:00 9.02 C 7.98 g/m*3 9.02 C 0 km/h
537 01-09-2010 08:00:00 9.26 C 8.05 g/m*3 9.26 C 0 km/h
538 01-09-2010 09:00:00 10.22 C 8.14 g/m*3 10.22 C 0 km/h
539 01-09-2010 10:00:00 12.1 C 8.56 g/m*3 12.1 C 0 km/h
540 01-09-2010 11:00:00 14.26 C 8.78 g/m*3 14.26 C 0 km/h
541 01-09-2010 12:00:00 17.24 C 8.54 g/m*3 17.24 C 0 km/h
542 01-09-2010 13:00:00 19.52 C 7.96 g/m*3 19.52 C 0 km/h
543 01-09-2010 14:00:00 21.18 C 7.03 g/m*3 21.18 C 0 km/h
544 01-09-2010 15:00:00 23.6 C 6 g/m*3 23.6 C 0 km/h
545 01-09-2010 16:00:00 23.8 C 6.02 g/m*3 23.8 C 0 km/h
546 01-09-2010 17:00:00 22.04 C 6.38 g/m*3 22.04 C 0 km/h
547 01-09-2010 18:00:00 21.1 C 6.96 g/m*3 21.1 C 0 km/h
548 01-09-2010 19:00:00 19.62 C 7.88 g/m*3 19.62 C 0 km/h
549 01-09-2010 20:00:00 17.36 C 8.72 g/m*3 17.36 C 0 km/h
550 01-09-2010 21:00:00 16.24 C 8.85 g/m*3 16.24 C 0 km/h
Sensor: Nr:Datum:Temp:Abs-Feuchte:Windchill:Wind:
Aussen-T/F 551 01-09-2010 22:00:00 15.55 C 8.82 g/m*3 15.55 C 0 km/h
552 01-09-2010 23:00:00 14.16 C 8.28 g/m*3 14.16 C 0 km/h
553 02-09-2010 00:00:00 13.02 C 8.22 g/m*3 13.02 C 0 km/h
554 02-09-2010 01:00:00 12.32 C 8.37 g/m*3 12.32 C 0 km/h
555 02-09-2010 02:00:00 11.6 C 8.56 g/m*3 11.6 C 0 km/h
556 02-09-2010 03:00:00 11 C 8.31 g/m*3 11 C 0 km/h
557 02-09-2010 04:00:00 10.44 C 8.29 g/m*3 10.44 C 0 km/h
558 02-09-2010 05:00:00 10.32 C 8.5 g/m*3 10.32 C 0 km/h
559 02-09-2010 06:00:00 10.34 C 8.6 g/m*3 10.34 C 0 km/h
560 02-09-2010 07:00:00 10.68 C 8.81 g/m*3 10.68 C 0 km/h
561 02-09-2010 08:00:00 11.34 C 8.96 g/m*3 11.34 C 0 km/h
562 02-09-2010 09:00:00 12.4 C 8.98 g/m*3 12.4 C 0 km/h
563 02-09-2010 10:00:00 14.02 C 8.65 g/m*3 14.02 C 0 km/h
564 02-09-2010 11:00:00 15.46 C 9.02 g/m*3 15.46 C 0 km/h
565 02-09-2010 12:00:00 18.66 C 8.75 g/m*3 18.66 C 0 km/h
566 02-09-2010 13:00:00 20.84 C 7.37 g/m*3 20.84 C 0 km/h
567 02-09-2010 14:00:00 22.2 C 7.22 g/m*3 22.2 C 0 km/h
568 02-09-2010 15:00:00 21.42 C 6.91 g/m*3 21.42 C 0 km/h
569 02-09-2010 16:00:00 20.6 C 6.91 g/m*3 20.6 C 0 km/h
570 02-09-2010 17:00:00 19.54 C 7.13 g/m*3 19.54 C 0 km/h
571 02-09-2010 18:00:00 18.66 C 7.41 g/m*3 18.66 C 0 km/h
572 02-09-2010 19:00:00 17.64 C 8.93 g/m*3 17.64 C 0 km/h
573 02-09-2010 20:00:00 15.14 C 10.01 g/m*3 15.14 C 0 km/h
574 02-09-2010 21:00:00 14.42 C 9.85 g/m*3 14.42 C 0 km/h
575 02-09-2010 22:00:00 13.84 C 9.34 g/m*3 13.84 C 0 km/h
Sensor: Nr:Datum:Temp:Abs-Feuchte:Windchill:Wind:
Aussen-T/F 576 02-09-2010 23:00:00 12.98 C 9.2 g/m*3 12.98 C 0 km/h
577 03-09-2010 00:00:00 12.42 C 9.1 g/m*3 12.42 C 0 km/h
578 03-09-2010 01:00:00 11.82 C 8.92 g/m*3 11.82 C 0 km/h
579 03-09-2010 02:00:00 11.24 C 8.76 g/m*3 11.24 C 0 km/h
580 03-09-2010 03:00:00 10.72 C 8.63 g/m*3 10.72 C 0 km/h
581 03-09-2010 04:00:00 10.34 C 8.6 g/m*3 10.34 C 0 km/h
582 03-09-2010 05:00:00 10.4 C 8.75 g/m*3 10.4 C 0 km/h
583 03-09-2010 06:00:00 11.08 C 9.24 g/m*3 11.08 C 0 km/h
584 03-09-2010 07:00:00 11.36 C 9.32 g/m*3 11.36 C 0 km/h
585 03-09-2010 08:00:00 11.64 C 9.34 g/m*3 11.64 C 0 km/h
586 03-09-2010 09:00:00 12.44 C 9.29 g/m*3 12.44 C 0 km/h
587 03-09-2010 10:00:00 13.58 C 9.22 g/m*3 13.58 C 0 km/h
588 03-09-2010 11:00:00 15.9 C 8.94 g/m*3 15.9 C 0 km/h
589 03-09-2010 12:00:00 17.86 C 8.47 g/m*3 17.86 C 0 km/h
590 03-09-2010 13:00:00 19.68 C 8.18 g/m*3 19.68 C 0 km/h
591 03-09-2010 14:00:00 20.4 C 7.64 g/m*3 20.4 C 0 km/h
592 03-09-2010 15:00:00 22.78 C 7.02 g/m*3 22.78 C 0 km/h
593 03-09-2010 16:00:00 25.12 C 6.58 g/m*3 25.12 C 0 km/h
594 03-09-2010 17:00:00 24.12 C 6.53 g/m*3 24.12 C 0 km/h
595 03-09-2010 18:00:00 22.7 C 8.12 g/m*3 22.7 C 0 km/h
596 03-09-2010 19:00:00 20.7 C 8.86 g/m*3 20.7 C 0 km/h
597 03-09-2010 20:00:00 18.62 C 8.25 g/m*3 18.62 C 0 km/h
598 03-09-2010 21:00:00 16.32 C 8.56 g/m*3 16.32 C 0 km/h
599 03-09-2010 22:00:00 15.36 C 8.86 g/m*3 15.36 C 0 km/h
600 03-09-2010 23:00:00 15.34 C 9.22 g/m*3 15.34 C 0 km/h
Sensor: Nr:Datum:Temp:Abs-Feuchte:Windchill:Wind:
Aussen-T/F 601 04-09-2010 00:00:00 15.1 C 9.29 g/m*3 15.1 C 0 km/h
602 04-09-2010 01:00:00 14.82 C 9.41 g/m*3 14.82 C 0 km/h
603 04-09-2010 02:00:00 14.28 C 9.4 g/m*3 14.28 C 0 km/h
604 04-09-2010 03:00:00 13.72 C 9.41 g/m*3 13.72 C 0 km/h
605 04-09-2010 04:00:00 13.2 C 9.48 g/m*3 13.2 C 0 km/h
606 04-09-2010 05:00:00 13.1 C 9.59 g/m*3 13.1 C 0 km/h
607 04-09-2010 06:00:00 12.54 C 9.3 g/m*3 12.54 C 0 km/h
608 04-09-2010 07:00:00 12.08 C 9.25 g/m*3 12.08 C 0 km/h
609 04-09-2010 08:00:00 12.8 C 9.77 g/m*3 12.8 C 0 km/h
610 04-09-2010 09:00:00 14.44 C 9.96 g/m*3 14.44 C 0 km/h
611 04-09-2010 10:00:00 16.3 C 9.49 g/m*3 16.3 C 0 km/h
612 04-09-2010 11:00:00 18.88 C 8.77 g/m*3 18.88 C 0 km/h
613 04-09-2010 12:00:00 18.86 C 7.89 g/m*3 18.86 C 0 km/h
614 04-09-2010 13:00:00 19.58 C 7.62 g/m*3 19.58 C 0 km/h
615 04-09-2010 14:00:00 22.2 C 6.71 g/m*3 22.2 C 0 km/h
616 04-09-2010 15:00:00 22.88 C 6.29 g/m*3 22.88 C 0 km/h
617 04-09-2010 16:00:00 22.42 C 5.53 g/m*3 22.42 C 0 km/h
618 04-09-2010 17:00:00 23.12 C 4.88 g/m*3 23.12 C 0 km/h
619 04-09-2010 18:00:00 22.74 C 4.37 g/m*3 22.74 C 0 km/h
620 04-09-2010 19:00:00 19.74 C 5.55 g/m*3 19.74 C 0 km/h
621 04-09-2010 20:00:00 16.14 C 6.54 g/m*3 16.14 C 0 km/h
622 04-09-2010 21:00:00 14.92 C 6.94 g/m*3 14.92 C 0 km/h
623 04-09-2010 22:00:00 14.16 C 7.26 g/m*3 14.16 C 0 km/h
624 04-09-2010 23:00:00 13.12 C 7.59 g/m*3 13.12 C 0 km/h
625 05-09-2010 00:00:00 12.16 C 7.62 g/m*3 12.16 C 0 km/h
Sensor: Nr:Datum:Temp:Abs-Feuchte:Windchill:Wind:
Aussen-T/F 626 05-09-2010 01:00:00 11.22 C 7.53 g/m*3 11.22 C 0 km/h
627 05-09-2010 02:00:00 10.44 C 7.52 g/m*3 10.44 C 0 km/h
628 05-09-2010 03:00:00 9.72 C 7.4 g/m*3 9.72 C 0 km/h
629 05-09-2010 04:00:00 9.12 C 7.27 g/m*3 9.12 C 0 km/h
630 05-09-2010 05:00:00 8.64 C 7.27 g/m*3 8.64 C 0 km/h
631 05-09-2010 06:00:00 8.08 C 7.25 g/m*3 8.08 C 0 km/h
632 05-09-2010 07:00:00 8.4 C 7.52 g/m*3 8.4 C 0 km/h
633 05-09-2010 08:00:00 9.82 C 7.91 g/m*3 9.82 C 0 km/h
634 05-09-2010 09:00:00 11.1 C 7.88 g/m*3 11.1 C 0 km/h
635 05-09-2010 10:00:00 12.36 C 8.44 g/m*3 12.36 C 0 km/h
636 05-09-2010 11:00:00 15.42 C 8.16 g/m*3 15.42 C 0 km/h
637 05-09-2010 12:00:00 18.02 C 6.52 g/m*3 18.02 C 0 km/h
638 05-09-2010 13:00:00 20.14 C 5.92 g/m*3 20.14 C 0 km/h
639 05-09-2010 14:00:00 23.5 C 5.2 g/m*3 23.5 C 0 km/h
640 05-09-2010 15:00:00 24.16 C 4.83 g/m*3 24.16 C 0 km/h
641 05-09-2010 16:00:00 24.4 C 4.67 g/m*3 24.4 C 0 km/h
642 05-09-2010 17:00:00 24.6 C 5.04 g/m*3 24.6 C 0 km/h
643 05-09-2010 18:00:00 24.84 C 5.29 g/m*3 24.84 C 0 km/h
644 05-09-2010 19:00:00 19.38 C 6.4 g/m*3 19.38 C 0 km/h
645 05-09-2010 20:00:00 16.44 C 6.38 g/m*3 16.44 C 0 km/h
646 05-09-2010 21:00:00 14.9 C 6.81 g/m*3 14.9 C 0 km/h
647 05-09-2010 22:00:00 14.12 C 7.1 g/m*3 14.12 C 0 km/h
648 05-09-2010 23:00:00 13.94 C 6.92 g/m*3 13.94 C 0 km/h
649 06-09-2010 00:00:00 13.22 C 7.08 g/m*3 13.22 C 0 km/h
650 06-09-2010 01:00:00 12.36 C 7.11 g/m*3 12.36 C 0 km/h
Sensor: Nr:Datum:Temp:Abs-Feuchte:Windchill:Wind:
Aussen-T/F 651 06-09-2010 02:00:00 11.62 C 7.2 g/m*3 11.62 C 0 km/h
652 06-09-2010 03:00:00 11.1 C 7.15 g/m*3 11.1 C 0 km/h
653 06-09-2010 04:00:00 10.7 C 7.09 g/m*3 10.7 C 0 km/h
654 06-09-2010 05:00:00 10.24 C 7.02 g/m*3 10.24 C 0 km/h
655 06-09-2010 06:00:00 9.56 C 7 g/m*3 9.56 C 0 km/h
656 06-09-2010 07:00:00 9.28 C 7.07 g/m*3 9.28 C 0 km/h
657 06-09-2010 08:00:00 9.68 C 7.22 g/m*3 9.68 C 0 km/h
658 06-09-2010 09:00:00 10.94 C 7.52 g/m*3 10.94 C 0 km/h
659 06-09-2010 10:00:00 13.48 C 7.52 g/m*3 13.48 C 0 km/h
660 06-09-2010 11:00:00 16.32 C 7.14 g/m*3 16.32 C 0 km/h
661 06-09-2010 12:00:00 18.64 C 5.58 g/m*3 18.64 C 0 km/h
662 06-09-2010 13:00:00 20.24 C 5.4 g/m*3 20.24 C 0 km/h
663 06-09-2010 14:00:00 22.34 C 4.51 g/m*3 22.34 C 0 km/h
664 06-09-2010 15:00:00 24 C 4.35 g/m*3 24 C 0 km/h
665 06-09-2010 16:00:00 23.88 C 4.32 g/m*3 23.88 C 0 km/h
666 06-09-2010 17:00:00 24.42 C 4.46 g/m*3 24.42 C 0 km/h
667 06-09-2010 18:00:00 21.44 C 5.34 g/m*3 21.44 C 0 km/h
668 06-09-2010 19:00:00 18.72 C 5.87 g/m*3 18.72 C 0 km/h
669 06-09-2010 20:00:00 17.1 C 5.62 g/m*3 17.1 C 0 km/h
670 06-09-2010 21:00:00 16.22 C 5.44 g/m*3 16.22 C 0 km/h
671 06-09-2010 22:00:00 15.5 C 5.6 g/m*3 15.5 C 0 km/h
672 06-09-2010 23:00:00 15.2 C 5.63 g/m*3 15.2 C 0 km/h
673 07-09-2010 00:00:00 15.38 C 5.51 g/m*3 15.38 C 0 km/h
674 07-09-2010 01:00:00 15.42 C 5.39 g/m*3 15.42 C 0 km/h
675 07-09-2010 02:00:00 15.46 C 5.38 g/m*3 15.46 C 0 km/h
Sensor: Nr:Datum:Temp:Abs-Feuchte:Windchill:Wind:
Aussen-T/F 676 07-09-2010 03:00:00 14.34 C 6.03 g/m*3 14.34 C 0 km/h
677 07-09-2010 04:00:00 13.06 C 7.01 g/m*3 13.06 C 0 km/h
678 07-09-2010 05:00:00 12.98 C 7.11 g/m*3 12.98 C 0 km/h
679 07-09-2010 06:00:00 12.5 C 7.04 g/m*3 12.5 C 0 km/h
680 07-09-2010 07:00:00 12.12 C 7.09 g/m*3 12.12 C 0 km/h
681 07-09-2010 08:00:00 11.56 C 8.11 g/m*3 11.56 C 0 km/h
682 07-09-2010 09:00:00 11.46 C 8.41 g/m*3 11.46 C 0 km/h
683 07-09-2010 10:00:00 11.46 C 8.88 g/m*3 11.46 C 0 km/h
684 07-09-2010 11:00:00 11.64 C 9.21 g/m*3 11.64 C 0 km/h
685 07-09-2010 12:00:00 12.42 C 9.5 g/m*3 12.42 C 0 km/h
686 07-09-2010 13:00:00 12.78 C 9.31 g/m*3 12.78 C 0 km/h
687 07-09-2010 14:00:00 13.36 C 9.37 g/m*3 13.36 C 0 km/h
688 07-09-2010 15:00:00 14.58 C 9.12 g/m*3 14.58 C 0 km/h
689 07-09-2010 16:00:00 15.52 C 9.11 g/m*3 15.52 C 0 km/h
690 07-09-2010 17:00:00 14.88 C 9.06 g/m*3 14.88 C 0 km/h
691 07-09-2010 18:00:00 13.98 C 9.08 g/m*3 13.98 C 0 km/h
692 07-09-2010 19:00:00 13.78 C 9.38 g/m*3 13.78 C 0 km/h
693 07-09-2010 20:00:00 13.24 C 9.55 g/m*3 13.24 C 0 km/h
694 07-09-2010 21:00:00 12.96 C 9.89 g/m*3 12.96 C 0 km/h
695 07-09-2010 22:00:00 12.86 C 10.03 g/m*3 12.86 C 0 km/h
696 07-09-2010 23:00:00 12.92 C 10.16 g/m*3 12.92 C 0 km/h
697 08-09-2010 00:00:00 12.88 C 10.24 g/m*3 12.88 C 0 km/h
698 08-09-2010 01:00:00 13 C 10.37 g/m*3 13 C 0 km/h
699 08-09-2010 02:00:00 13.2 C 10.61 g/m*3 13.2 C 0 km/h
700 08-09-2010 03:00:00 13.56 C 10.92 g/m*3 13.56 C 0 km/h
Sensor: Nr:Datum:Temp:Abs-Feuchte:Windchill:Wind:
Aussen-T/F 701 08-09-2010 04:00:00 13.56 C 10.92 g/m*3 13.56 C 0 km/h
702 08-09-2010 05:00:00 14.16 C 11.4 g/m*3 14.16 C 0 km/h
703 08-09-2010 06:00:00 14.36 C 11.44 g/m*3 14.36 C 0 km/h
704 08-09-2010 07:00:00 14.22 C 11.25 g/m*3 14.22 C 0 km/h
705 08-09-2010 08:00:00 14.22 C 11.25 g/m*3 14.22 C 0 km/h
706 08-09-2010 09:00:00 15.22 C 11.62 g/m*3 15.22 C 0 km/h
707 08-09-2010 10:00:00 15.52 C 11.41 g/m*3 15.52 C 0 km/h
708 08-09-2010 11:00:00 15.24 C 11.03 g/m*3 15.24 C 0 km/h
709 08-09-2010 12:00:00 14.74 C 11.26 g/m*3 14.74 C 0 km/h
710 08-09-2010 13:00:00 16.22 C 12.12 g/m*3 16.22 C 0 km/h
711 08-09-2010 14:00:00 17.58 C 11.56 g/m*3 17.58 C 0 km/h
712 08-09-2010 15:00:00 17.94 C 11.17 g/m*3 17.94 C 0 km/h
713 08-09-2010 16:00:00 18.54 C 10.69 g/m*3 18.54 C 0 km/h
714 08-09-2010 17:00:00 19.88 C 10.23 g/m*3 19.88 C 0 km/h
715 08-09-2010 18:00:00 19.06 C 10.24 g/m*3 19.06 C 0 km/h
716 08-09-2010 19:00:00 18.2 C 10.54 g/m*3 18.2 C 0 km/h
717 08-09-2010 20:00:00 16.8 C 10.52 g/m*3 16.8 C 0 km/h
718 08-09-2010 21:00:00 15.72 C 9.7 g/m*3 15.72 C 0 km/h
719 08-09-2010 22:00:00 14.78 C 9.79 g/m*3 14.78 C 0 km/h
720 08-09-2010 23:00:00 14.48 C 10.01 g/m*3 14.48 C 0 km/h
721 09-09-2010 00:00:00 14.38 C 10.2 g/m*3 14.38 C 0 km/h
722 09-09-2010 01:00:00 15.04 C 10.08 g/m*3 15.04 C 0 km/h
723 09-09-2010 02:00:00 15.14 C 9.93 g/m*3 15.14 C 0 km/h
724 09-09-2010 03:00:00 15.32 C 9.78 g/m*3 15.32 C 0 km/h
725 09-09-2010 04:00:00 15.22 C 9.33 g/m*3 15.22 C 0 km/h
Sensor: Nr:Datum:Temp:Abs-Feuchte:Windchill:Wind:
Aussen-T/F 726 09-09-2010 05:00:00 14.9 C 9.02 g/m*3 14.9 C 0 km/h
727 09-09-2010 06:00:00 14.78 C 8.88 g/m*3 14.78 C 0 km/h
728 09-09-2010 07:00:00 14.58 C 9.07 g/m*3 14.58 C 0 km/h
729 09-09-2010 08:00:00 14.8 C 9.1 g/m*3 14.8 C 0 km/h
730 09-09-2010 09:00:00 15.26 C 9.09 g/m*3 15.26 C 0 km/h
731 09-09-2010 10:00:00 16.76 C 9.1 g/m*3 16.76 C 0 km/h
732 09-09-2010 11:00:00 17.78 C 8.88 g/m*3 17.78 C 0 km/h
733 09-09-2010 12:00:00 18.64 C 8.17 g/m*3 18.64 C 0 km/h
734 09-09-2010 13:00:00 18.8 C 8.21 g/m*3 18.8 C 0 km/h
735 09-09-2010 14:00:00 18.98 C 8.59 g/m*3 18.98 C 0 km/h
736 09-09-2010 15:00:00 19.38 C 9.13 g/m*3 19.38 C 0 km/h
737 09-09-2010 16:00:00 17.1 C 10.92 g/m*3 17.1 C 0 km/h
738 09-09-2010 17:00:00 17.92 C 11.62 g/m*3 17.92 C 0 km/h
739 09-09-2010 18:00:00 17.7 C 10.47 g/m*3 17.7 C 0 km/h
740 09-09-2010 19:00:00 16.54 C 9.46 g/m*3 16.54 C 0 km/h
741 09-09-2010 20:00:00 15.4 C 9.78 g/m*3 15.4 C 0 km/h
742 09-09-2010 21:00:00 14.8 C 10.26 g/m*3 14.8 C 0 km/h
743 09-09-2010 22:00:00 14.74 C 10.17 g/m*3 14.74 C 0 km/h
744 09-09-2010 23:00:00 14.98 C 9.71 g/m*3 14.98 C 0 km/h
745 10-09-2010 00:00:00 14.66 C 9.92 g/m*3 14.66 C 0 km/h
746 10-09-2010 01:00:00 14 C 9.77 g/m*3 14 C 0 km/h
747 10-09-2010 02:00:00 13.9 C 9.95 g/m*3 13.9 C 0 km/h
748 10-09-2010 03:00:00 13.9 C 10.07 g/m*3 13.9 C 0 km/h
749 10-09-2010 04:00:00 13.84 C 10.25 g/m*3 13.84 C 0 km/h
750 10-09-2010 05:00:00 13.06 C 9.99 g/m*3 13.06 C 0 km/h
Sensor: Nr:Datum:Temp:Abs-Feuchte:Windchill:Wind:
Aussen-T/F 751 10-09-2010 06:00:00 13.12 C 10.24 g/m*3 13.12 C 0 km/h
752 10-09-2010 07:00:00 13.18 C 9.84 g/m*3 13.18 C 0 km/h
753 10-09-2010 08:00:00 13.32 C 9.95 g/m*3 13.32 C 0 km/h
754 10-09-2010 09:00:00 14.6 C 9.54 g/m*3 14.6 C 0 km/h
755 10-09-2010 10:00:00 16.16 C 9.35 g/m*3 16.16 C 0 km/h
756 10-09-2010 11:00:00 17.88 C 9.21 g/m*3 17.88 C 0 km/h
757 10-09-2010 12:00:00 18.74 C 9.18 g/m*3 18.74 C 0 km/h
758 10-09-2010 13:00:00 19.18 C 8.66 g/m*3 19.18 C 0 km/h
759 10-09-2010 14:00:00 19.94 C 8.75 g/m*3 19.94 C 0 km/h
760 10-09-2010 15:00:00 20.82 C 8.59 g/m*3 20.82 C 0 km/h
761 10-09-2010 16:00:00 21.1 C 8.44 g/m*3 21.1 C 0 km/h
762 10-09-2010 17:00:00 20.18 C 8.98 g/m*3 20.18 C 0 km/h
763 10-09-2010 18:00:00 17.86 C 10.21 g/m*3 17.86 C 0 km/h
764 10-09-2010 19:00:00 16.26 C 11.43 g/m*3 16.26 C 0 km/h
765 10-09-2010 20:00:00 15.68 C 11.57 g/m*3 15.68 C 0 km/h
766 10-09-2010 21:00:00 15.8 C 11.68 g/m*3 15.8 C 0 km/h
767 10-09-2010 22:00:00 15.68 C 11.44 g/m*3 15.68 C 0 km/h
768 10-09-2010 23:00:00 15.46 C 11.18 g/m*3 15.46 C 0 km/h
769 11-09-2010 00:00:00 15.14 C 10.86 g/m*3 15.14 C 0 km/h
770 11-09-2010 01:00:00 15 C 10.8 g/m*3 15 C 0 km/h
771 11-09-2010 02:00:00 14.74 C 10.73 g/m*3 14.74 C 0 km/h
772 11-09-2010 03:00:00 14.08 C 10.42 g/m*3 14.08 C 0 km/h
773 11-09-2010 04:00:00 13.14 C 9.86 g/m*3 13.14 C 0 km/h
774 11-09-2010 05:00:00 12.64 C 9.78 g/m*3 12.64 C 0 km/h
775 11-09-2010 06:00:00 12.74 C 9.91 g/m*3 12.74 C 0 km/h
Sensor: Nr:Datum:Temp:Abs-Feuchte:Windchill:Wind:
Aussen-T/F 776 11-09-2010 07:00:00 12.16 C 9.54 g/m*3 12.16 C 0 km/h
777 11-09-2010 08:00:00 13.04 C 10.23 g/m*3 13.04 C 0 km/h
778 11-09-2010 09:00:00 13.76 C 10.55 g/m*3 13.76 C 0 km/h
779 11-09-2010 10:00:00 15.66 C 11.32 g/m*3 15.66 C 0 km/h
780 11-09-2010 11:00:00 18.24 C 11.37 g/m*3 18.24 C 0 km/h
781 11-09-2010 12:00:00 19.9 C 9.59 g/m*3 19.9 C 0 km/h
782 11-09-2010 13:00:00 21.76 C 8.81 g/m*3 21.76 C 0 km/h
783 11-09-2010 14:00:00 24.2 C 8.14 g/m*3 24.2 C 0 km/h
784 11-09-2010 15:00:00 26.04 C 7.86 g/m*3 26.04 C 0 km/h
785 11-09-2010 16:00:00 26.34 C 8.19 g/m*3 26.34 C 0 km/h
786 11-09-2010 17:00:00 27.62 C 8.31 g/m*3 27.62 C 0 km/h
787 11-09-2010 18:00:00 26.06 C 9.28 g/m*3 26.06 C 0 km/h
788 11-09-2010 19:00:00 21.76 C 9.72 g/m*3 21.76 C 0 km/h
789 11-09-2010 20:00:00 19.34 C 9.51 g/m*3 19.34 C 0 km/h
790 11-09-2010 21:00:00 18.1 C 10.01 g/m*3 18.1 C 0 km/h
791 11-09-2010 22:00:00 17.2 C 10.28 g/m*3 17.2 C 0 km/h
792 11-09-2010 23:00:00 16.56 C 10.4 g/m*3 16.56 C 0 km/h
793 12-09-2010 00:00:00 16.06 C 10.42 g/m*3 16.06 C 0 km/h
794 12-09-2010 01:00:00 15.34 C 10.34 g/m*3 15.34 C 0 km/h
795 12-09-2010 02:00:00 14.88 C 10.39 g/m*3 14.88 C 0 km/h
796 12-09-2010 03:00:00 14.46 C 10.2 g/m*3 14.46 C 0 km/h
797 12-09-2010 04:00:00 14.1 C 10.07 g/m*3 14.1 C 0 km/h
798 12-09-2010 05:00:00 13.76 C 9.98 g/m*3 13.76 C 0 km/h
799 12-09-2010 06:00:00 13.52 C 9.93 g/m*3 13.52 C 0 km/h
800 12-09-2010 07:00:00 13.7 C 10.14 g/m*3 13.7 C 0 km/h
Sensor: Nr:Datum:Temp:Abs-Feuchte:Windchill:Wind:
Aussen-T/F 801 12-09-2010 08:00:00 14.26 C 10.3 g/m*3 14.26 C 0 km/h
802 12-09-2010 09:00:00 14.84 C 10.51 g/m*3 14.84 C 0 km/h
803 12-09-2010 10:00:00 16.94 C 11.16 g/m*3 16.94 C 0 km/h
804 12-09-2010 11:00:00 20.02 C 10.69 g/m*3 20.02 C 0 km/h
805 12-09-2010 12:00:00 21.62 C 10.75 g/m*3 21.62 C 0 km/h
806 12-09-2010 13:00:00 24.4 C 9.84 g/m*3 24.4 C 0 km/h
807 12-09-2010 14:00:00 23.86 C 9.2 g/m*3 23.86 C 0 km/h
808 12-09-2010 15:00:00 19.32 C 8.87 g/m*3 19.32 C 0 km/h
809 12-09-2010 16:00:00 17.78 C 9.19 g/m*3 17.78 C 0 km/h
810 12-09-2010 17:00:00 16.2 C 9.68 g/m*3 16.2 C 0 km/h
811 12-09-2010 18:00:00 14.92 C 10.59 g/m*3 14.92 C 0 km/h
812 12-09-2010 19:00:00 14.26 C 10.79 g/m*3 14.26 C 0 km/h
813 12-09-2010 20:00:00 13.82 C 10.81 g/m*3 13.82 C 0 km/h
814 12-09-2010 21:00:00 13.78 C 10.97 g/m*3 13.78 C 0 km/h
815 12-09-2010 22:00:00 13.78 C 11.07 g/m*3 13.78 C 0 km/h
816 12-09-2010 23:00:00 13.58 C 10.93 g/m*3 13.58 C 0 km/h
817 13-09-2010 00:00:00 13.68 C 11 g/m*3 13.68 C 0 km/h
818 13-09-2010 01:00:00 13.7 C 11.01 g/m*3 13.7 C 0 km/h
819 13-09-2010 02:00:00 13.52 C 10.89 g/m*3 13.52 C 0 km/h
820 13-09-2010 03:00:00 13.26 C 10.58 g/m*3 13.26 C 0 km/h
821 13-09-2010 04:00:00 13 C 10.21 g/m*3 13 C 0 km/h
822 13-09-2010 05:00:00 13.26 C 9.77 g/m*3 13.26 C 0 km/h
823 13-09-2010 06:00:00 13.3 C 9.57 g/m*3 13.3 C 0 km/h
824 13-09-2010 07:00:00 12.72 C 9.18 g/m*3 12.72 C 0 km/h
825 13-09-2010 08:00:00 13.04 C 9.62 g/m*3 13.04 C 0 km/h
Sensor: Nr:Datum:Temp:Abs-Feuchte:Windchill:Wind:
Aussen-T/F 826 13-09-2010 09:00:00 13.98 C 9.47 g/m*3 13.98 C 0 km/h
827 13-09-2010 10:00:00 15.32 C 9.05 g/m*3 15.32 C 0 km/h
828 13-09-2010 11:00:00 16.5 C 8.57 g/m*3 16.5 C 0 km/h
829 13-09-2010 12:00:00 17.24 C 7.93 g/m*3 17.24 C 0 km/h
830 13-09-2010 13:00:00 18.94 C 7.53 g/m*3 18.94 C 0 km/h
831 13-09-2010 14:00:00 20.18 C 6.95 g/m*3 20.18 C 0 km/h
832 13-09-2010 15:00:00 20.8 C 7.1 g/m*3 20.8 C 0 km/h
833 13-09-2010 16:00:00 21.56 C 6.93 g/m*3 21.56 C 0 km/h
834 13-09-2010 17:00:00 20.48 C 7.96 g/m*3 20.48 C 0 km/h
835 13-09-2010 18:00:00 18.22 C 8.62 g/m*3 18.22 C 0 km/h
836 13-09-2010 19:00:00 16.92 C 8.55 g/m*3 16.92 C 0 km/h
837 13-09-2010 20:00:00 15.24 C 8.9 g/m*3 15.24 C 0 km/h
838 13-09-2010 21:00:00 14.52 C 8.97 g/m*3 14.52 C 0 km/h
839 13-09-2010 22:00:00 13.7 C 8.86 g/m*3 13.7 C 0 km/h
840 13-09-2010 23:00:00 13.14 C 8.85 g/m*3 13.14 C 0 km/h
841 14-09-2010 00:00:00 12.82 C 9.2 g/m*3 12.82 C 0 km/h
842 14-09-2010 01:00:00 12.8 C 9.27 g/m*3 12.8 C 0 km/h
843 14-09-2010 02:00:00 13.1 C 9.33 g/m*3 13.1 C 0 km/h
844 14-09-2010 03:00:00 13.36 C 9.23 g/m*3 13.36 C 0 km/h
845 14-09-2010 04:00:00 12.94 C 9.42 g/m*3 12.94 C 0 km/h
846 14-09-2010 05:00:00 12.96 C 9.84 g/m*3 12.96 C 0 km/h
847 14-09-2010 06:00:00 13.9 C 9.28 g/m*3 13.9 C 0 km/h
848 14-09-2010 07:00:00 14.06 C 8.93 g/m*3 14.06 C 0 km/h
849 14-09-2010 08:00:00 14.1 C 9.32 g/m*3 14.1 C 0 km/h
850 14-09-2010 09:00:00 15.16 C 9.06 g/m*3 15.16 C 0 km/h
Sensor: Nr:Datum:Temp:Abs-Feuchte:Windchill:Wind:
Aussen-T/F 851 14-09-2010 10:00:00 16.1 C 9.07 g/m*3 16.1 C 0 km/h
852 14-09-2010 11:00:00 17.06 C 9.15 g/m*3 17.06 C 0 km/h
853 14-09-2010 12:00:00 18.44 C 9.18 g/m*3 18.44 C 0 km/h
854 14-09-2010 13:00:00 19.98 C 9.22 g/m*3 19.98 C 0 km/h
855 14-09-2010 14:00:00 19.66 C 8.84 g/m*3 19.66 C 0 km/h
856 14-09-2010 15:00:00 20.4 C 8.63 g/m*3 20.4 C 0 km/h
857 14-09-2010 16:00:00 20.68 C 7.88 g/m*3 20.68 C 0 km/h
858 14-09-2010 17:00:00 20.14 C 7.46 g/m*3 20.14 C 0 km/h
859 14-09-2010 18:00:00 19.34 C 7.81 g/m*3 19.34 C 0 km/h
860 14-09-2010 19:00:00 18.8 C 7.73 g/m*3 18.8 C 0 km/h
861 14-09-2010 20:00:00 18.6 C 7.7 g/m*3 18.6 C 0 km/h
862 14-09-2010 21:00:00 18.54 C 7.77 g/m*3 18.54 C 0 km/h
863 14-09-2010 22:00:00 18.5 C 7.83 g/m*3 18.5 C 0 km/h
864 14-09-2010 23:00:00 18.22 C 7.91 g/m*3 18.22 C 0 km/h
865 15-09-2010 00:00:00 18.02 C 7.87 g/m*3 18.02 C 0 km/h
866 15-09-2010 01:00:00 18.18 C 7.67 g/m*3 18.18 C 0 km/h
867 15-09-2010 02:00:00 18.32 C 7.64 g/m*3 18.32 C 0 km/h
868 15-09-2010 03:00:00 18.06 C 8.23 g/m*3 18.06 C 0 km/h
869 15-09-2010 04:00:00 17.7 C 9.11 g/m*3 17.7 C 0 km/h
870 15-09-2010 05:00:00 15 C 9.75 g/m*3 15 C 0 km/h
871 15-09-2010 06:00:00 12.78 C 10.09 g/m*3 12.78 C 0 km/h
872 15-09-2010 07:00:00 12.74 C 10.29 g/m*3 12.74 C 0 km/h
873 15-09-2010 08:00:00 12.7 C 10.35 g/m*3 12.7 C 0 km/h
874 15-09-2010 09:00:00 12.92 C 10.36 g/m*3 12.92 C 0 km/h
875 15-09-2010 10:00:00 14.06 C 9.95 g/m*3 14.06 C 0 km/h
Sensor: Nr:Datum:Temp:Abs-Feuchte:Windchill:Wind:
Aussen-T/F 876 15-09-2010 11:00:00 15.02 C 8.86 g/m*3 15.02 C 0 km/h
877 15-09-2010 12:00:00 16.5 C 7.02 g/m*3 16.5 C 0 km/h
878 15-09-2010 13:00:00 17.24 C 6.31 g/m*3 17.24 C 0 km/h
879 15-09-2010 14:00:00 18.38 C 5.66 g/m*3 18.38 C 0 km/h
880 15-09-2010 15:00:00 19.52 C 5.75 g/m*3 19.52 C 0 km/h
881 15-09-2010 16:00:00 19.52 C 5.98 g/m*3 19.52 C 0 km/h
882 15-09-2010 17:00:00 19.68 C 5.8 g/m*3 19.68 C 0 km/h
883 15-09-2010 18:00:00 17.84 C 5.32 g/m*3 17.84 C 0 km/h
884 15-09-2010 19:00:00 16.6 C 5.65 g/m*3 16.6 C 0 km/h
885 15-09-2010 20:00:00 15.84 C 6.26 g/m*3 15.84 C 0 km/h
886 15-09-2010 21:00:00 15.18 C 6.38 g/m*3 15.18 C 0 km/h
887 15-09-2010 22:00:00 14.96 C 5.96 g/m*3 14.96 C 0 km/h
888 15-09-2010 23:00:00 14.86 C 5.64 g/m*3 14.86 C 0 km/h
889 16-09-2010 00:00:00 14.18 C 5.9 g/m*3 14.18 C 0 km/h
890 16-09-2010 01:00:00 14.1 C 5.41 g/m*3 14.1 C 0 km/h
891 16-09-2010 02:00:00 13.94 C 5.79 g/m*3 13.94 C 0 km/h
892 16-09-2010 03:00:00 13.84 C 6.71 g/m*3 13.84 C 0 km/h
893 16-09-2010 04:00:00 13.58 C 6.98 g/m*3 13.58 C 0 km/h
894 16-09-2010 05:00:00 13.36 C 7.26 g/m*3 13.36 C 0 km/h
895 16-09-2010 06:00:00 12.44 C 8.08 g/m*3 12.44 C 0 km/h
896 16-09-2010 07:00:00 11.78 C 8.68 g/m*3 11.78 C 0 km/h
897 16-09-2010 08:00:00 11.86 C 8.83 g/m*3 11.86 C 0 km/h
898 16-09-2010 09:00:00 12.64 C 9.25 g/m*3 12.64 C 0 km/h
899 16-09-2010 10:00:00 14.12 C 8.65 g/m*3 14.12 C 0 km/h
900 16-09-2010 11:00:00 15.26 C 8.23 g/m*3 15.26 C 0 km/h
Sensor: Nr:Datum:Temp:Abs-Feuchte:Windchill:Wind:
Aussen-T/F 901 16-09-2010 12:00:00 17.02 C 7.68 g/m*3 17.02 C 0 km/h
902 16-09-2010 13:00:00 17.32 C 7.17 g/m*3 17.32 C 0 km/h
903 16-09-2010 14:00:00 15.28 C 8.71 g/m*3 15.28 C 0 km/h
904 16-09-2010 15:00:00 17.22 C 9.15 g/m*3 17.22 C 0 km/h
905 16-09-2010 16:00:00 16.36 C 8.49 g/m*3 16.36 C 0 km/h
906 16-09-2010 17:00:00 15.3 C 9.51 g/m*3 15.3 C 0 km/h
907 16-09-2010 18:00:00 14.9 C 8.95 g/m*3 14.9 C 0 km/h
908 16-09-2010 19:00:00 13.42 C 9.68 g/m*3 13.42 C 0 km/h
909 16-09-2010 20:00:00 12.84 C 10.02 g/m*3 12.84 C 0 km/h
910 16-09-2010 21:00:00 12.62 C 10.08 g/m*3 12.62 C 0 km/h
911 16-09-2010 22:00:00 12.2 C 9.58 g/m*3 12.2 C 0 km/h
912 16-09-2010 23:00:00 12.1 C 9.29 g/m*3 12.1 C 0 km/h
913 17-09-2010 00:00:00 12.16 C 9.24 g/m*3 12.16 C 0 km/h
914 17-09-2010 01:00:00 12.06 C 9.26 g/m*3 12.06 C 0 km/h
915 17-09-2010 02:00:00 11.96 C 9.29 g/m*3 11.96 C 0 km/h
916 17-09-2010 03:00:00 12.06 C 8.94 g/m*3 12.06 C 0 km/h
917 17-09-2010 04:00:00 11.94 C 8.73 g/m*3 11.94 C 0 km/h
918 17-09-2010 05:00:00 11.2 C 8.23 g/m*3 11.2 C 0 km/h
919 17-09-2010 06:00:00 10.6 C 8.59 g/m*3 10.6 C 0 km/h
920 17-09-2010 07:00:00 10.02 C 8.15 g/m*3 10.02 C 0 km/h
921 17-09-2010 08:00:00 10.22 C 7.66 g/m*3 10.22 C 0 km/h
922 17-09-2010 09:00:00 10.86 C 7.28 g/m*3 10.86 C 0 km/h
923 17-09-2010 10:00:00 12.06 C 7.55 g/m*3 12.06 C 0 km/h
924 17-09-2010 11:00:00 13.72 C 7.56 g/m*3 13.72 C 0 km/h
925 17-09-2010 12:00:00 15.7 C 6.58 g/m*3 15.7 C 0 km/h
Sensor: Nr:Datum:Temp:Abs-Feuchte:Windchill:Wind:
Aussen-T/F 926 17-09-2010 13:00:00 16.66 C 5.9 g/m*3 16.66 C 0 km/h
927 17-09-2010 14:00:00 17.62 C 5.29 g/m*3 17.62 C 0 km/h
928 17-09-2010 15:00:00 17.48 C 5.06 g/m*3 17.48 C 0 km/h
929 17-09-2010 16:00:00 19.06 C 4.94 g/m*3 19.06 C 0 km/h
930 17-09-2010 17:00:00 19.46 C 4.45 g/m*3 19.46 C 0 km/h
931 17-09-2010 18:00:00 16.66 C 6.1 g/m*3 16.66 C 0 km/h
932 17-09-2010 19:00:00 15.24 C 6.69 g/m*3 15.24 C 0 km/h
933 17-09-2010 20:00:00 14.26 C 7.06 g/m*3 14.26 C 0 km/h
934 17-09-2010 21:00:00 13.48 C 7.15 g/m*3 13.48 C 0 km/h
935 17-09-2010 22:00:00 13.34 C 6.72 g/m*3 13.34 C 0 km/h
936 17-09-2010 23:00:00 12.58 C 6.81 g/m*3 12.58 C 0 km/h
937 18-09-2010 00:00:00 12.12 C 6.94 g/m*3 12.12 C 0 km/h
938 18-09-2010 01:00:00 10.9 C 7 g/m*3 10.9 C 0 km/h
939 18-09-2010 02:00:00 10 C 7.2 g/m*3 10 C 0 km/h
940 18-09-2010 03:00:00 9.38 C 7.3 g/m*3 9.38 C 0 km/h
941 18-09-2010 04:00:00 8.54 C 7.19 g/m*3 8.54 C 0 km/h
942 18-09-2010 05:00:00 7.94 C 7.18 g/m*3 7.94 C 0 km/h
943 18-09-2010 06:00:00 7.62 C 7.36 g/m*3 7.62 C 0 km/h
944 18-09-2010 07:00:00 7.5 C 7.3 g/m*3 7.5 C 0 km/h
945 18-09-2010 08:00:00 7.46 C 7.23 g/m*3 7.46 C 0 km/h
946 18-09-2010 09:00:00 8.12 C 7.55 g/m*3 8.12 C 0 km/h
947 18-09-2010 10:00:00 10.2 C 8.18 g/m*3 10.2 C 0 km/h
948 18-09-2010 11:00:00 13.46 C 6.65 g/m*3 13.46 C 0 km/h
949 18-09-2010 12:00:00 15.14 C 5.92 g/m*3 15.14 C 0 km/h
950 18-09-2010 13:00:00 15.6 C 5.43 g/m*3 15.6 C 0 km/h
Sensor: Nr:Datum:Temp:Abs-Feuchte:Windchill:Wind:
Aussen-T/F 951 18-09-2010 14:00:00 15.26 C 4.77 g/m*3 15.26 C 0 km/h
952 18-09-2010 15:00:00 16.3 C 4.58 g/m*3 16.3 C 0 km/h
953 18-09-2010 16:00:00 16.22 C 4.86 g/m*3 16.22 C 0 km/h
954 18-09-2010 17:00:00 15.86 C 5.73 g/m*3 15.86 C 0 km/h
955 18-09-2010 18:00:00 15.66 C 6.06 g/m*3 15.66 C 0 km/h
956 18-09-2010 19:00:00 13.26 C 6.08 g/m*3 13.26 C 0 km/h
957 18-09-2010 20:00:00 11.08 C 6.6 g/m*3 11.08 C 0 km/h
958 18-09-2010 21:00:00 10.02 C 6.62 g/m*3 10.02 C 0 km/h
959 18-09-2010 22:00:00 8.98 C 6.69 g/m*3 8.98 C 0 km/h
960 18-09-2010 23:00:00 8.2 C 6.77 g/m*3 8.2 C 0 km/h
961 19-09-2010 00:00:00 7.56 C 6.72 g/m*3 7.56 C 0 km/h
962 19-09-2010 01:00:00 6.92 C 6.54 g/m*3 6.92 C 0 km/h
963 19-09-2010 02:00:00 6.44 C 6.53 g/m*3 6.44 C 0 km/h
964 19-09-2010 03:00:00 6.42 C 6.57 g/m*3 6.42 C 0 km/h
965 19-09-2010 04:00:00 6.2 C 6.5 g/m*3 6.2 C 0 km/h
966 19-09-2010 05:00:00 6.04 C 6.42 g/m*3 6.04 C 0 km/h
967 19-09-2010 06:00:00 5.76 C 6.33 g/m*3 5.76 C 0 km/h
968 19-09-2010 07:00:00 6 C 6.46 g/m*3 6 C 0 km/h
969 19-09-2010 08:00:00 6.96 C 6.79 g/m*3 6.96 C 0 km/h
970 19-09-2010 09:00:00 8.12 C 6.98 g/m*3 8.12 C 0 km/h
971 19-09-2010 10:00:00 10.72 C 6.69 g/m*3 10.72 C 0 km/h
972 19-09-2010 11:00:00 12.92 C 6.27 g/m*3 12.92 C 0 km/h
973 19-09-2010 12:00:00 14.94 C 5.67 g/m*3 14.94 C 0 km/h
974 19-09-2010 13:00:00 16.12 C 5.54 g/m*3 16.12 C 0 km/h
975 19-09-2010 14:00:00 17.38 C 5.68 g/m*3 17.38 C 0 km/h
Sensor: Nr:Datum:Temp:Abs-Feuchte:Windchill:Wind:
Aussen-T/F 976 19-09-2010 15:00:00 18.62 C 5.45 g/m*3 18.62 C 0 km/h
977 19-09-2010 16:00:00 19.04 C 5.29 g/m*3 19.04 C 0 km/h
978 19-09-2010 17:00:00 18.78 C 5.69 g/m*3 18.78 C 0 km/h
979 19-09-2010 18:00:00 17.08 C 5.99 g/m*3 17.08 C 0 km/h
980 19-09-2010 19:00:00 15.78 C 5.97 g/m*3 15.78 C 0 km/h
981 19-09-2010 20:00:00 14.46 C 6.3 g/m*3 14.46 C 0 km/h
982 19-09-2010 21:00:00 13.96 C 6.62 g/m*3 13.96 C 0 km/h
983 19-09-2010 22:00:00 13.32 C 6.78 g/m*3 13.32 C 0 km/h
984 19-09-2010 23:00:00 12.28 C 6.77 g/m*3 12.28 C 0 km/h
985 20-09-2010 00:00:00 11.68 C 6.87 g/m*3 11.68 C 0 km/h
986 20-09-2010 01:00:00 10.44 C 6.78 g/m*3 10.44 C 0 km/h
987 20-09-2010 02:00:00 9.84 C 6.88 g/m*3 9.84 C 0 km/h
988 20-09-2010 03:00:00 9.64 C 7.02 g/m*3 9.64 C 0 km/h
989 20-09-2010 04:00:00 8.98 C 6.89 g/m*3 8.98 C 0 km/h
990 20-09-2010 05:00:00 8.32 C 6.89 g/m*3 8.32 C 0 km/h
991 20-09-2010 06:00:00 8.48 C 7.03 g/m*3 8.48 C 0 km/h
992 20-09-2010 07:00:00 8.52 C 7.1 g/m*3 8.52 C 0 km/h
993 20-09-2010 08:00:00 9.18 C 6.87 g/m*3 9.18 C 0 km/h
994 20-09-2010 09:00:00 9.84 C 6.92 g/m*3 9.84 C 0 km/h
995 20-09-2010 10:00:00 12.4 C 7.21 g/m*3 12.4 C 0 km/h
996 20-09-2010 11:00:00 14.62 C 6.99 g/m*3 14.62 C 0 km/h
997 20-09-2010 12:00:00 16.26 C 6.34 g/m*3 16.26 C 0 km/h
998 20-09-2010 13:00:00 18.02 C 6.12 g/m*3 18.02 C 0 km/h
999 20-09-2010 14:00:00 20.02 C 5.81 g/m*3 20.02 C 0 km/h
1000 20-09-2010 15:00:00 21.42 C 5.86 g/m*3 21.42 C 0 km/h
Sensor: Nr:Datum:Temp:Abs-Feuchte:Windchill:Wind:
Aussen-T/F 1001 20-09-2010 16:00:00 22.46 C 6.22 g/m*3 22.46 C 0 km/h
1002 20-09-2010 17:00:00 22.28 C 6.11 g/m*3 22.28 C 0 km/h
1003 20-09-2010 18:00:00 21.3 C 6.67 g/m*3 21.3 C 0 km/h
1004 20-09-2010 19:00:00 17.5 C 7.19 g/m*3 17.5 C 0 km/h
1005 20-09-2010 20:00:00 15.34 C 7.54 g/m*3 15.34 C 0 km/h
1006 20-09-2010 21:00:00 14.2 C 7.72 g/m*3 14.2 C 0 km/h
1007 20-09-2010 22:00:00 13.22 C 8.07 g/m*3 13.22 C 0 km/h
1008 20-09-2010 23:00:00 12.28 C 8.05 g/m*3 12.28 C 0 km/h
1009 21-09-2010 00:00:00 11.52 C 7.88 g/m*3 11.52 C 0 km/h
1010 21-09-2010 01:00:00 10.9 C 7.8 g/m*3 10.9 C 0 km/h
1011 21-09-2010 02:00:00 10.24 C 7.69 g/m*3 10.24 C 0 km/h
1012 21-09-2010 03:00:00 9.74 C 7.71 g/m*3 9.74 C 0 km/h
1013 21-09-2010 04:00:00 9.22 C 7.51 g/m*3 9.22 C 0 km/h
1014 21-09-2010 05:00:00 8.78 C 7.46 g/m*3 8.78 C 0 km/h
1015 21-09-2010 06:00:00 8.34 C 7.37 g/m*3 8.34 C 0 km/h
1016 21-09-2010 07:00:00 8.14 C 7.34 g/m*3 8.14 C 0 km/h
1017 21-09-2010 08:00:00 8.26 C 7.53 g/m*3 8.26 C 0 km/h
1018 21-09-2010 09:00:00 9.18 C 7.97 g/m*3 9.18 C 0 km/h
1019 21-09-2010 10:00:00 11.12 C 8.71 g/m*3 11.12 C 0 km/h
1020 21-09-2010 11:00:00 14.12 C 8.65 g/m*3 14.12 C 0 km/h
1021 21-09-2010 12:00:00 16.14 C 8.99 g/m*3 16.14 C 0 km/h
1022 21-09-2010 13:00:00 17.02 C 9.65 g/m*3 17.02 C 0 km/h
1023 21-09-2010 14:00:00 17.82 C 9.48 g/m*3 17.82 C 0 km/h
1024 21-09-2010 15:00:00 23.12 C 8.2 g/m*3 23.12 C 0 km/h
1025 21-09-2010 16:00:00 25.16 C 7.62 g/m*3 25.16 C 0 km/h
Sensor: Nr:Datum:Temp:Abs-Feuchte:Windchill:Wind:
Aussen-T/F 1026 21-09-2010 17:00:00 24.6 C 7.56 g/m*3 24.6 C 0 km/h
1027 21-09-2010 18:00:00 22.18 C 7.88 g/m*3 22.18 C 0 km/h
1028 21-09-2010 19:00:00 18.64 C 8.36 g/m*3 18.64 C 0 km/h
1029 21-09-2010 20:00:00 16.3 C 8.52 g/m*3 16.3 C 0 km/h
1030 21-09-2010 21:00:00 15.06 C 8.49 g/m*3 15.06 C 0 km/h
1031 21-09-2010 22:00:00 13.9 C 8.51 g/m*3 13.9 C 0 km/h
1032 21-09-2010 23:00:00 12.98 C 8.54 g/m*3 12.98 C 0 km/h
1033 22-09-2010 00:00:00 12.2 C 8.55 g/m*3 12.2 C 0 km/h
1034 22-09-2010 01:00:00 11.5 C 8.41 g/m*3 11.5 C 0 km/h
1035 22-09-2010 02:00:00 10.78 C 8.15 g/m*3 10.78 C 0 km/h
1036 22-09-2010 03:00:00 10.22 C 8 g/m*3 10.22 C 0 km/h
1037 22-09-2010 04:00:00 9.72 C 7.94 g/m*3 9.72 C 0 km/h
1038 22-09-2010 05:00:00 9.84 C 8.15 g/m*3 9.84 C 0 km/h
1039 22-09-2010 06:00:00 9.78 C 8.15 g/m*3 9.78 C 0 km/h
1040 22-09-2010 07:00:00 9.56 C 8.04 g/m*3 9.56 C 0 km/h
1041 22-09-2010 08:00:00 9.36 C 7.96 g/m*3 9.36 C 0 km/h
1042 22-09-2010 09:00:00 10.18 C 8.15 g/m*3 10.18 C 0 km/h
1043 22-09-2010 10:00:00 12.42 C 8.64 g/m*3 12.42 C 0 km/h
1044 22-09-2010 11:00:00 13.78 C 9.19 g/m*3 13.78 C 0 km/h
1045 22-09-2010 12:00:00 16.54 C 9.97 g/m*3 16.54 C 0 km/h
1046 22-09-2010 13:00:00 19.76 C 10.09 g/m*3 19.76 C 0 km/h
1047 22-09-2010 14:00:00 22.86 C 10.07 g/m*3 22.86 C 0 km/h
1048 22-09-2010 15:00:00 25.06 C 9.29 g/m*3 25.06 C 0 km/h
1049 22-09-2010 16:00:00 27.32 C 8.59 g/m*3 27.32 C 0 km/h
1050 22-09-2010 17:00:00 27.06 C 8.16 g/m*3 27.06 C 0 km/h
Sensor: Nr:Datum:Temp:Abs-Feuchte:Windchill:Wind:
Aussen-T/F 1051 22-09-2010 18:00:00 24.88 C 9.1 g/m*3 24.88 C 0 km/h
1052 22-09-2010 19:00:00 20.88 C 9.2 g/m*3 20.88 C 0 km/h
1053 22-09-2010 20:00:00 18.54 C 9.1 g/m*3 18.54 C 0 km/h
1054 22-09-2010 21:00:00 17.46 C 9.31 g/m*3 17.46 C 0 km/h
1055 22-09-2010 22:00:00 16.18 C 9.26 g/m*3 16.18 C 0 km/h
1056 22-09-2010 23:00:00 14.92 C 8.78 g/m*3 14.92 C 0 km/h
1057 23-09-2010 00:00:00 14.02 C 8.65 g/m*3 14.02 C 0 km/h
1058 23-09-2010 01:00:00 13.22 C 8.71 g/m*3 13.22 C 0 km/h
1059 23-09-2010 02:00:00 12.44 C 8.7 g/m*3 12.44 C 0 km/h
1060 23-09-2010 03:00:00 11.8 C 8.57 g/m*3 11.8 C 0 km/h
1061 23-09-2010 04:00:00 11.16 C 8.39 g/m*3 11.16 C 0 km/h
1062 23-09-2010 05:00:00 10.64 C 8.22 g/m*3 10.64 C 0 km/h
1063 23-09-2010 06:00:00 10.46 C 8.2 g/m*3 10.46 C 0 km/h
1064 23-09-2010 07:00:00 10.52 C 8.25 g/m*3 10.52 C 0 km/h
1065 23-09-2010 08:00:00 10.88 C 8.42 g/m*3 10.88 C 0 km/h
1066 23-09-2010 09:00:00 11.64 C 8.65 g/m*3 11.64 C 0 km/h
1067 23-09-2010 10:00:00 12.98 C 9.24 g/m*3 12.98 C 0 km/h
1068 23-09-2010 11:00:00 15.64 C 10.08 g/m*3 15.64 C 0 km/h
1069 23-09-2010 12:00:00 18.66 C 10.61 g/m*3 18.66 C 0 km/h
1070 23-09-2010 13:00:00 22.3 C 10.7 g/m*3 22.3 C 0 km/h
1071 23-09-2010 14:00:00 24.06 C 10.22 g/m*3 24.06 C 0 km/h
1072 23-09-2010 15:00:00 25.04 C 9.37 g/m*3 25.04 C 0 km/h
1073 23-09-2010 16:00:00 25.14 C 9.88 g/m*3 25.14 C 0 km/h
1074 23-09-2010 17:00:00 23.48 C 10.73 g/m*3 23.48 C 0 km/h
1075 23-09-2010 18:00:00 22.12 C 10.63 g/m*3 22.12 C 0 km/h
Sensor: Nr:Datum:Temp:Abs-Feuchte:Windchill:Wind:
Aussen-T/F 1076 23-09-2010 19:00:00 19.9 C 11.06 g/m*3 19.9 C 0 km/h
1077 23-09-2010 20:00:00 18.5 C 11.3 g/m*3 18.5 C 0 km/h
1078 23-09-2010 21:00:00 18.5 C 11.49 g/m*3 18.5 C 0 km/h
1079 23-09-2010 22:00:00 17.94 C 11.82 g/m*3 17.94 C 0 km/h
1080 23-09-2010 23:00:00 16.44 C 12.26 g/m*3 16.44 C 0 km/h
1081 24-09-2010 00:00:00 15.7 C 12.18 g/m*3 15.7 C 0 km/h
1082 24-09-2010 01:00:00 15.54 C 12.3 g/m*3 15.54 C 0 km/h
1083 24-09-2010 02:00:00 15.38 C 12.15 g/m*3 15.38 C 0 km/h
1084 24-09-2010 03:00:00 14.94 C 11.91 g/m*3 14.94 C 0 km/h
1085 24-09-2010 04:00:00 14.78 C 11.89 g/m*3 14.78 C 0 km/h
1086 24-09-2010 05:00:00 14.54 C 11.72 g/m*3 14.54 C 0 km/h
1087 24-09-2010 06:00:00 14.7 C 11.83 g/m*3 14.7 C 0 km/h
1088 24-09-2010 07:00:00 14.4 C 11.62 g/m*3 14.4 C 0 km/h
1089 24-09-2010 08:00:00 14.58 C 11.82 g/m*3 14.58 C 0 km/h
1090 24-09-2010 09:00:00 14.88 C 12.07 g/m*3 14.88 C 0 km/h
1091 24-09-2010 10:00:00 14.98 C 12.06 g/m*3 14.98 C 0 km/h
1092 24-09-2010 11:00:00 15.22 C 12.22 g/m*3 15.22 C 0 km/h
1093 24-09-2010 12:00:00 15.14 C 12.18 g/m*3 15.14 C 0 km/h
1094 24-09-2010 13:00:00 14.56 C 11.73 g/m*3 14.56 C 0 km/h
1095 24-09-2010 14:00:00 13.54 C 11.02 g/m*3 13.54 C 0 km/h
1096 24-09-2010 15:00:00 13.08 C 10.8 g/m*3 13.08 C 0 km/h
1097 24-09-2010 16:00:00 13.8 C 11.32 g/m*3 13.8 C 0 km/h
1098 24-09-2010 17:00:00 13.48 C 11.03 g/m*3 13.48 C 0 km/h
1099 24-09-2010 18:00:00 13.26 C 10.83 g/m*3 13.26 C 0 km/h
1100 24-09-2010 19:00:00 12.84 C 10.64 g/m*3 12.84 C 0 km/h
Sensor: Nr:Datum:Temp:Abs-Feuchte:Windchill:Wind:
Aussen-T/F 1101 24-09-2010 20:00:00 12.7 C 10.58 g/m*3 12.7 C 0 km/h
1102 24-09-2010 21:00:00 12.82 C 10.65 g/m*3 12.82 C 0 km/h
1103 24-09-2010 22:00:00 12.7 C 10.58 g/m*3 12.7 C 0 km/h
1104 24-09-2010 23:00:00 12.4 C 10.38 g/m*3 12.4 C 0 km/h
1105 25-09-2010 00:00:00 12.48 C 10.43 g/m*3 12.48 C 0 km/h
1106 25-09-2010 01:00:00 12.52 C 10.46 g/m*3 12.52 C 0 km/h
1107 25-09-2010 02:00:00 12.6 C 10.51 g/m*3 12.6 C 0 km/h
1108 25-09-2010 03:00:00 12.62 C 10.52 g/m*3 12.62 C 0 km/h
1109 25-09-2010 04:00:00 12.54 C 10.47 g/m*3 12.54 C 0 km/h
1110 25-09-2010 05:00:00 12.38 C 10.35 g/m*3 12.38 C 0 km/h
1111 25-09-2010 06:00:00 12.06 C 10.06 g/m*3 12.06 C 0 km/h
1112 25-09-2010 07:00:00 11.88 C 9.94 g/m*3 11.88 C 0 km/h
1113 25-09-2010 08:00:00 11.26 C 9.5 g/m*3 11.26 C 0 km/h
1114 25-09-2010 09:00:00 10.48 C 8.81 g/m*3 10.48 C 0 km/h
1115 25-09-2010 10:00:00 11.04 C 8.25 g/m*3 11.04 C 0 km/h
1116 25-09-2010 11:00:00 12.3 C 7.45 g/m*3 12.3 C 0 km/h
1117 25-09-2010 12:00:00 12.44 C 6.9 g/m*3 12.44 C 0 km/h
1118 25-09-2010 13:00:00 13.26 C 6.04 g/m*3 13.26 C 0 km/h
1119 25-09-2010 14:00:00 14.24 C 5.36 g/m*3 14.24 C 0 km/h
1120 25-09-2010 15:00:00 15.04 C 4.68 g/m*3 15.04 C 0 km/h
1121 25-09-2010 16:00:00 14.72 C 4.97 g/m*3 14.72 C 0 km/h
1122 25-09-2010 17:00:00 15.6 C 5.08 g/m*3 15.6 C 0 km/h
1123 25-09-2010 18:00:00 14.22 C 5.06 g/m*3 14.22 C 0 km/h
1124 25-09-2010 19:00:00 12.98 C 5.75 g/m*3 12.98 C 0 km/h
1125 25-09-2010 20:00:00 11.7 C 5.88 g/m*3 11.7 C 0 km/h
Sensor: Nr:Datum:Temp:Abs-Feuchte:Windchill:Wind:
Aussen-T/F 1126 25-09-2010 21:00:00 10.12 C 6.31 g/m*3 10.12 C 0 km/h
1127 25-09-2010 22:00:00 10.28 C 6.68 g/m*3 10.28 C 0 km/h
1128 25-09-2010 23:00:00 9.28 C 7.4 g/m*3 9.28 C 0 km/h
1129 26-09-2010 00:00:00 9.44 C 7.76 g/m*3 9.44 C 0 km/h
1130 26-09-2010 01:00:00 9.48 C 7.24 g/m*3 9.48 C 0 km/h
1131 26-09-2010 02:00:00 9.42 C 7.05 g/m*3 9.42 C 0 km/h
1132 26-09-2010 03:00:00 9.2 C 7.07 g/m*3 9.2 C 0 km/h
1133 26-09-2010 04:00:00 8.88 C 7.28 g/m*3 8.88 C 0 km/h
1134 26-09-2010 05:00:00 9.02 C 7.33 g/m*3 9.02 C 0 km/h
1135 26-09-2010 06:00:00 8.9 C 7.38 g/m*3 8.9 C 0 km/h
1136 26-09-2010 07:00:00 8.8 C 7.45 g/m*3 8.8 C 0 km/h
1137 26-09-2010 08:00:00 9.62 C 7.3 g/m*3 9.62 C 0 km/h
1138 26-09-2010 09:00:00 10.26 C 7.18 g/m*3 10.26 C 0 km/h
1139 26-09-2010 10:00:00 11.84 C 6.75 g/m*3 11.84 C 0 km/h
1140 26-09-2010 11:00:00 13.22 C 6.44 g/m*3 13.22 C 0 km/h
1141 26-09-2010 12:00:00 14.48 C 6.39 g/m*3 14.48 C 0 km/h
1142 26-09-2010 13:00:00 13 C 7.58 g/m*3 13 C 0 km/h
1143 26-09-2010 14:00:00 13.3 C 8.3 g/m*3 13.3 C 0 km/h
1144 26-09-2010 15:00:00 14.18 C 8.12 g/m*3 14.18 C 0 km/h
1145 26-09-2010 16:00:00 14.92 C 7.04 g/m*3 14.92 C 0 km/h
1146 26-09-2010 17:00:00 15.18 C 6.61 g/m*3 15.18 C 0 km/h
1147 26-09-2010 18:00:00 12.96 C 6.95 g/m*3 12.96 C 0 km/h
1148 26-09-2010 19:00:00 12.24 C 7.1 g/m*3 12.24 C 0 km/h
1149 26-09-2010 20:00:00 11.78 C 7.21 g/m*3 11.78 C 0 km/h
1150 26-09-2010 21:00:00 11.16 C 7.12 g/m*3 11.16 C 0 km/h
Sensor: Nr:Datum:Temp:Abs-Feuchte:Windchill:Wind:
Aussen-T/F 1151 26-09-2010 22:00:00 9.7 C 7.06 g/m*3 9.7 C 0 km/h
1152 26-09-2010 23:00:00 8.84 C 7.17 g/m*3 8.84 C 0 km/h
1153 27-09-2010 00:00:00 8.12 C 7.07 g/m*3 8.12 C 0 km/h
1154 27-09-2010 01:00:00 7.46 C 7.04 g/m*3 7.46 C 0 km/h
1155 27-09-2010 02:00:00 6.84 C 6.86 g/m*3 6.84 C 0 km/h
1156 27-09-2010 03:00:00 6.46 C 6.75 g/m*3 6.46 C 0 km/h
1157 27-09-2010 04:00:00 6.24 C 6.8 g/m*3 6.24 C 0 km/h
1158 27-09-2010 05:00:00 6.24 C 6.83 g/m*3 6.24 C 0 km/h
1159 27-09-2010 06:00:00 6.32 C 6.89 g/m*3 6.32 C 0 km/h
1160 27-09-2010 07:00:00 6.74 C 7.13 g/m*3 6.74 C 0 km/h
1161 27-09-2010 08:00:00 7.7 C 7.61 g/m*3 7.7 C 0 km/h
1162 27-09-2010 09:00:00 9.24 C 8.2 g/m*3 9.24 C 0 km/h
1163 27-09-2010 10:00:00 10.76 C 7.57 g/m*3 10.76 C 0 km/h
1164 27-09-2010 11:00:00 11.98 C 6.79 g/m*3 11.98 C 0 km/h
1165 27-09-2010 12:00:00 12.78 C 6.82 g/m*3 12.78 C 0 km/h
1166 27-09-2010 13:00:00 13.48 C 6.73 g/m*3 13.48 C 0 km/h
1167 27-09-2010 14:00:00 13.26 C 6.66 g/m*3 13.26 C 0 km/h
1168 27-09-2010 15:00:00 13.4 C 6.65 g/m*3 13.4 C 0 km/h
1169 27-09-2010 16:00:00 13.38 C 7.2 g/m*3 13.38 C 0 km/h
1170 27-09-2010 17:00:00 12.9 C 7.69 g/m*3 12.9 C 0 km/h
1171 27-09-2010 18:00:00 11.94 C 7.73 g/m*3 11.94 C 0 km/h
1172 27-09-2010 19:00:00 10.58 C 8.13 g/m*3 10.58 C 0 km/h
1173 27-09-2010 20:00:00 10.3 C 8.39 g/m*3 10.3 C 0 km/h
1174 27-09-2010 21:00:00 10.34 C 8.55 g/m*3 10.34 C 0 km/h
1175 27-09-2010 22:00:00 10.3 C 8.6 g/m*3 10.3 C 0 km/h
Sensor: Nr:Datum:Temp:Abs-Feuchte:Windchill:Wind:
Aussen-T/F 1176 27-09-2010 23:00:00 10.16 C 8.64 g/m*3 10.16 C 0 km/h
1177 28-09-2010 00:00:00 10 C 8.68 g/m*3 10 C 0 km/h
1178 28-09-2010 01:00:00 9.98 C 8.75 g/m*3 9.98 C 0 km/h
1179 28-09-2010 02:00:00 9.9 C 8.78 g/m*3 9.9 C 0 km/h
1180 28-09-2010 03:00:00 9.9 C 8.87 g/m*3 9.9 C 0 km/h
1181 28-09-2010 04:00:00 9.92 C 8.86 g/m*3 9.92 C 0 km/h
1182 28-09-2010 05:00:00 10 C 8.93 g/m*3 10 C 0 km/h
1183 28-09-2010 06:00:00 10.08 C 8.97 g/m*3 10.08 C 0 km/h
1184 28-09-2010 07:00:00 10 C 8.93 g/m*3 10 C 0 km/h
1185 28-09-2010 08:00:00 10.04 C 8.95 g/m*3 10.04 C 0 km/h
1186 28-09-2010 09:00:00 10.24 C 9.06 g/m*3 10.24 C 0 km/h
1187 28-09-2010 10:00:00 10.58 C 9.26 g/m*3 10.58 C 0 km/h
1188 28-09-2010 11:00:00 11.18 C 9.62 g/m*3 11.18 C 0 km/h
1189 28-09-2010 12:00:00 11.48 C 9.72 g/m*3 11.48 C 0 km/h
1190 28-09-2010 13:00:00 11.74 C 9.71 g/m*3 11.74 C 0 km/h
1191 28-09-2010 14:00:00 11.76 C 9.66 g/m*3 11.76 C 0 km/h
1192 28-09-2010 15:00:00 11.74 C 9.73 g/m*3 11.74 C 0 km/h
1193 28-09-2010 16:00:00 11.84 C 9.85 g/m*3 11.84 C 0 km/h
1194 28-09-2010 17:00:00 11.98 C 10.01 g/m*3 11.98 C 0 km/h
1195 28-09-2010 18:00:00 11.86 C 9.99 g/m*3 11.86 C 0 km/h
1196 28-09-2010 19:00:00 11.72 C 9.95 g/m*3 11.72 C 0 km/h
1197 28-09-2010 20:00:00 11.6 C 9.87 g/m*3 11.6 C 0 km/h
1198 28-09-2010 21:00:00 11.58 C 9.86 g/m*3 11.58 C 0 km/h
1199 28-09-2010 22:00:00 11.62 C 9.89 g/m*3 11.62 C 0 km/h
1200 28-09-2010 23:00:00 11.6 C 9.87 g/m*3 11.6 C 0 km/h
Sensor: Nr:Datum:Temp:Abs-Feuchte:Windchill:Wind:
Aussen-T/F 1201 29-09-2010 00:00:00 11.64 C 9.9 g/m*3 11.64 C 0 km/h
1202 29-09-2010 01:00:00 11.62 C 9.89 g/m*3 11.62 C 0 km/h
1203 29-09-2010 02:00:00 11.56 C 9.85 g/m*3 11.56 C 0 km/h
1204 29-09-2010 03:00:00 11.48 C 9.8 g/m*3 11.48 C 0 km/h
1205 29-09-2010 04:00:00 11.48 C 9.8 g/m*3 11.48 C 0 km/h
1206 29-09-2010 05:00:00 11.4 C 9.75 g/m*3 11.4 C 0 km/h
1207 29-09-2010 06:00:00 11.52 C 9.82 g/m*3 11.52 C 0 km/h
1208 29-09-2010 07:00:00 11.04 C 9.53 g/m*3 11.04 C 0 km/h
1209 29-09-2010 08:00:00 11.18 C 9.62 g/m*3 11.18 C 0 km/h
1210 29-09-2010 09:00:00 11.44 C 9.57 g/m*3 11.44 C 0 km/h
1211 29-09-2010 10:00:00 12.92 C 8.98 g/m*3 12.92 C 0 km/h
1212 29-09-2010 11:00:00 13.96 C 8.42 g/m*3 13.96 C 0 km/h
1213 29-09-2010 12:00:00 14.4 C 8.03 g/m*3 14.4 C 0 km/h
1214 29-09-2010 13:00:00 15.74 C 7.89 g/m*3 15.74 C 0 km/h
1215 29-09-2010 14:00:00 16.82 C 7.64 g/m*3 16.82 C 0 km/h
1216 29-09-2010 15:00:00 19.16 C 6.88 g/m*3 19.16 C 0 km/h
1217 29-09-2010 16:00:00 18.14 C 7.62 g/m*3 18.14 C 0 km/h
1218 29-09-2010 17:00:00 18.3 C 7.54 g/m*3 18.3 C 0 km/h
1219 29-09-2010 18:00:00 14.62 C 7.84 g/m*3 14.62 C 0 km/h
1220 29-09-2010 19:00:00 13.08 C 7.68 g/m*3 13.08 C 0 km/h
1221 29-09-2010 20:00:00 13.12 C 7.7 g/m*3 13.12 C 0 km/h
1222 29-09-2010 21:00:00 12.5 C 7.94 g/m*3 12.5 C 0 km/h
1223 29-09-2010 22:00:00 12.38 C 8.36 g/m*3 12.38 C 0 km/h
1224 29-09-2010 23:00:00 11.96 C 8.33 g/m*3 11.96 C 0 km/h
1225 30-09-2010 00:00:00 12.16 C 8.44 g/m*3 12.16 C 0 km/h
Sensor: Nr:Datum:Temp:Abs-Feuchte:Windchill:Wind:
Aussen-T/F 1226 30-09-2010 01:00:00 11.86 C 7.75 g/m*3 11.86 C 0 km/h
1227 30-09-2010 02:00:00 11.46 C 7.62 g/m*3 11.46 C 0 km/h
1228 30-09-2010 03:00:00 11.16 C 7.87 g/m*3 11.16 C 0 km/h
1229 30-09-2010 04:00:00 11.02 C 7.88 g/m*3 11.02 C 0 km/h
1230 30-09-2010 05:00:00 10.76 C 7.79 g/m*3 10.76 C 0 km/h
1231 30-09-2010 06:00:00 10.7 C 7.33 g/m*3 10.7 C 0 km/h
1232 30-09-2010 07:00:00 10.66 C 7.66 g/m*3 10.66 C 0 km/h
1233 30-09-2010 08:00:00 10.9 C 7.76 g/m*3 10.9 C 0 km/h
1234 30-09-2010 09:00:00 11.4 C 7.86 g/m*3 11.4 C 0 km/h
1235 30-09-2010 10:00:00 11.64 C 8.27 g/m*3 11.64 C 0 km/h
1236 30-09-2010 11:00:00 11.86 C 8.47 g/m*3 11.86 C 0 km/h
1237 30-09-2010 12:00:00 11.98 C 8.94 g/m*3 11.98 C 0 km/h
1238 30-09-2010 13:00:00 12.58 C 9.55 g/m*3 12.58 C 0 km/h
1239 30-09-2010 14:00:00 12.94 C 9.9 g/m*3 12.94 C 0 km/h
1240 30-09-2010 15:00:00 13.26 C 10.12 g/m*3 13.26 C 0 km/h
1241 30-09-2010 16:00:00 13.4 C 10.16 g/m*3 13.4 C 0 km/h
1242 30-09-2010 17:00:00 12.96 C 9.98 g/m*3 12.96 C 0 km/h
1243 30-09-2010 18:00:00 12.48 C 9.82 g/m*3 12.48 C 0 km/h
1244 30-09-2010 19:00:00 12.14 C 9.78 g/m*3 12.14 C 0 km/h
1245 30-09-2010 20:00:00 12.16 C 9.92 g/m*3 12.16 C 0 km/h
1246 30-09-2010 21:00:00 12.08 C 9.96 g/m*3 12.08 C 0 km/h
1247 30-09-2010 22:00:00 11.96 C 9.93 g/m*3 11.96 C 0 km/h
1248 30-09-2010 23:00:00 12 C 10 g/m*3 12 C 0 km/h
1249 01-10-2010 00:00:00 12.02 C 10.05 g/m*3 12.02 C 0 km/h
1250 01-10-2010 01:00:00 11.58 C 9.86 g/m*3 11.58 C 0 km/h
Sensor: Nr:Datum:Temp:Abs-Feuchte:Windchill:Wind:
Aussen-T/F 1251 01-10-2010 02:00:00 11.44 C 9.78 g/m*3 11.44 C 0 km/h
1252 01-10-2010 03:00:00 11.56 C 9.85 g/m*3 11.56 C 0 km/h
1253 01-10-2010 04:00:00 11.7 C 9.94 g/m*3 11.7 C 0 km/h
1254 01-10-2010 05:00:00 11.62 C 9.89 g/m*3 11.62 C 0 km/h
1255 01-10-2010 06:00:00 11.4 C 9.75 g/m*3 11.4 C 0 km/h
1256 01-10-2010 07:00:00 11 C 9.51 g/m*3 11 C 0 km/h
1257 01-10-2010 08:00:00 10.3 C 9.1 g/m*3 10.3 C 0 km/h
1258 01-10-2010 09:00:00 11.24 C 9.65 g/m*3 11.24 C 0 km/h
1259 01-10-2010 10:00:00 11.72 C 9.63 g/m*3 11.72 C 0 km/h
1260 01-10-2010 11:00:00 12.46 C 8.84 g/m*3 12.46 C 0 km/h
1261 01-10-2010 12:00:00 12.68 C 8.49 g/m*3 12.68 C 0 km/h
1262 01-10-2010 13:00:00 13.18 C 8.12 g/m*3 13.18 C 0 km/h
1263 01-10-2010 14:00:00 13.32 C 7.94 g/m*3 13.32 C 0 km/h
1264 01-10-2010 15:00:00 15.3 C 7.78 g/m*3 15.3 C 0 km/h
1265 01-10-2010 16:00:00 16.74 C 7.61 g/m*3 16.74 C 0 km/h
1266 01-10-2010 17:00:00 16.14 C 8.35 g/m*3 16.14 C 0 km/h
1267 01-10-2010 18:00:00 14.34 C 8.79 g/m*3 14.34 C 0 km/h
1268 01-10-2010 19:00:00 12.18 C 8.56 g/m*3 12.18 C 0 km/h
1269 01-10-2010 20:00:00 11.26 C 8.51 g/m*3 11.26 C 0 km/h
1270 01-10-2010 21:00:00 10.86 C 8.53 g/m*3 10.86 C 0 km/h
1271 01-10-2010 22:00:00 10.98 C 8.76 g/m*3 10.98 C 0 km/h
1272 01-10-2010 23:00:00 11.06 C 8.74 g/m*3 11.06 C 0 km/h
1273 02-10-2010 00:00:00 11.12 C 8.71 g/m*3 11.12 C 0 km/h
1274 02-10-2010 01:00:00 10.92 C 8.74 g/m*3 10.92 C 0 km/h
1275 02-10-2010 02:00:00 10.96 C 8.97 g/m*3 10.96 C 0 km/h
Sensor: Nr:Datum:Temp:Abs-Feuchte:Windchill:Wind:
Aussen-T/F 1276 02-10-2010 03:00:00 11.1 C 9.15 g/m*3 11.1 C 0 km/h
1277 02-10-2010 04:00:00 11.08 C 9.26 g/m*3 11.08 C 0 km/h
1278 02-10-2010 05:00:00 10.98 C 9.3 g/m*3 10.98 C 0 km/h
1279 02-10-2010 06:00:00 11 C 9.39 g/m*3 11 C 0 km/h
1280 02-10-2010 07:00:00 11.14 C 9.55 g/m*3 11.14 C 0 km/h
1281 02-10-2010 08:00:00 11.46 C 9.79 g/m*3 11.46 C 0 km/h
1282 02-10-2010 09:00:00 12 C 10.12 g/m*3 12 C 0 km/h
1283 02-10-2010 10:00:00 13.14 C 10.75 g/m*3 13.14 C 0 km/h
1284 02-10-2010 11:00:00 14.32 C 11.27 g/m*3 14.32 C 0 km/h
1285 02-10-2010 12:00:00 15.04 C 11.52 g/m*3 15.04 C 0 km/h
1286 02-10-2010 13:00:00 15.74 C 11.53 g/m*3 15.74 C 0 km/h
1287 02-10-2010 14:00:00 15.64 C 11.41 g/m*3 15.64 C 0 km/h
1288 02-10-2010 15:00:00 16 C 11.47 g/m*3 16 C 0 km/h
1289 02-10-2010 16:00:00 16.24 C 11.09 g/m*3 16.24 C 0 km/h
1290 02-10-2010 17:00:00 16.28 C 10.92 g/m*3 16.28 C 0 km/h
1291 02-10-2010 18:00:00 15.42 C 10.92 g/m*3 15.42 C 0 km/h
1292 02-10-2010 19:00:00 14.94 C 10.94 g/m*3 14.94 C 0 km/h
1293 02-10-2010 20:00:00 14.8 C 11.1 g/m*3 14.8 C 0 km/h
1294 02-10-2010 21:00:00 14.5 C 11.02 g/m*3 14.5 C 0 km/h
1295 02-10-2010 22:00:00 14.48 C 11.16 g/m*3 14.48 C 0 km/h
1296 02-10-2010 23:00:00 14.56 C 11.13 g/m*3 14.56 C 0 km/h
1297 03-10-2010 00:00:00 14.44 C 11.08 g/m*3 14.44 C 0 km/h
1298 03-10-2010 01:00:00 14.7 C 10.7 g/m*3 14.7 C 0 km/h
1299 03-10-2010 02:00:00 14.58 C 10.32 g/m*3 14.58 C 0 km/h
1300 03-10-2010 03:00:00 13.92 C 10.59 g/m*3 13.92 C 0 km/h
Sensor: Nr:Datum:Temp:Abs-Feuchte:Windchill:Wind:
Aussen-T/F 1301 03-10-2010 04:00:00 14.08 C 10.62 g/m*3 14.08 C 0 km/h
1302 03-10-2010 05:00:00 14.26 C 10.34 g/m*3 14.26 C 0 km/h
1303 03-10-2010 06:00:00 13.46 C 10.24 g/m*3 13.46 C 0 km/h
1304 03-10-2010 07:00:00 13.42 C 10.43 g/m*3 13.42 C 0 km/h
1305 03-10-2010 08:00:00 13.98 C 10.41 g/m*3 13.98 C 0 km/h
1306 03-10-2010 09:00:00 15.12 C 10.08 g/m*3 15.12 C 0 km/h
1307 03-10-2010 10:00:00 16.78 C 9.91 g/m*3 16.78 C 0 km/h
1308 03-10-2010 11:00:00 18.14 C 10.13 g/m*3 18.14 C 0 km/h
1309 03-10-2010 12:00:00 19.68 C 9.74 g/m*3 19.68 C 0 km/h
1310 03-10-2010 13:00:00 21.36 C 9.43 g/m*3 21.36 C 0 km/h
1311 03-10-2010 14:00:00 23.34 C 9.09 g/m*3 23.34 C 0 km/h
1312 03-10-2010 15:00:00 24.72 C 8.61 g/m*3 24.72 C 0 km/h
1313 03-10-2010 16:00:00 25.12 C 8.67 g/m*3 25.12 C 0 km/h
1314 03-10-2010 17:00:00 25.22 C 9.37 g/m*3 25.22 C 0 km/h
1315 03-10-2010 18:00:00 21.54 C 10.55 g/m*3 21.54 C 0 km/h
1316 03-10-2010 19:00:00 18.78 C 10.84 g/m*3 18.78 C 0 km/h
1317 03-10-2010 20:00:00 18.34 C 10.88 g/m*3 18.34 C 0 km/h
1318 03-10-2010 21:00:00 17.96 C 11.03 g/m*3 17.96 C 0 km/h
1319 03-10-2010 22:00:00 17.56 C 10.86 g/m*3 17.56 C 0 km/h
1320 03-10-2010 23:00:00 17.56 C 10.32 g/m*3 17.56 C 0 km/h
1321 04-10-2010 00:00:00 17.28 C 9.86 g/m*3 17.28 C 0 km/h
1322 04-10-2010 01:00:00 17.18 C 9.59 g/m*3 17.18 C 0 km/h
1323 04-10-2010 02:00:00 16.82 C 9.65 g/m*3 16.82 C 0 km/h
1324 04-10-2010 03:00:00 15.76 C 9.96 g/m*3 15.76 C 0 km/h
1325 04-10-2010 04:00:00 15.1 C 9.99 g/m*3 15.1 C 0 km/h
Sensor: Nr:Datum:Temp:Abs-Feuchte:Windchill:Wind:
Aussen-T/F 1326 04-10-2010 05:00:00 14.3 C 9.95 g/m*3 14.3 C 0 km/h
1327 04-10-2010 06:00:00 13.92 C 9.94 g/m*3 13.92 C 0 km/h
1328 04-10-2010 07:00:00 13.62 C 9.83 g/m*3 13.62 C 0 km/h
1329 04-10-2010 08:00:00 14.26 C 9.8 g/m*3 14.26 C 0 km/h
1330 04-10-2010 09:00:00 15 C 9.23 g/m*3 15 C 0 km/h
1331 04-10-2010 10:00:00 15.66 C 8.97 g/m*3 15.66 C 0 km/h
1332 04-10-2010 11:00:00 17.62 C 8.92 g/m*3 17.62 C 0 km/h
1333 04-10-2010 12:00:00 17.84 C 8.76 g/m*3 17.84 C 0 km/h
1334 04-10-2010 13:00:00 18.72 C 8.62 g/m*3 18.72 C 0 km/h
1335 04-10-2010 14:00:00 19.76 C 8.72 g/m*3 19.76 C 0 km/h
1336 04-10-2010 15:00:00 22.5 C 8.63 g/m*3 22.5 C 0 km/h
1337 04-10-2010 16:00:00 23.64 C 8.23 g/m*3 23.64 C 0 km/h
1338 04-10-2010 17:00:00 21.14 C 9.16 g/m*3 21.14 C 0 km/h
1339 04-10-2010 18:00:00 18.68 C 9.66 g/m*3 18.68 C 0 km/h
1340 04-10-2010 19:00:00 16.52 C 10.09 g/m*3 16.52 C 0 km/h
1341 04-10-2010 20:00:00 16.22 C 10.02 g/m*3 16.22 C 0 km/h
1342 04-10-2010 21:00:00 15.42 C 9.94 g/m*3 15.42 C 0 km/h
1343 04-10-2010 22:00:00 14.56 C 9.91 g/m*3 14.56 C 0 km/h
1344 04-10-2010 23:00:00 14.2 C 9.92 g/m*3 14.2 C 0 km/h
1345 05-10-2010 00:00:00 14.2 C 10.01 g/m*3 14.2 C 0 km/h
1346 05-10-2010 01:00:00 13.94 C 9.9 g/m*3 13.94 C 0 km/h
1347 05-10-2010 02:00:00 13.52 C 9.84 g/m*3 13.52 C 0 km/h
1348 05-10-2010 03:00:00 13.6 C 10 g/m*3 13.6 C 0 km/h
1349 05-10-2010 04:00:00 13.6 C 10.1 g/m*3 13.6 C 0 km/h
1350 05-10-2010 05:00:00 13.6 C 10.14 g/m*3 13.6 C 0 km/h
Sensor: Nr:Datum:Temp:Abs-Feuchte:Windchill:Wind:
Aussen-T/F 1351 05-10-2010 06:00:00 13.42 C 10.38 g/m*3 13.42 C 0 km/h
1352 05-10-2010 07:00:00 13.4 C 10.56 g/m*3 13.4 C 0 km/h
1353 05-10-2010 08:00:00 13.14 C 10.41 g/m*3 13.14 C 0 km/h
1354 05-10-2010 09:00:00 13.3 C 10.68 g/m*3 13.3 C 0 km/h
1355 05-10-2010 10:00:00 14.8 C 11.81 g/m*3 14.8 C 0 km/h
1356 05-10-2010 11:00:00 17.48 C 13.01 g/m*3 17.48 C 0 km/h
1357 05-10-2010 12:00:00 18.1 C 11.43 g/m*3 18.1 C 0 km/h
1358 05-10-2010 13:00:00 19.18 C 11.23 g/m*3 19.18 C 0 km/h
1359 05-10-2010 14:00:00 19.26 C 10.95 g/m*3 19.26 C 0 km/h
1360 05-10-2010 15:00:00 18.8 C 12.63 g/m*3 18.8 C 0 km/h
1361 05-10-2010 16:00:00 18.5 C 12.47 g/m*3 18.5 C 0 km/h
1362 05-10-2010 17:00:00 17.1 C 11.67 g/m*3 17.1 C 0 km/h
1363 05-10-2010 18:00:00 17.02 C 11.44 g/m*3 17.02 C 0 km/h
1364 05-10-2010 19:00:00 16.66 C 11.31 g/m*3 16.66 C 0 km/h
1365 05-10-2010 20:00:00 16.36 C 10.94 g/m*3 16.36 C 0 km/h
1366 05-10-2010 21:00:00 15.68 C 10.26 g/m*3 15.68 C 0 km/h
1367 05-10-2010 22:00:00 15.3 C 9.98 g/m*3 15.3 C 0 km/h
1368 05-10-2010 23:00:00 15.6 C 9.97 g/m*3 15.6 C 0 km/h
1369 06-10-2010 00:00:00 15.6 C 9.97 g/m*3 15.6 C 0 km/h
1370 06-10-2010 01:00:00 15.5 C 9.99 g/m*3 15.5 C 0 km/h
1371 06-10-2010 02:00:00 15.44 C 10.17 g/m*3 15.44 C 0 km/h
1372 06-10-2010 03:00:00 15.28 C 10.1 g/m*3 15.28 C 0 km/h
1373 06-10-2010 04:00:00 15.1 C 10.09 g/m*3 15.1 C 0 km/h
1374 06-10-2010 05:00:00 14.92 C 10.26 g/m*3 14.92 C 0 km/h
1375 06-10-2010 06:00:00 14.82 C 10.1 g/m*3 14.82 C 0 km/h
Sensor: Nr:Datum:Temp:Abs-Feuchte:Windchill:Wind:
Aussen-T/F 1376 06-10-2010 07:00:00 14.66 C 9.95 g/m*3 14.66 C 0 km/h
1377 06-10-2010 08:00:00 14.52 C 10.19 g/m*3 14.52 C 0 km/h
1378 06-10-2010 09:00:00 15.54 C 10.12 g/m*3 15.54 C 0 km/h
1379 06-10-2010 10:00:00 16.24 C 9.93 g/m*3 16.24 C 0 km/h
1380 06-10-2010 11:00:00 17.76 C 9.27 g/m*3 17.76 C 0 km/h
1381 06-10-2010 12:00:00 19.04 C 8.69 g/m*3 19.04 C 0 km/h
1382 06-10-2010 13:00:00 20.2 C 8.5 g/m*3 20.2 C 0 km/h
1383 06-10-2010 14:00:00 21.62 C 8.24 g/m*3 21.62 C 0 km/h
1384 06-10-2010 15:00:00 23.06 C 8.25 g/m*3 23.06 C 0 km/h
1385 06-10-2010 16:00:00 22.84 C 8.96 g/m*3 22.84 C 0 km/h
1386 06-10-2010 17:00:00 21.08 C 10.16 g/m*3 21.08 C 0 km/h
1387 06-10-2010 18:00:00 18.94 C 10.23 g/m*3 18.94 C 0 km/h
1388 06-10-2010 19:00:00 17.3 C 10.19 g/m*3 17.3 C 0 km/h
1389 06-10-2010 20:00:00 16.9 C 10.13 g/m*3 16.9 C 0 km/h
1390 06-10-2010 21:00:00 16.36 C 10.42 g/m*3 16.36 C 0 km/h
1391 06-10-2010 22:00:00 15.74 C 10.52 g/m*3 15.74 C 0 km/h
1392 06-10-2010 23:00:00 14.9 C 10.32 g/m*3 14.9 C 0 km/h
1393 07-10-2010 00:00:00 14.22 C 10.17 g/m*3 14.22 C 0 km/h
1394 07-10-2010 01:00:00 14.24 C 10.5 g/m*3 14.24 C 0 km/h
1395 07-10-2010 02:00:00 14.24 C 10.43 g/m*3 14.24 C 0 km/h
1396 07-10-2010 03:00:00 14.08 C 10.35 g/m*3 14.08 C 0 km/h
1397 07-10-2010 04:00:00 13.82 C 10.31 g/m*3 13.82 C 0 km/h
1398 07-10-2010 05:00:00 13.3 C 10.17 g/m*3 13.3 C 0 km/h
1399 07-10-2010 06:00:00 13.84 C 10.51 g/m*3 13.84 C 0 km/h
1400 07-10-2010 07:00:00 14.12 C 10.6 g/m*3 14.12 C 0 km/h
Sensor: Nr:Datum:Temp:Abs-Feuchte:Windchill:Wind:
Aussen-T/F 1401 07-10-2010 08:00:00 14.66 C 10.9 g/m*3 14.66 C 0 km/h
1402 07-10-2010 09:00:00 15.06 C 10.6 g/m*3 15.06 C 0 km/h
1403 07-10-2010 10:00:00 16.18 C 10.33 g/m*3 16.18 C 0 km/h
1404 07-10-2010 11:00:00 17.26 C 10.32 g/m*3 17.26 C 0 km/h
1405 07-10-2010 12:00:00 18.4 C 9.97 g/m*3 18.4 C 0 km/h
1406 07-10-2010 13:00:00 19.26 C 9.83 g/m*3 19.26 C 0 km/h
1407 07-10-2010 14:00:00 19.88 C 9.78 g/m*3 19.88 C 0 km/h
1408 07-10-2010 15:00:00 20.5 C 9.5 g/m*3 20.5 C 0 km/h
1409 07-10-2010 16:00:00 19.94 C 9.47 g/m*3 19.94 C 0 km/h
1410 07-10-2010 17:00:00 19.16 C 9.57 g/m*3 19.16 C 0 km/h
1411 07-10-2010 18:00:00 17.88 C 10.22 g/m*3 17.88 C 0 km/h
1412 07-10-2010 19:00:00 16.9 C 10.38 g/m*3 16.9 C 0 km/h
1413 07-10-2010 20:00:00 16.3 C 10.35 g/m*3 16.3 C 0 km/h
1414 07-10-2010 21:00:00 16.22 C 10.13 g/m*3 16.22 C 0 km/h
1415 07-10-2010 22:00:00 16 C 9.86 g/m*3 16 C 0 km/h
1416 07-10-2010 23:00:00 16.02 C 9.74 g/m*3 16.02 C 0 km/h
1417 08-10-2010 00:00:00 15.82 C 9.89 g/m*3 15.82 C 0 km/h
1418 08-10-2010 01:00:00 15.62 C 9.67 g/m*3 15.62 C 0 km/h
1419 08-10-2010 02:00:00 15.44 C 9.35 g/m*3 15.44 C 0 km/h
1420 08-10-2010 03:00:00 14.92 C 8.75 g/m*3 14.92 C 0 km/h
1421 08-10-2010 04:00:00 14.52 C 8.57 g/m*3 14.52 C 0 km/h
1422 08-10-2010 05:00:00 14.24 C 8.81 g/m*3 14.24 C 0 km/h
1423 08-10-2010 06:00:00 13.98 C 8.96 g/m*3 13.98 C 0 km/h
1424 08-10-2010 07:00:00 14.02 C 9.13 g/m*3 14.02 C 0 km/h
1425 08-10-2010 08:00:00 14.2 C 9.23 g/m*3 14.2 C 0 km/h
Sensor: Nr:Datum:Temp:Abs-Feuchte:Windchill:Wind:
Aussen-T/F 1426 08-10-2010 09:00:00 14.6 C 9.41 g/m*3 14.6 C 0 km/h
1427 08-10-2010 10:00:00 15.28 C 9.47 g/m*3 15.28 C 0 km/h
1428 08-10-2010 11:00:00 15.86 C 9.29 g/m*3 15.86 C 0 km/h
1429 08-10-2010 12:00:00 16.54 C 9.09 g/m*3 16.54 C 0 km/h
1430 08-10-2010 13:00:00 16.94 C 8.77 g/m*3 16.94 C 0 km/h
1431 08-10-2010 14:00:00 18.76 C 8.77 g/m*3 18.76 C 0 km/h
1432 08-10-2010 15:00:00 20.32 C 8.52 g/m*3 20.32 C 0 km/h
1433 08-10-2010 16:00:00 22.2 C 8.95 g/m*3 22.2 C 0 km/h
1434 08-10-2010 17:00:00 21.78 C 9.24 g/m*3 21.78 C 0 km/h
1435 08-10-2010 18:00:00 19.06 C 9.68 g/m*3 19.06 C 0 km/h
1436 08-10-2010 19:00:00 15.88 C 9.98 g/m*3 15.88 C 0 km/h
1437 08-10-2010 20:00:00 14.78 C 9.79 g/m*3 14.78 C 0 km/h
1438 08-10-2010 21:00:00 14.08 C 9.65 g/m*3 14.08 C 0 km/h
1439 08-10-2010 22:00:00 13.28 C 9.51 g/m*3 13.28 C 0 km/h
1440 08-10-2010 23:00:00 12.58 C 9.3 g/m*3 12.58 C 0 km/h
1441 09-10-2010 00:00:00 11.9 C 9.11 g/m*3 11.9 C 0 km/h
1442 09-10-2010 01:00:00 11.34 C 8.96 g/m*3 11.34 C 0 km/h
1443 09-10-2010 02:00:00 10.74 C 8.68 g/m*3 10.74 C 0 km/h
1444 09-10-2010 03:00:00 10.24 C 8.43 g/m*3 10.24 C 0 km/h
1445 09-10-2010 04:00:00 9.78 C 8.32 g/m*3 9.78 C 0 km/h
1446 09-10-2010 05:00:00 9.52 C 8.29 g/m*3 9.52 C 0 km/h
1447 09-10-2010 06:00:00 9.42 C 8.31 g/m*3 9.42 C 0 km/h
1448 09-10-2010 07:00:00 9.24 C 8.24 g/m*3 9.24 C 0 km/h
1449 09-10-2010 08:00:00 9.2 C 8.22 g/m*3 9.2 C 0 km/h
1450 09-10-2010 09:00:00 9.28 C 8.24 g/m*3 9.28 C 0 km/h
Sensor: Nr:Datum:Temp:Abs-Feuchte:Windchill:Wind:
Aussen-T/F 1451 09-10-2010 10:00:00 10.44 C 8.87 g/m*3 10.44 C 0 km/h
1452 09-10-2010 11:00:00 12.52 C 9.53 g/m*3 12.52 C 0 km/h
1453 09-10-2010 12:00:00 14.68 C 8.2 g/m*3 14.68 C 0 km/h
1454 09-10-2010 13:00:00 17.1 C 7.89 g/m*3 17.1 C 0 km/h
1455 09-10-2010 14:00:00 19.96 C 7.03 g/m*3 19.96 C 0 km/h
1456 09-10-2010 15:00:00 21.86 C 6.28 g/m*3 21.86 C 0 km/h
1457 09-10-2010 16:00:00 22.16 C 6.23 g/m*3 22.16 C 0 km/h
1458 09-10-2010 17:00:00 20.8 C 6.19 g/m*3 20.8 C 0 km/h
1459 09-10-2010 18:00:00 17.02 C 6.26 g/m*3 17.02 C 0 km/h
1460 09-10-2010 19:00:00 13.8 C 6.12 g/m*3 13.8 C 0 km/h
1461 09-10-2010 20:00:00 12.84 C 6.58 g/m*3 12.84 C 0 km/h
1462 09-10-2010 21:00:00 11.48 C 6.99 g/m*3 11.48 C 0 km/h
1463 09-10-2010 22:00:00 10.6 C 7.03 g/m*3 10.6 C 0 km/h
1464 09-10-2010 23:00:00 9.62 C 6.92 g/m*3 9.62 C 0 km/h
1465 10-10-2010 00:00:00 8.94 C 6.99 g/m*3 8.94 C 0 km/h
1466 10-10-2010 01:00:00 8.38 C 6.93 g/m*3 8.38 C 0 km/h
1467 10-10-2010 02:00:00 7.76 C 6.82 g/m*3 7.76 C 0 km/h
1468 10-10-2010 03:00:00 7.14 C 6.66 g/m*3 7.14 C 0 km/h
1469 10-10-2010 04:00:00 6.76 C 6.61 g/m*3 6.76 C 0 km/h
1470 10-10-2010 05:00:00 6.28 C 6.45 g/m*3 6.28 C 0 km/h
1471 10-10-2010 06:00:00 5.86 C 6.36 g/m*3 5.86 C 0 km/h
1472 10-10-2010 07:00:00 5.5 C 6.31 g/m*3 5.5 C 0 km/h
1473 10-10-2010 08:00:00 6.36 C 6.69 g/m*3 6.36 C 0 km/h
1474 10-10-2010 09:00:00 7.26 C 6.79 g/m*3 7.26 C 0 km/h
1475 10-10-2010 10:00:00 8.92 C 6.6 g/m*3 8.92 C 0 km/h
Sensor: Nr:Datum:Temp:Abs-Feuchte:Windchill:Wind:
Aussen-T/F 1476 10-10-2010 11:00:00 10.92 C 6.57 g/m*3 10.92 C 0 km/h
1477 10-10-2010 12:00:00 12.8 C 6.47 g/m*3 12.8 C 0 km/h
1478 10-10-2010 13:00:00 15.86 C 5.67 g/m*3 15.86 C 0 km/h
1479 10-10-2010 14:00:00 18.62 C 5.45 g/m*3 18.62 C 0 km/h
1480 10-10-2010 15:00:00 20.4 C 5.91 g/m*3 20.4 C 0 km/h
1481 10-10-2010 16:00:00 21.28 C 5.7 g/m*3 21.28 C 0 km/h
1482 10-10-2010 17:00:00 20.64 C 5.6 g/m*3 20.64 C 0 km/h
1483 10-10-2010 18:00:00 17.2 C 5.45 g/m*3 17.2 C 0 km/h
1484 10-10-2010 19:00:00 14.18 C 5.49 g/m*3 14.18 C 0 km/h
1485 10-10-2010 20:00:00 13.02 C 4.91 g/m*3 13.02 C 0 km/h
1486 10-10-2010 21:00:00 12.44 C 4.01 g/m*3 12.44 C 0 km/h
1487 10-10-2010 22:00:00 11.46 C 4.12 g/m*3 11.46 C 0 km/h
1488 10-10-2010 23:00:00 10.72 C 4.52 g/m*3 10.72 C 0 km/h
1489 11-10-2010 00:00:00 9.98 C 4.88 g/m*3 9.98 C 0 km/h
1490 11-10-2010 01:00:00 9.44 C 4.91 g/m*3 9.44 C 0 km/h
1491 11-10-2010 02:00:00 9.08 C 4.87 g/m*3 9.08 C 0 km/h
1492 11-10-2010 03:00:00 8.24 C 4.99 g/m*3 8.24 C 0 km/h
1493 11-10-2010 04:00:00 7.58 C 5.1 g/m*3 7.58 C 0 km/h
1494 11-10-2010 05:00:00 6.64 C 5.24 g/m*3 6.64 C 0 km/h
1495 11-10-2010 06:00:00 5.72 C 5.32 g/m*3 5.72 C 0 km/h
1496 11-10-2010 07:00:00 5.22 C 5.36 g/m*3 5.22 C 0 km/h
1497 11-10-2010 08:00:00 4.96 C 5.39 g/m*3 4.96 C 0 km/h
1498 11-10-2010 09:00:00 5.6 C 5.7 g/m*3 5.6 C 0 km/h
1499 11-10-2010 10:00:00 7.12 C 6.11 g/m*3 7.12 C 0 km/h
1500 11-10-2010 11:00:00 9.46 C 6.36 g/m*3 9.46 C 0 km/h
Sensor: Nr:Datum:Temp:Abs-Feuchte:Windchill:Wind:
Aussen-T/F 1501 11-10-2010 12:00:00 11.62 C 6.45 g/m*3 11.62 C 0 km/h
1502 11-10-2010 13:00:00 14.92 C 5.9 g/m*3 14.92 C 0 km/h
1503 11-10-2010 14:00:00 17.48 C 5.45 g/m*3 17.48 C 0 km/h
1504 11-10-2010 15:00:00 19.78 C 5.05 g/m*3 19.78 C 0 km/h
1505 11-10-2010 16:00:00 20.96 C 4.61 g/m*3 20.96 C 0 km/h
1506 11-10-2010 17:00:00 19.56 C 3.6 g/m*3 19.56 C 0 km/h
1507 11-10-2010 18:00:00 16.12 C 3.98 g/m*3 16.12 C 0 km/h
1508 11-10-2010 19:00:00 13.18 C 4.33 g/m*3 13.18 C 0 km/h
1509 11-10-2010 20:00:00 11.32 C 4.82 g/m*3 11.32 C 0 km/h
1510 11-10-2010 21:00:00 10.025 C 4.96 g/m*3 10.03 C 0 km/h
1511 11-10-2010 22:00:00 9.2 C 4.84 g/m*3 9.2 C 0 km/h
1512 11-10-2010 23:00:00 8.24 C 4.87 g/m*3 8.24 C 0 km/h
1513 12-10-2010 00:00:00 7.16 C 5.01 g/m*3 7.16 C 0 km/h
1514 12-10-2010 01:00:00 6.4 C 5.13 g/m*3 6.4 C 0 km/h
1515 12-10-2010 02:00:00 5.74 C 5.24 g/m*3 5.74 C 0 km/h
1516 12-10-2010 03:00:00 5.04 C 5.31 g/m*3 5.04 C 0 km/h
1517 12-10-2010 04:00:00 4.42 C 5.34 g/m*3 4.42 C 0 km/h
1518 12-10-2010 05:00:00 3.8 C 5.31 g/m*3 3.8 C 0 km/h
1519 12-10-2010 06:00:00 3.46 C 5.26 g/m*3 3.46 C 0 km/h
1520 12-10-2010 07:00:00 2.94 C 5.15 g/m*3 2.94 C 0 km/h
1521 12-10-2010 08:00:00 3.56 C 5.52 g/m*3 3.56 C 0 km/h
1522 12-10-2010 09:00:00 4.9 C 5.93 g/m*3 4.9 C 0 km/h
1523 12-10-2010 10:00:00 5.82 C 6.07 g/m*3 5.82 C 0 km/h
1524 12-10-2010 11:00:00 7.16 C 6.36 g/m*3 7.16 C 0 km/h
1525 12-10-2010 12:00:00 9.56 C 6.18 g/m*3 9.56 C 0 km/h
Sensor: Nr:Datum:Temp:Abs-Feuchte:Windchill:Wind:
Aussen-T/F 1526 12-10-2010 13:00:00 12.58 C 5.72 g/m*3 12.58 C 0 km/h
1527 12-10-2010 14:00:00 15.26 C 5.65 g/m*3 15.26 C 0 km/h
1528 12-10-2010 15:00:00 16.94 C 5.42 g/m*3 16.94 C 0 km/h
1529 12-10-2010 16:00:00 17.66 C 5.42 g/m*3 17.66 C 0 km/h
1530 12-10-2010 17:00:00 17.22 C 4.57 g/m*3 17.22 C 0 km/h
1531 12-10-2010 18:00:00 14.5 C 5.65 g/m*3 14.5 C 0 km/h
1532 12-10-2010 19:00:00 11.42 C 6.45 g/m*3 11.42 C 0 km/h
1533 12-10-2010 20:00:00 9.84 C 6.47 g/m*3 9.84 C 0 km/h
1534 12-10-2010 21:00:00 8.36 C 6.26 g/m*3 8.36 C 0 km/h
1535 12-10-2010 22:00:00 7.74 C 6.15 g/m*3 7.74 C 0 km/h
1536 12-10-2010 23:00:00 7.78 C 6 g/m*3 7.78 C 0 km/h
1537 13-10-2010 00:00:00 7.6 C 5.86 g/m*3 7.6 C 0 km/h
1538 13-10-2010 01:00:00 7.02 C 5.82 g/m*3 7.02 C 0 km/h
1539 13-10-2010 02:00:00 6.8 C 5.83 g/m*3 6.8 C 0 km/h
1540 13-10-2010 03:00:00 6.44 C 5.69 g/m*3 6.44 C 0 km/h
1541 13-10-2010 04:00:00 6.2 C 5.59 g/m*3 6.2 C 0 km/h
1542 13-10-2010 05:00:00 6.1 C 5.6 g/m*3 6.1 C 0 km/h
1543 13-10-2010 06:00:00 5.84 C 5.6 g/m*3 5.84 C 0 km/h
1544 13-10-2010 07:00:00 5.42 C 5.53 g/m*3 5.42 C 0 km/h
1545 13-10-2010 08:00:00 5.62 C 5.49 g/m*3 5.62 C 0 km/h
1546 13-10-2010 09:00:00 5.86 C 5.45 g/m*3 5.86 C 0 km/h
1547 13-10-2010 10:00:00 6.66 C 5.3 g/m*3 6.66 C 0 km/h
1548 13-10-2010 11:00:00 7.04 C 5.08 g/m*3 7.04 C 0 km/h
1549 13-10-2010 12:00:00 8.14 C 5.06 g/m*3 8.14 C 0 km/h
1550 13-10-2010 13:00:00 8.8 C 4.89 g/m*3 8.8 C 0 km/h
Sensor: Nr:Datum:Temp:Abs-Feuchte:Windchill:Wind:
Aussen-T/F 1551 13-10-2010 14:00:00 9.8 C 4.95 g/m*3 9.8 C 0 km/h
1552 13-10-2010 15:00:00 11.78 C 4.94 g/m*3 11.78 C 0 km/h
1553 13-10-2010 16:00:00 12.06 C 5.01 g/m*3 12.06 C 0 km/h
1554 13-10-2010 17:00:00 12.34 C 5.23 g/m*3 12.34 C 0 km/h
1555 13-10-2010 18:00:00 9.94 C 5.5 g/m*3 9.94 C 0 km/h
1556 13-10-2010 19:00:00 7.48 C 5.76 g/m*3 7.48 C 0 km/h
1557 13-10-2010 20:00:00 6.96 C 5.81 g/m*3 6.96 C 0 km/h
1558 13-10-2010 21:00:00 5.82 C 5.72 g/m*3 5.82 C 0 km/h
1559 13-10-2010 22:00:00 5.16 C 5.73 g/m*3 5.16 C 0 km/h
1560 13-10-2010 23:00:00 4.52 C 5.61 g/m*3 4.52 C 0 km/h
1561 14-10-2010 00:00:00 3.88 C 5.51 g/m*3 3.88 C 0 km/h
1562 14-10-2010 01:00:00 3.38 C 5.47 g/m*3 3.38 C 0 km/h
1563 14-10-2010 02:00:00 3.62 C 5.65 g/m*3 3.62 C 0 km/h
1564 14-10-2010 03:00:00 3.52 C 5.57 g/m*3 3.52 C 0 km/h
1565 14-10-2010 04:00:00 3.54 C 5.55 g/m*3 3.54 C 0 km/h
1566 14-10-2010 05:00:00 3.62 C 5.63 g/m*3 3.62 C 0 km/h
1567 14-10-2010 06:00:00 3.92 C 5.7 g/m*3 3.92 C 0 km/h
1568 14-10-2010 07:00:00 4.12 C 5.76 g/m*3 4.12 C 0 km/h
1569 14-10-2010 08:00:00 4.44 C 5.84 g/m*3 4.44 C 0 km/h
1570 14-10-2010 09:00:00 4.56 C 5.86 g/m*3 4.56 C 0 km/h
1571 14-10-2010 10:00:00 5.16 C 5.88 g/m*3 5.16 C 0 km/h
1572 14-10-2010 11:00:00 6.2 C 5.75 g/m*3 6.2 C 0 km/h
1573 14-10-2010 12:00:00 7.86 C 5.59 g/m*3 7.86 C 0 km/h
1574 14-10-2010 13:00:00 9.36 C 5.58 g/m*3 9.36 C 0 km/h
1575 14-10-2010 14:00:00 11.86 C 5.85 g/m*3 11.86 C 0 km/h
Sensor: Nr:Datum:Temp:Abs-Feuchte:Windchill:Wind:
Aussen-T/F 1576 14-10-2010 15:00:00 13.94 C 5.72 g/m*3 13.94 C 0 km/h
1577 14-10-2010 16:00:00 14.4 C 5.83 g/m*3 14.4 C 0 km/h
1578 14-10-2010 17:00:00 13.24 C 5.5 g/m*3 13.24 C 0 km/h
1579 14-10-2010 18:00:00 11.04 C 5.96 g/m*3 11.04 C 0 km/h
1580 14-10-2010 19:00:00 10.26 C 6.25 g/m*3 10.26 C 0 km/h
1581 14-10-2010 20:00:00 10.2 C 6.24 g/m*3 10.2 C 0 km/h
1582 14-10-2010 21:00:00 9.8 C 6.33 g/m*3 9.8 C 0 km/h
1583 14-10-2010 22:00:00 9.74 C 6.51 g/m*3 9.74 C 0 km/h
1584 14-10-2010 23:00:00 9.68 C 6.68 g/m*3 9.68 C 0 km/h
1585 15-10-2010 00:00:00 9.5 C 6.75 g/m*3 9.5 C 0 km/h
1586 15-10-2010 01:00:00 9.42 C 6.88 g/m*3 9.42 C 0 km/h
1587 15-10-2010 02:00:00 9.24 C 7.13 g/m*3 9.24 C 0 km/h
1588 15-10-2010 03:00:00 9.28 C 7.25 g/m*3 9.28 C 0 km/h
1589 15-10-2010 04:00:00 9.28 C 7.36 g/m*3 9.28 C 0 km/h
1590 15-10-2010 05:00:00 9.2 C 7.41 g/m*3 9.2 C 0 km/h
1591 15-10-2010 06:00:00 9.3 C 7.66 g/m*3 9.3 C 0 km/h
1592 15-10-2010 07:00:00 9.28 C 7.74 g/m*3 9.28 C 0 km/h
1593 15-10-2010 08:00:00 9.24 C 7.86 g/m*3 9.24 C 0 km/h
1594 15-10-2010 09:00:00 9.82 C 8.19 g/m*3 9.82 C 0 km/h
1595 15-10-2010 10:00:00 10.72 C 8.06 g/m*3 10.72 C 0 km/h
1596 15-10-2010 11:00:00 11.52 C 7.76 g/m*3 11.52 C 0 km/h
1597 15-10-2010 12:00:00 12.42 C 7.33 g/m*3 12.42 C 0 km/h
1598 15-10-2010 13:00:00 13.38 C 6.9 g/m*3 13.38 C 0 km/h
1599 15-10-2010 14:00:00 12.78 C 6.76 g/m*3 12.78 C 0 km/h
1600 15-10-2010 15:00:00 12.86 C 6.68 g/m*3 12.86 C 0 km/h
Sensor: Nr:Datum:Temp:Abs-Feuchte:Windchill:Wind:
Aussen-T/F 1601 15-10-2010 16:00:00 12.24 C 6.79 g/m*3 12.24 C 0 km/h
1602 15-10-2010 17:00:00 11.56 C 7.07 g/m*3 11.56 C 0 km/h
1603 15-10-2010 18:00:00 10.88 C 7.03 g/m*3 10.88 C 0 km/h
1604 15-10-2010 19:00:00 10.52 C 7.01 g/m*3 10.52 C 0 km/h
1605 15-10-2010 20:00:00 10.36 C 7.02 g/m*3 10.36 C 0 km/h
1606 15-10-2010 21:00:00 10.1 C 7.19 g/m*3 10.1 C 0 km/h
1607 15-10-2010 22:00:00 9.3 C 7.67 g/m*3 9.3 C 0 km/h
1608 15-10-2010 23:00:00 9.2 C 8.04 g/m*3 9.2 C 0 km/h
1609 16-10-2010 00:00:00 9.02 C 8.16 g/m*3 9.02 C 0 km/h
1610 16-10-2010 01:00:00 8.82 C 8.19 g/m*3 8.82 C 0 km/h
1611 16-10-2010 02:00:00 8.78 C 8.22 g/m*3 8.78 C 0 km/h
1612 16-10-2010 03:00:00 8.68 C 8.21 g/m*3 8.68 C 0 km/h
1613 16-10-2010 04:00:00 8.54 C 8.13 g/m*3 8.54 C 0 km/h
1614 16-10-2010 05:00:00 8.36 C 8.04 g/m*3 8.36 C 0 km/h
1615 16-10-2010 06:00:00 8.3 C 8.01 g/m*3 8.3 C 0 km/h
1616 16-10-2010 07:00:00 8.12 C 7.88 g/m*3 8.12 C 0 km/h
1617 16-10-2010 08:00:00 8.1 C 7.77 g/m*3 8.1 C 0 km/h
1618 16-10-2010 09:00:00 8.24 C 7.81 g/m*3 8.24 C 0 km/h
1619 16-10-2010 10:00:00 8.64 C 8.03 g/m*3 8.64 C 0 km/h
1620 16-10-2010 11:00:00 8.96 C 8.11 g/m*3 8.96 C 0 km/h
1621 16-10-2010 12:00:00 9.38 C 8.11 g/m*3 9.38 C 0 km/h
1622 16-10-2010 13:00:00 9.72 C 8.16 g/m*3 9.72 C 0 km/h
1623 16-10-2010 14:00:00 9.96 C 7.89 g/m*3 9.96 C 0 km/h
1624 16-10-2010 15:00:00 10.08 C 7.82 g/m*3 10.08 C 0 km/h
1625 16-10-2010 16:00:00 9.9 C 7.84 g/m*3 9.9 C 0 km/h
Sensor: Nr:Datum:Temp:Abs-Feuchte:Windchill:Wind:
Aussen-T/F 1626 16-10-2010 17:00:00 9.36 C 7.9 g/m*3 9.36 C 0 km/h
1627 16-10-2010 18:00:00 8.38 C 6.98 g/m*3 8.38 C 0 km/h
1628 16-10-2010 19:00:00 6.96 C 6.55 g/m*3 6.96 C 0 km/h
1629 16-10-2010 20:00:00 6.56 C 6.31 g/m*3 6.56 C 0 km/h
1630 16-10-2010 21:00:00 6.28 C 6.21 g/m*3 6.28 C 0 km/h
1631 16-10-2010 22:00:00 5.9 C 6.37 g/m*3 5.9 C 0 km/h
1632 16-10-2010 23:00:00 5.96 C 6.56 g/m*3 5.96 C 0 km/h
1633 17-10-2010 00:00:00 6.14 C 6.7 g/m*3 6.14 C 0 km/h
1634 17-10-2010 01:00:00 6.24 C 6.71 g/m*3 6.24 C 0 km/h
1635 17-10-2010 02:00:00 6.22 C 6.61 g/m*3 6.22 C 0 km/h
1636 17-10-2010 03:00:00 6.24 C 6.49 g/m*3 6.24 C 0 km/h
1637 17-10-2010 04:00:00 6.22 C 6.33 g/m*3 6.22 C 0 km/h
1638 17-10-2010 05:00:00 6.3 C 6.43 g/m*3 6.3 C 0 km/h
1639 17-10-2010 06:00:00 6.34 C 6.46 g/m*3 6.34 C 0 km/h
1640 17-10-2010 07:00:00 6.34 C 6.29 g/m*3 6.34 C 0 km/h
1641 17-10-2010 08:00:00 6.58 C 6.17 g/m*3 6.58 C 0 km/h
1642 17-10-2010 09:00:00 6.88 C 6.15 g/m*3 6.88 C 0 km/h
1643 17-10-2010 10:00:00 7.32 C 6.14 g/m*3 7.32 C 0 km/h
1644 17-10-2010 11:00:00 7.7 C 5.98 g/m*3 7.7 C 0 km/h
1645 17-10-2010 12:00:00 7.88 C 5.97 g/m*3 7.88 C 0 km/h
1646 17-10-2010 13:00:00 8.1 C 5.96 g/m*3 8.1 C 0 km/h
1647 17-10-2010 14:00:00 8.36 C 6.14 g/m*3 8.36 C 0 km/h
1648 17-10-2010 15:00:00 8.52 C 6.12 g/m*3 8.52 C 0 km/h
1649 17-10-2010 16:00:00 8.46 C 6.28 g/m*3 8.46 C 0 km/h
1650 17-10-2010 17:00:00 8.3 C 6.32 g/m*3 8.3 C 0 km/h
Sensor: Nr:Datum:Temp:Abs-Feuchte:Windchill:Wind:
Aussen-T/F 1651 17-10-2010 18:00:00 7.9 C 6.32 g/m*3 7.9 C 0 km/h
1652 17-10-2010 19:00:00 7.68 C 6.38 g/m*3 7.68 C 0 km/h
1653 17-10-2010 20:00:00 7.68 C 6.43 g/m*3 7.68 C 0 km/h
1654 17-10-2010 21:00:00 7.62 C 6.44 g/m*3 7.62 C 0 km/h
1655 17-10-2010 22:00:00 7.38 C 6.43 g/m*3 7.38 C 0 km/h
1656 17-10-2010 23:00:00 7.04 C 6.31 g/m*3 7.04 C 0 km/h
1657 18-10-2010 00:00:00 6.48 C 6.19 g/m*3 6.48 C 0 km/h
1658 18-10-2010 01:00:00 5.18 C 5.97 g/m*3 5.18 C 0 km/h
1659 18-10-2010 02:00:00 5.8 C 6.35 g/m*3 5.8 C 0 km/h
1660 18-10-2010 03:00:00 6 C 6.3 g/m*3 6 C 0 km/h
1661 18-10-2010 04:00:00 6.02 C 6.25 g/m*3 6.02 C 0 km/h
1662 18-10-2010 05:00:00 5.84 C 6.1 g/m*3 5.84 C 0 km/h
1663 18-10-2010 06:00:00 5.8 C 6.16 g/m*3 5.8 C 0 km/h
1664 18-10-2010 07:00:00 5.76 C 6.14 g/m*3 5.76 C 0 km/h
1665 18-10-2010 08:00:00 5.78 C 6.2 g/m*3 5.78 C 0 km/h
1666 18-10-2010 09:00:00 6.66 C 6.44 g/m*3 6.66 C 0 km/h
1667 18-10-2010 10:00:00 7.56 C 5.99 g/m*3 7.56 C 0 km/h
1668 18-10-2010 11:00:00 7.76 C 5.06 g/m*3 7.76 C 0 km/h
1669 18-10-2010 12:00:00 8.26 C 4.98 g/m*3 8.26 C 0 km/h
1670 18-10-2010 13:00:00 8.82 C 4.85 g/m*3 8.82 C 0 km/h
1671 18-10-2010 14:00:00 8.88 C 4.86 g/m*3 8.88 C 0 km/h
1672 18-10-2010 15:00:00 8.74 C 4.86 g/m*3 8.74 C 0 km/h
1673 18-10-2010 16:00:00 8.74 C 4.91 g/m*3 8.74 C 0 km/h
1674 18-10-2010 17:00:00 8.52 C 4.86 g/m*3 8.52 C 0 km/h
1675 18-10-2010 18:00:00 7.76 C 4.97 g/m*3 7.76 C 0 km/h
Sensor: Nr:Datum:Temp:Abs-Feuchte:Windchill:Wind:
Aussen-T/F 1676 18-10-2010 19:00:00 6.32 C 4.89 g/m*3 6.32 C 0 km/h
1677 18-10-2010 20:00:00 5.6 C 5.05 g/m*3 5.6 C 0 km/h
1678 18-10-2010 21:00:00 5.18 C 5.03 g/m*3 5.18 C 0 km/h
1679 18-10-2010 22:00:00 4.92 C 5.06 g/m*3 4.92 C 0 km/h
1680 18-10-2010 23:00:00 4.86 C 5.17 g/m*3 4.86 C 0 km/h
1681 19-10-2010 00:00:00 5.14 C 5.24 g/m*3 5.14 C 0 km/h
1682 19-10-2010 01:00:00 5.42 C 5.27 g/m*3 5.42 C 0 km/h
1683 19-10-2010 02:00:00 5.5 C 5.32 g/m*3 5.5 C 0 km/h
1684 19-10-2010 03:00:00 4.96 C 5.75 g/m*3 4.96 C 0 km/h
1685 19-10-2010 04:00:00 5.04 C 6.04 g/m*3 5.04 C 0 km/h
1686 19-10-2010 05:00:00 5.42 C 6.06 g/m*3 5.42 C 0 km/h
1687 19-10-2010 06:00:00 5.6 C 6.31 g/m*3 5.6 C 0 km/h
1688 19-10-2010 07:00:00 5.98 C 6.38 g/m*3 5.98 C 0 km/h
1689 19-10-2010 08:00:00 5.98 C 6.42 g/m*3 5.98 C 0 km/h
1690 19-10-2010 09:00:00 6.54 C 6.62 g/m*3 6.54 C 0 km/h
1691 19-10-2010 10:00:00 7.34 C 6.65 g/m*3 7.34 C 0 km/h
1692 19-10-2010 11:00:00 7.5 C 6.93 g/m*3 7.5 C 0 km/h
1693 19-10-2010 12:00:00 7.98 C 7.08 g/m*3 7.98 C 0 km/h
1694 19-10-2010 13:00:00 9.08 C 7.48 g/m*3 9.08 C 0 km/h
1695 19-10-2010 14:00:00 9.8 C 7.42 g/m*3 9.8 C 0 km/h
1696 19-10-2010 15:00:00 10.34 C 7.37 g/m*3 10.34 C 0 km/h
1697 19-10-2010 16:00:00 12.46 C 7 g/m*3 12.46 C 0 km/h
1698 19-10-2010 17:00:00 10.3 C 7.22 g/m*3 10.3 C 0 km/h
1699 19-10-2010 18:00:00 9.04 C 6.96 g/m*3 9.04 C 0 km/h
1700 19-10-2010 19:00:00 7.98 C 6.85 g/m*3 7.98 C 0 km/h
Sensor: Nr:Datum:Temp:Abs-Feuchte:Windchill:Wind:
Aussen-T/F 1701 19-10-2010 20:00:00 7.36 C 6.46 g/m*3 7.36 C 0 km/h
1702 19-10-2010 21:00:00 6.94 C 6.22 g/m*3 6.94 C 0 km/h
1703 19-10-2010 22:00:00 6.52 C 6.16 g/m*3 6.52 C 0 km/h
1704 19-10-2010 23:00:00 6.54 C 6.2 g/m*3 6.54 C 0 km/h
1705 20-10-2010 00:00:00 6.34 C 6.16 g/m*3 6.34 C 0 km/h
1706 20-10-2010 01:00:00 6.38 C 6.16 g/m*3 6.38 C 0 km/h
1707 20-10-2010 02:00:00 5.94 C 6.39 g/m*3 5.94 C 0 km/h
1708 20-10-2010 03:00:00 5.76 C 6.53 g/m*3 5.76 C 0 km/h
1709 20-10-2010 04:00:00 5.84 C 6.51 g/m*3 5.84 C 0 km/h
1710 20-10-2010 05:00:00 5.62 C 6.56 g/m*3 5.62 C 0 km/h
1711 20-10-2010 06:00:00 5.52 C 6.61 g/m*3 5.52 C 0 km/h
1712 20-10-2010 07:00:00 5.5 C 6.64 g/m*3 5.5 C 0 km/h
1713 20-10-2010 08:00:00 5.6 C 6.66 g/m*3 5.6 C 0 km/h
1714 20-10-2010 09:00:00 6 C 6.84 g/m*3 6 C 0 km/h
1715 20-10-2010 10:00:00 6.92 C 6.95 g/m*3 6.92 C 0 km/h
1716 20-10-2010 11:00:00 6.84 C 6.44 g/m*3 6.84 C 0 km/h
1717 20-10-2010 12:00:00 6.92 C 6.38 g/m*3 6.92 C 0 km/h
1718 20-10-2010 13:00:00 7.92 C 6.2 g/m*3 7.92 C 0 km/h
1719 20-10-2010 14:00:00 9.48 C 5.67 g/m*3 9.48 C 0 km/h
1720 20-10-2010 15:00:00 7.68 C 5.56 g/m*3 7.68 C 0 km/h
1721 20-10-2010 16:00:00 7.36 C 5.06 g/m*3 7.36 C 0 km/h
1722 20-10-2010 17:00:00 7.02 C 4.92 g/m*3 7.02 C 0 km/h
1723 20-10-2010 18:00:00 6.32 C 5.04 g/m*3 6.32 C 0 km/h
1724 20-10-2010 19:00:00 4.64 C 5.24 g/m*3 4.64 C 0 km/h
1725 20-10-2010 20:00:00 4.54 C 5.25 g/m*3 4.54 C 0 km/h
Sensor: Nr:Datum:Temp:Abs-Feuchte:Windchill:Wind:
Aussen-T/F 1726 20-10-2010 21:00:00 4.46 C 5.11 g/m*3 4.46 C 0 km/h
1727 20-10-2010 22:00:00 4.48 C 5.07 g/m*3 4.48 C 0 km/h
1728 20-10-2010 23:00:00 4.32 C 5.05 g/m*3 4.32 C 0 km/h
1729 21-10-2010 00:00:00 4.6 C 5.11 g/m*3 4.6 C 0 km/h
1730 21-10-2010 01:00:00 4.44 C 5.04 g/m*3 4.44 C 0 km/h
1731 21-10-2010 02:00:00 3.74 C 4.97 g/m*3 3.74 C 0 km/h
1732 21-10-2010 03:00:00 3.32 C 4.98 g/m*3 3.32 C 0 km/h
1733 21-10-2010 04:00:00 2.64 C 4.9 g/m*3 2.64 C 0 km/h
1734 21-10-2010 05:00:00 1.92 C 4.82 g/m*3 1.92 C 0 km/h
1735 21-10-2010 06:00:00 1.7 C 4.9 g/m*3 1.7 C 0 km/h
1736 21-10-2010 07:00:00 1.66 C 5 g/m*3 1.66 C 0 km/h
1737 21-10-2010 08:00:00 2.1 C 5.14 g/m*3 2.1 C 0 km/h
1738 21-10-2010 09:00:00 3 C 5.24 g/m*3 3 C 0 km/h
1739 21-10-2010 10:00:00 4.16 C 5.06 g/m*3 4.16 C 0 km/h
1740 21-10-2010 11:00:00 5.64 C 4.99 g/m*3 5.64 C 0 km/h
1741 21-10-2010 12:00:00 6.98 C 4.63 g/m*3 6.98 C 0 km/h
1742 21-10-2010 13:00:00 8.7 C 4.13 g/m*3 8.7 C 0 km/h
1743 21-10-2010 14:00:00 10.38 C 3.87 g/m*3 10.38 C 0 km/h
1744 21-10-2010 15:00:00 10.66 C 3.63 g/m*3 10.66 C 0 km/h
1745 21-10-2010 16:00:00 10.4 C 3.64 g/m*3 10.4 C 0 km/h
1746 21-10-2010 17:00:00 10.96 C 3.55 g/m*3 10.96 C 0 km/h
1747 21-10-2010 18:00:00 7.38 C 3.99 g/m*3 7.38 C 0 km/h
1748 21-10-2010 19:00:00 5.64 C 4.05 g/m*3 5.64 C 0 km/h
1749 21-10-2010 20:00:00 4.86 C 3.96 g/m*3 4.86 C 0 km/h
1750 21-10-2010 21:00:00 4.62 C 3.74 g/m*3 4.62 C 0 km/h
Sensor: Nr:Datum:Temp:Abs-Feuchte:Windchill:Wind:
Aussen-T/F 1751 21-10-2010 22:00:00 3.84 C 3.84 g/m*3 3.84 C 0 km/h
1752 21-10-2010 23:00:00 3.14 C 3.89 g/m*3 3.14 C 0 km/h
1753 22-10-2010 00:00:00 2.38 C 4.06 g/m*3 2.38 C 0 km/h
1754 22-10-2010 01:00:00 1.74 C 4.11 g/m*3 1.74 C 0 km/h
1755 22-10-2010 02:00:00 2.12 C 4.09 g/m*3 2.12 C 0 km/h
1756 22-10-2010 03:00:00 2.16 C 4.08 g/m*3 2.16 C 0 km/h
1757 22-10-2010 04:00:00 1.48 C 4.09 g/m*3 1.48 C 0 km/h
1758 22-10-2010 05:00:00 1.38 C 4.11 g/m*3 1.38 C 0 km/h
1759 22-10-2010 06:00:00 1.66 C 4.06 g/m*3 1.66 C 0 km/h
1760 22-10-2010 07:00:00 0.94 C 3.98 g/m*3 0.94 C 0 km/h
1761 22-10-2010 08:00:00 1.28 C 4.04 g/m*3 1.28 C 0 km/h
1762 22-10-2010 09:00:00 2.06 C 4.3 g/m*3 2.06 C 0 km/h
1763 22-10-2010 10:00:00 4.3 C 4.23 g/m*3 4.3 C 0 km/h
1764 22-10-2010 11:00:00 5.36 C 3.94 g/m*3 5.36 C 0 km/h
1765 22-10-2010 12:00:00 6.56 C 3.9 g/m*3 6.56 C 0 km/h
1766 22-10-2010 13:00:00 7.18 C 3.89 g/m*3 7.18 C 0 km/h
1767 22-10-2010 14:00:00 7.36 C 3.87 g/m*3 7.36 C 0 km/h
1768 22-10-2010 15:00:00 7.22 C 3.82 g/m*3 7.22 C 0 km/h
1769 22-10-2010 16:00:00 7.42 C 4.33 g/m*3 7.42 C 0 km/h
1770 22-10-2010 17:00:00 7.22 C 4.28 g/m*3 7.22 C 0 km/h
1771 22-10-2010 18:00:00 6.18 C 4.1 g/m*3 6.18 C 0 km/h
1772 22-10-2010 19:00:00 6.2 C 3.69 g/m*3 6.2 C 0 km/h
1773 22-10-2010 20:00:00 6.02 C 3.82 g/m*3 6.02 C 0 km/h
1774 22-10-2010 21:00:00 5.72 C 3.9 g/m*3 5.72 C 0 km/h
1775 22-10-2010 22:00:00 4.14 C 4.09 g/m*3 4.14 C 0 km/h
Sensor: Nr:Datum:Temp:Abs-Feuchte:Windchill:Wind:
Aussen-T/F 1776 22-10-2010 23:00:00 2.76 C 4.31 g/m*3 2.76 C 0 km/h
1777 23-10-2010 00:00:00 1.7 C 4.3 g/m*3 1.7 C 0 km/h
1778 23-10-2010 01:00:00 1.08 C 4.29 g/m*3 1.08 C 0 km/h
1779 23-10-2010 02:00:00 0.54 C 4.24 g/m*3 0.54 C 0 km/h
1780 23-10-2010 03:00:00 0.1 C 4.19 g/m*3 0.1 C 0 km/h
1781 23-10-2010 04:00:00 -0.34 C 4.14 g/m*3 -0.34 C 0 km/h
1782 23-10-2010 05:00:00 -0.82 C 4.03 g/m*3 -0.82 C 0 km/h
1783 23-10-2010 06:00:00 -1.04 C 4 g/m*3 -1.04 C 0 km/h
1784 23-10-2010 07:00:00 -0.86 C 4.09 g/m*3 -0.86 C 0 km/h
1785 23-10-2010 08:00:00 -0.78 C 4.18 g/m*3 -0.78 C 0 km/h
1786 23-10-2010 09:00:00 -0.82 C 4.14 g/m*3 -0.82 C 0 km/h
1787 23-10-2010 10:00:00 1.06 C 4.78 g/m*3 1.06 C 0 km/h
1788 23-10-2010 11:00:00 4.08 C 5.33 g/m*3 4.08 C 0 km/h
1789 23-10-2010 12:00:00 6.64 C 5.16 g/m*3 6.64 C 0 km/h
1790 23-10-2010 13:00:00 8.56 C 4.97 g/m*3 8.56 C 0 km/h
1791 23-10-2010 14:00:00 9.08 C 4.25 g/m*3 9.08 C 0 km/h
1792 23-10-2010 15:00:00 8.42 C 4.64 g/m*3 8.42 C 0 km/h
1793 23-10-2010 16:00:00 7.92 C 4.93 g/m*3 7.92 C 0 km/h
1794 23-10-2010 17:00:00 7.88 C 5.35 g/m*3 7.88 C 0 km/h
1795 23-10-2010 18:00:00 8.04 C 5.49 g/m*3 8.04 C 0 km/h
1796 23-10-2010 19:00:00 8.56 C 5.16 g/m*3 8.56 C 0 km/h
1797 23-10-2010 20:00:00 9.14 C 5.27 g/m*3 9.14 C 0 km/h
1798 23-10-2010 21:00:00 9.26 C 5.77 g/m*3 9.26 C 0 km/h
1799 23-10-2010 22:00:00 9.375 C 5.85 g/m*3 9.38 C 0 km/h
1800 23-10-2010 23:00:00 9.32 C 5.67 g/m*3 9.32 C 0 km/h
Sensor: Nr:Datum:Temp:Abs-Feuchte:Windchill:Wind:
Aussen-T/F 1801 24-10-2010 00:00:00 9.02 C 5.74 g/m*3 9.02 C 0 km/h
1802 24-10-2010 01:00:00 8.98 C 5.85 g/m*3 8.98 C 0 km/h
1803 24-10-2010 02:00:00 8.46 C 6.28 g/m*3 8.46 C 0 km/h
1804 24-10-2010 03:00:00 8.46 C 6.3 g/m*3 8.46 C 0 km/h
1805 24-10-2010 04:00:00 8.66 C 6.02 g/m*3 8.66 C 0 km/h
1806 24-10-2010 05:00:00 8.5 C 5.98 g/m*3 8.5 C 0 km/h
1807 24-10-2010 06:00:00 7.98 C 6.24 g/m*3 7.98 C 0 km/h
1808 24-10-2010 07:00:00 7.06 C 6.72 g/m*3 7.06 C 0 km/h
1809 24-10-2010 08:00:00 6.96 C 6.91 g/m*3 6.96 C 0 km/h
1810 24-10-2010 09:00:00 7.14 C 7.02 g/m*3 7.14 C 0 km/h
1811 24-10-2010 10:00:00 7 C 6.65 g/m*3 7 C 0 km/h
1812 24-10-2010 11:00:00 8.3 C 5.85 g/m*3 8.3 C 0 km/h
1813 24-10-2010 12:00:00 9.36 C 4.75 g/m*3 9.36 C 0 km/h
1814 24-10-2010 13:00:00 10.46 C 4.6 g/m*3 10.46 C 0 km/h
1815 24-10-2010 14:00:00 11.62 C 4.29 g/m*3 11.62 C 0 km/h
1816 24-10-2010 15:00:00 12.3 C 4.23 g/m*3 12.3 C 0 km/h
1817 24-10-2010 16:00:00 13.04 C 3.75 g/m*3 13.04 C 0 km/h
1818 24-10-2010 17:00:00 12.02 C 4.01 g/m*3 12.02 C 0 km/h
1819 24-10-2010 18:00:00 9.56 C 4.75 g/m*3 9.56 C 0 km/h
1820 24-10-2010 19:00:00 7.42 C 5.14 g/m*3 7.42 C 0 km/h
1821 24-10-2010 20:00:00 6.48 C 5.18 g/m*3 6.48 C 0 km/h
1822 24-10-2010 21:00:00 6.12 C 5.38 g/m*3 6.12 C 0 km/h
1823 24-10-2010 22:00:00 5.62 C 5.56 g/m*3 5.62 C 0 km/h
1824 24-10-2010 23:00:00 4.84 C 5.49 g/m*3 4.84 C 0 km/h
1825 25-10-2010 00:00:00 4.8 C 5.7 g/m*3 4.8 C 0 km/h
Sensor: Nr:Datum:Temp:Abs-Feuchte:Windchill:Wind:
Aussen-T/F 1826 25-10-2010 01:00:00 4.5 C 5.65 g/m*3 4.5 C 0 km/h
1827 25-10-2010 02:00:00 4.42 C 5.69 g/m*3 4.42 C 0 km/h
1828 25-10-2010 03:00:00 4.62 C 5.76 g/m*3 4.62 C 0 km/h
1829 25-10-2010 04:00:00 5.1 C 5.73 g/m*3 5.1 C 0 km/h
1830 25-10-2010 05:00:00 5.1 C 5.62 g/m*3 5.1 C 0 km/h
1831 25-10-2010 06:00:00 5.04 C 5.55 g/m*3 5.04 C 0 km/h
1832 25-10-2010 07:00:00 4.86 C 5.51 g/m*3 4.86 C 0 km/h
1833 25-10-2010 08:00:00 4.9 C 5.52 g/m*3 4.9 C 0 km/h
1834 25-10-2010 09:00:00 5.06 C 5.47 g/m*3 5.06 C 0 km/h
1835 25-10-2010 10:00:00 5.8 C 5.5 g/m*3 5.8 C 0 km/h
1836 25-10-2010 11:00:00 6.54 C 5.44 g/m*3 6.54 C 0 km/h
1837 25-10-2010 12:00:00 7.84 C 5.3 g/m*3 7.84 C 0 km/h
1838 25-10-2010 13:00:00 8.74 C 5.12 g/m*3 8.74 C 0 km/h
1839 25-10-2010 14:00:00 10.1 C 4.63 g/m*3 10.1 C 0 km/h
1840 25-10-2010 15:00:00 10.4 C 3.91 g/m*3 10.4 C 0 km/h
1841 25-10-2010 16:00:00 10.72 C 3.91 g/m*3 10.72 C 0 km/h
1842 25-10-2010 17:00:00 10.68 C 4.06 g/m*3 10.68 C 0 km/h
1843 25-10-2010 18:00:00 8.36 C 4.25 g/m*3 8.36 C 0 km/h
1844 25-10-2010 19:00:00 6.22 C 4.68 g/m*3 6.22 C 0 km/h
1845 25-10-2010 20:00:00 4.66 C 4.77 g/m*3 4.66 C 0 km/h
1846 25-10-2010 21:00:00 3.92 C 4.92 g/m*3 3.92 C 0 km/h
1847 25-10-2010 22:00:00 3 C 4.83 g/m*3 3 C 0 km/h
1848 25-10-2010 23:00:00 2.28 C 4.79 g/m*3 2.28 C 0 km/h
1849 26-10-2010 00:00:00 1.88 C 4.78 g/m*3 1.88 C 0 km/h
1850 26-10-2010 01:00:00 1.48 C 4.76 g/m*3 1.48 C 0 km/h
Sensor: Nr:Datum:Temp:Abs-Feuchte:Windchill:Wind:
Aussen-T/F 1851 26-10-2010 02:00:00 0.82 C 4.64 g/m*3 0.82 C 0 km/h
1852 26-10-2010 03:00:00 0.3 C 4.5 g/m*3 0.3 C 0 km/h
1853 26-10-2010 04:00:00 0.12 C 4.51 g/m*3 0.12 C 0 km/h
1854 26-10-2010 05:00:00 0.08 C 4.56 g/m*3 0.08 C 0 km/h
1855 26-10-2010 06:00:00 0.14 C 4.6 g/m*3 0.14 C 0 km/h
1856 26-10-2010 07:00:00 -0.32 C 4.45 g/m*3 -0.32 C 0 km/h
1857 26-10-2010 08:00:00 -0.42 C 4.42 g/m*3 -0.42 C 0 km/h
1858 26-10-2010 09:00:00 -0.36 C 4.44 g/m*3 -0.36 C 0 km/h
1859 26-10-2010 10:00:00 0.1 C 4.58 g/m*3 0.1 C 0 km/h
1860 26-10-2010 11:00:00 1.22 C 4.82 g/m*3 1.22 C 0 km/h
1861 26-10-2010 12:00:00 3.16 C 5.19 g/m*3 3.16 C 0 km/h
1862 26-10-2010 13:00:00 5.54 C 5.61 g/m*3 5.54 C 0 km/h
1863 26-10-2010 14:00:00 8.88 C 5.51 g/m*3 8.88 C 0 km/h
1864 26-10-2010 15:00:00 9.72 C 5.28 g/m*3 9.72 C 0 km/h
1865 26-10-2010 16:00:00 9.24 C 5.41 g/m*3 9.24 C 0 km/h
1866 26-10-2010 17:00:00 8.04 C 5.69 g/m*3 8.04 C 0 km/h
1867 26-10-2010 18:00:00 7.08 C 5.64 g/m*3 7.08 C 0 km/h
1868 26-10-2010 19:00:00 6.58 C 5.68 g/m*3 6.58 C 0 km/h
1869 26-10-2010 20:00:00 6.34 C 5.66 g/m*3 6.34 C 0 km/h
1870 26-10-2010 21:00:00 6.06 C 5.58 g/m*3 6.06 C 0 km/h
1871 26-10-2010 22:00:00 5.7 C 5.71 g/m*3 5.7 C 0 km/h
1872 26-10-2010 23:00:00 5.6 C 5.73 g/m*3 5.6 C 0 km/h
1873 27-10-2010 00:00:00 5.16 C 5.6 g/m*3 5.16 C 0 km/h
1874 27-10-2010 01:00:00 5.36 C 5.14 g/m*3 5.36 C 0 km/h
1875 27-10-2010 02:00:00 5.54 C 5.11 g/m*3 5.54 C 0 km/h
Sensor: Nr:Datum:Temp:Abs-Feuchte:Windchill:Wind:
Aussen-T/F 1876 27-10-2010 03:00:00 5.48 C 5.26 g/m*3 5.48 C 0 km/h
1877 27-10-2010 04:00:00 5.42 C 5.24 g/m*3 5.42 C 0 km/h
1878 27-10-2010 05:00:00 5.64 C 5.16 g/m*3 5.64 C 0 km/h
1879 27-10-2010 06:00:00 5.68 C 5.22 g/m*3 5.68 C 0 km/h
1880 27-10-2010 07:00:00 5.76 C 5.16 g/m*3 5.76 C 0 km/h
1881 27-10-2010 08:00:00 5.68 C 5.09 g/m*3 5.68 C 0 km/h
1882 27-10-2010 09:00:00 5.84 C 5.65 g/m*3 5.84 C 0 km/h
1883 27-10-2010 10:00:00 7 C 5.8 g/m*3 7 C 0 km/h
1884 27-10-2010 11:00:00 8.22 C 5.45 g/m*3 8.22 C 0 km/h
1885 27-10-2010 12:00:00 9.62 C 4.46 g/m*3 9.62 C 0 km/h
1886 27-10-2010 13:00:00 10.92 C 3.84 g/m*3 10.92 C 0 km/h
1887 27-10-2010 14:00:00 11.06 C 3.64 g/m*3 11.06 C 0 km/h
1888 27-10-2010 15:00:00 11.56 C 3.55 g/m*3 11.56 C 0 km/h
1889 27-10-2010 16:00:00 11.98 C 3.43 g/m*3 11.98 C 0 km/h
1890 27-10-2010 17:00:00 11.6 C 3.55 g/m*3 11.6 C 0 km/h
1891 27-10-2010 18:00:00 10.44 C 4.27 g/m*3 10.44 C 0 km/h
1892 27-10-2010 19:00:00 10.04 C 4.41 g/m*3 10.04 C 0 km/h
1893 27-10-2010 20:00:00 9.8 C 4.42 g/m*3 9.8 C 0 km/h
1894 27-10-2010 21:00:00 9.56 C 4.71 g/m*3 9.56 C 0 km/h
1895 27-10-2010 22:00:00 9.2 C 4.89 g/m*3 9.2 C 0 km/h
1896 27-10-2010 23:00:00 9.02 C 4.86 g/m*3 9.02 C 0 km/h
1897 28-10-2010 00:00:00 8.66 C 4.87 g/m*3 8.66 C 0 km/h
1898 28-10-2010 01:00:00 8.46 C 4.91 g/m*3 8.46 C 0 km/h
1899 28-10-2010 02:00:00 8.06 C 5.05 g/m*3 8.06 C 0 km/h
1900 28-10-2010 03:00:00 7.62 C 4.86 g/m*3 7.62 C 0 km/h
Sensor: Nr:Datum:Temp:Abs-Feuchte:Windchill:Wind:
Aussen-T/F 1901 28-10-2010 04:00:00 7.66 C 5.06 g/m*3 7.66 C 0 km/h
1902 28-10-2010 05:00:00 7.52 C 5.05 g/m*3 7.52 C 0 km/h
1903 28-10-2010 06:00:00 7.98 C 4.41 g/m*3 7.98 C 0 km/h
1904 28-10-2010 07:00:00 8.48 C 4.31 g/m*3 8.48 C 0 km/h
1905 28-10-2010 08:00:00 8.7 C 4.67 g/m*3 8.7 C 0 km/h
1906 28-10-2010 09:00:00 8.86 C 4.91 g/m*3 8.86 C 0 km/h
1907 28-10-2010 10:00:00 7.9 C 6.09 g/m*3 7.9 C 0 km/h
1908 28-10-2010 11:00:00 9.7 C 5.97 g/m*3 9.7 C 0 km/h
1909 28-10-2010 12:00:00 10.72 C 5.78 g/m*3 10.72 C 0 km/h
1910 28-10-2010 13:00:00 11.34 C 5.69 g/m*3 11.34 C 0 km/h
1911 28-10-2010 14:00:00 12.3 C 5.67 g/m*3 12.3 C 0 km/h
1912 28-10-2010 15:00:00 12.72 C 5.66 g/m*3 12.72 C 0 km/h
1913 28-10-2010 16:00:00 11.62 C 6.12 g/m*3 11.62 C 0 km/h
1914 28-10-2010 17:00:00 11.08 C 6.14 g/m*3 11.08 C 0 km/h
1915 28-10-2010 18:00:00 9.86 C 6.13 g/m*3 9.86 C 0 km/h
1916 28-10-2010 19:00:00 9.18 C 6.22 g/m*3 9.18 C 0 km/h
1917 28-10-2010 20:00:00 9 C 6.24 g/m*3 9 C 0 km/h
1918 28-10-2010 21:00:00 8.38 C 6.3 g/m*3 8.38 C 0 km/h
1919 28-10-2010 22:00:00 7.56 C 6.36 g/m*3 7.56 C 0 km/h
1920 28-10-2010 23:00:00 6.78 C 6.32 g/m*3 6.78 C 0 km/h
1921 29-10-2010 00:00:00 6.26 C 6.26 g/m*3 6.26 C 0 km/h
1922 29-10-2010 01:00:00 6.28 C 6.4 g/m*3 6.28 C 0 km/h
1923 29-10-2010 02:00:00 6.46 C 6.57 g/m*3 6.46 C 0 km/h
1924 29-10-2010 03:00:00 7.23333 C 6.82 g/m*3 7.23 C 0 km/h
1925 02-11-2010 08:00:00 8.77778 C 6.98 g/m*3 8.78 C 0 km/h
Sensor: Nr:Datum:Temp:Abs-Feuchte:Windchill:Wind:
Aussen-T/F 1926 02-11-2010 09:00:00 9.9 C 6.85 g/m*3 9.9 C 0 km/h
1927 02-11-2010 10:00:00 11.04 C 6.74 g/m*3 11.04 C 0 km/h
1928 02-11-2010 11:00:00 11.88 C 6.43 g/m*3 11.88 C 0 km/h
1929 02-11-2010 12:00:00 12.52 C 6.49 g/m*3 12.52 C 0 km/h
1930 02-11-2010 13:00:00 12.72 C 6.33 g/m*3 12.72 C 0 km/h
1931 02-11-2010 14:00:00 12.8 C 6.36 g/m*3 12.8 C 0 km/h
1932 02-11-2010 15:00:00 12.92 C 6.39 g/m*3 12.92 C 0 km/h
1933 02-11-2010 16:00:00 12.34 C 6.44 g/m*3 12.34 C 0 km/h
1934 02-11-2010 17:00:00 11.34 C 6.61 g/m*3 11.34 C 0 km/h
1935 02-11-2010 18:00:00 11.22 C 6.66 g/m*3 11.22 C 0 km/h
1936 02-11-2010 19:00:00 11.46 C 6.66 g/m*3 11.46 C 0 km/h
1937 02-11-2010 20:00:00 11 C 7.01 g/m*3 11 C 0 km/h
1938 02-11-2010 21:00:00 10.94 C 7.18 g/m*3 10.94 C 0 km/h
1939 02-11-2010 22:00:00 11.08 C 7.42 g/m*3 11.08 C 0 km/h
1940 02-11-2010 23:00:00 11.14 C 7.57 g/m*3 11.14 C 0 km/h
1941 03-11-2010 00:00:00 11.32 C 7.66 g/m*3 11.32 C 0 km/h
1942 03-11-2010 01:00:00 10.88 C 7.49 g/m*3 10.88 C 0 km/h
1943 03-11-2010 02:00:00 11.68 C 7.56 g/m*3 11.68 C 0 km/h
1944 03-11-2010 03:00:00 12.06 C 7.34 g/m*3 12.06 C 0 km/h
1945 03-11-2010 04:00:00 12.44 C 7.47 g/m*3 12.44 C 0 km/h
1946 03-11-2010 05:00:00 12.72 C 7.49 g/m*3 12.72 C 0 km/h
1947 03-11-2010 06:00:00 12.66 C 7.62 g/m*3 12.66 C 0 km/h
1948 03-11-2010 07:00:00 12.76 C 7.66 g/m*3 12.76 C 0 km/h
1949 03-11-2010 08:00:00 13.28 C 7.57 g/m*3 13.28 C 0 km/h
1950 03-11-2010 09:00:00 13.78 C 7.64 g/m*3 13.78 C 0 km/h
Sensor: Nr:Datum:Temp:Abs-Feuchte:Windchill:Wind:
Aussen-T/F 1951 03-11-2010 10:00:00 14.2 C 7.55 g/m*3 14.2 C 0 km/h
1952 03-11-2010 11:00:00 14.42 C 7.65 g/m*3 14.42 C 0 km/h
1953 03-11-2010 12:00:00 13.94 C 7.74 g/m*3 13.94 C 0 km/h
1954 03-11-2010 13:00:00 13.54 C 7.83 g/m*3 13.54 C 0 km/h
1955 03-11-2010 14:00:00 13.66 C 7.94 g/m*3 13.66 C 0 km/h
1956 03-11-2010 15:00:00 13.78 C 8.07 g/m*3 13.78 C 0 km/h
1957 03-11-2010 16:00:00 13.46 C 8.1 g/m*3 13.46 C 0 km/h
1958 03-11-2010 17:00:00 13.06 C 8.2 g/m*3 13.06 C 0 km/h
1959 03-11-2010 18:00:00 12.66 C 8.31 g/m*3 12.66 C 0 km/h
1960 03-11-2010 19:00:00 12.96 C 8.26 g/m*3 12.96 C 0 km/h
1961 03-11-2010 20:00:00 13.38 C 8.2 g/m*3 13.38 C 0 km/h
1962 03-11-2010 21:00:00 13.54 C 8.16 g/m*3 13.54 C 0 km/h
1963 03-11-2010 22:00:00 14.1 C 8.16 g/m*3 14.1 C 0 km/h
1964 03-11-2010 23:00:00 14.2 C 8.4 g/m*3 14.2 C 0 km/h
1965 04-11-2010 00:00:00 14.3 C 8.77 g/m*3 14.3 C 0 km/h
1966 04-11-2010 01:00:00 14.74 C 9.06 g/m*3 14.74 C 0 km/h
1967 04-11-2010 02:00:00 14.96 C 9.06 g/m*3 14.96 C 0 km/h
1968 04-11-2010 03:00:00 15.16 C 9.12 g/m*3 15.16 C 0 km/h
1969 04-11-2010 04:00:00 15.22 C 9.3 g/m*3 15.22 C 0 km/h
1970 04-11-2010 05:00:00 15.54 C 9.41 g/m*3 15.54 C 0 km/h
1971 04-11-2010 06:00:00 15.7 C 9.61 g/m*3 15.7 C 0 km/h
1972 04-11-2010 07:00:00 15.92 C 9.52 g/m*3 15.92 C 0 km/h
1973 04-11-2010 08:00:00 16.2 C 9.43 g/m*3 16.2 C 0 km/h
1974 04-11-2010 09:00:00 16.64 C 9.06 g/m*3 16.64 C 0 km/h
1975 04-11-2010 10:00:00 17.24 C 8.84 g/m*3 17.24 C 0 km/h
Sensor: Nr:Datum:Temp:Abs-Feuchte:Windchill:Wind:
Aussen-T/F 1976 04-11-2010 11:00:00 17.82 C 8.45 g/m*3 17.82 C 0 km/h
1977 04-11-2010 12:00:00 18.44 C 8.17 g/m*3 18.44 C 0 km/h
1978 04-11-2010 13:00:00 18.54 C 8.18 g/m*3 18.54 C 0 km/h
1979 04-11-2010 14:00:00 18.44 C 8.01 g/m*3 18.44 C 0 km/h
1980 04-11-2010 15:00:00 18.24 C 8.13 g/m*3 18.24 C 0 km/h
1981 04-11-2010 16:00:00 17.52 C 8.42 g/m*3 17.52 C 0 km/h
1982 04-11-2010 17:00:00 16.92 C 8.44 g/m*3 16.92 C 0 km/h
1983 04-11-2010 18:00:00 16.78 C 8.43 g/m*3 16.78 C 0 km/h
1984 04-11-2010 19:00:00 16.92 C 8.47 g/m*3 16.92 C 0 km/h
1985 04-11-2010 20:00:00 16.12 C 8.12 g/m*3 16.12 C 0 km/h
1986 04-11-2010 21:00:00 15.74 C 8.05 g/m*3 15.74 C 0 km/h
1987 04-11-2010 22:00:00 15.38 C 7.87 g/m*3 15.38 C 0 km/h
1988 04-11-2010 23:00:00 15.4 C 7.88 g/m*3 15.4 C 0 km/h
1989 05-11-2010 00:00:00 15.34 C 7.88 g/m*3 15.34 C 0 km/h
1990 05-11-2010 01:00:00 15.14 C 7.53 g/m*3 15.14 C 0 km/h
1991 05-11-2010 02:00:00 14.74 C 7.45 g/m*3 14.74 C 0 km/h
1992 05-11-2010 03:00:00 14.46 C 7.37 g/m*3 14.46 C 0 km/h
1993 05-11-2010 04:00:00 14.2 C 7.38 g/m*3 14.2 C 0 km/h
1994 05-11-2010 05:00:00 14.14 C 7.18 g/m*3 14.14 C 0 km/h
1995 05-11-2010 06:00:00 13.82 C 7.13 g/m*3 13.82 C 0 km/h
1996 05-11-2010 07:00:00 13.46 C 6.95 g/m*3 13.46 C 0 km/h
1997 05-11-2010 08:00:00 13.88 C 6.61 g/m*3 13.88 C 0 km/h
1998 05-11-2010 09:00:00 14.52 C 6.72 g/m*3 14.52 C 0 km/h
1999 05-11-2010 10:00:00 14.9 C 6.88 g/m*3 14.9 C 0 km/h
2000 05-11-2010 11:00:00 15.22 C 6.99 g/m*3 15.22 C 0 km/h
Sensor: Nr:Datum:Temp:Abs-Feuchte:Windchill:Wind:
Aussen-T/F 2001 05-11-2010 12:00:00 15.14 C 7.09 g/m*3 15.14 C 0 km/h
2002 05-11-2010 13:00:00 15.1 C 7.1 g/m*3 15.1 C 0 km/h
2003 05-11-2010 14:00:00 14.8 C 7.4 g/m*3 14.8 C 0 km/h
2004 05-11-2010 15:00:00 14.6 C 7.48 g/m*3 14.6 C 0 km/h
2005 05-11-2010 16:00:00 14.56 C 7.49 g/m*3 14.56 C 0 km/h
2006 05-11-2010 17:00:00 14.64 C 7.55 g/m*3 14.64 C 0 km/h
2007 05-11-2010 18:00:00 14.76 C 7.58 g/m*3 14.76 C 0 km/h
2008 05-11-2010 19:00:00 14.36 C 7.57 g/m*3 14.36 C 0 km/h
2009 05-11-2010 20:00:00 14.44 C 7.58 g/m*3 14.44 C 0 km/h
2010 05-11-2010 21:00:00 14.28 C 7.61 g/m*3 14.28 C 0 km/h
2011 05-11-2010 22:00:00 14.02 C 7.58 g/m*3 14.02 C 0 km/h
2012 05-11-2010 23:00:00 13.94 C 7.57 g/m*3 13.94 C 0 km/h
2013 06-11-2010 00:00:00 14.04 C 7.57 g/m*3 14.04 C 0 km/h
2014 06-11-2010 01:00:00 14.02 C 7.61 g/m*3 14.02 C 0 km/h
2015 06-11-2010 02:00:00 13.38 C 7.69 g/m*3 13.38 C 0 km/h
2016 06-11-2010 03:00:00 12.9 C 7.98 g/m*3 12.9 C 0 km/h
2017 06-11-2010 04:00:00 12.78 C 8.12 g/m*3 12.78 C 0 km/h
2018 06-11-2010 05:00:00 13.12 C 8 g/m*3 13.12 C 0 km/h
2019 06-11-2010 06:00:00 13.46 C 7.86 g/m*3 13.46 C 0 km/h
2020 06-11-2010 07:00:00 13.48 C 7.57 g/m*3 13.48 C 0 km/h
2021 06-11-2010 08:00:00 13.34 C 7.5 g/m*3 13.34 C 0 km/h
2022 06-11-2010 09:00:00 11.92 C 7.55 g/m*3 11.92 C 0 km/h
2023 06-11-2010 10:00:00 10.18 C 7.93 g/m*3 10.18 C 0 km/h
2024 06-11-2010 11:00:00 10.58 C 8.19 g/m*3 10.58 C 0 km/h
2025 06-11-2010 12:00:00 9.78 C 7.67 g/m*3 9.78 C 0 km/h
Sensor: Nr:Datum:Temp:Abs-Feuchte:Windchill:Wind:
Aussen-T/F 2026 06-11-2010 13:00:00 9.08 C 7.46 g/m*3 9.08 C 0 km/h
2027 06-11-2010 14:00:00 8.92 C 7.67 g/m*3 8.92 C 0 km/h
2028 06-11-2010 15:00:00 8.64 C 7.67 g/m*3 8.64 C 0 km/h
2029 06-11-2010 16:00:00 8.2 C 7.54 g/m*3 8.2 C 0 km/h
2030 06-11-2010 17:00:00 7.84 C 7.49 g/m*3 7.84 C 0 km/h
2031 06-11-2010 18:00:00 7.44 C 7.34 g/m*3 7.44 C 0 km/h
2032 06-11-2010 19:00:00 7.42 C 7.41 g/m*3 7.42 C 0 km/h
2033 06-11-2010 20:00:00 7.2 C 7.3 g/m*3 7.2 C 0 km/h
2034 06-11-2010 21:00:00 7.26 C 7.33 g/m*3 7.26 C 0 km/h
2035 06-11-2010 22:00:00 7.48 C 7.43 g/m*3 7.48 C 0 km/h
2036 06-11-2010 23:00:00 7.36 C 7.38 g/m*3 7.36 C 0 km/h
2037 07-11-2010 00:00:00 7.22 C 7.31 g/m*3 7.22 C 0 km/h
2038 07-11-2010 01:00:00 7.18 C 7.29 g/m*3 7.18 C 0 km/h
2039 07-11-2010 02:00:00 6.98 C 7.24 g/m*3 6.98 C 0 km/h
2040 07-11-2010 03:00:00 7.3 C 7.4 g/m*3 7.3 C 0 km/h
2041 07-11-2010 04:00:00 7.18 C 7.34 g/m*3 7.18 C 0 km/h
2042 07-11-2010 05:00:00 6.8 C 7.19 g/m*3 6.8 C 0 km/h
2043 07-11-2010 06:00:00 6.48 C 7.04 g/m*3 6.48 C 0 km/h
2044 07-11-2010 07:00:00 6.7 C 7.14 g/m*3 6.7 C 0 km/h
2045 07-11-2010 08:00:00 7.16 C 7.28 g/m*3 7.16 C 0 km/h
2046 07-11-2010 09:00:00 7.46 C 7.47 g/m*3 7.46 C 0 km/h
2047 07-11-2010 10:00:00 7.82 C 7.68 g/m*3 7.82 C 0 km/h
2048 07-11-2010 11:00:00 8.06 C 7.67 g/m*3 8.06 C 0 km/h
2049 07-11-2010 12:00:00 8.74 C 7.87 g/m*3 8.74 C 0 km/h
2050 07-11-2010 13:00:00 8.48 C 7.5 g/m*3 8.48 C 0 km/h
Sensor: Nr:Datum:Temp:Abs-Feuchte:Windchill:Wind:
Aussen-T/F 2051 07-11-2010 14:00:00 8.22 C 7.43 g/m*3 8.22 C 0 km/h
2052 07-11-2010 15:00:00 7.5 C 7.17 g/m*3 7.5 C 0 km/h
2053 07-11-2010 16:00:00 6.82 C 6.97 g/m*3 6.82 C 0 km/h
2054 07-11-2010 17:00:00 6.76 C 7.02 g/m*3 6.76 C 0 km/h
2055 07-11-2010 18:00:00 6.58 C 6.94 g/m*3 6.58 C 0 km/h
2056 07-11-2010 19:00:00 5.72 C 6.61 g/m*3 5.72 C 0 km/h
2057 07-11-2010 20:00:00 5.18 C 6.4 g/m*3 5.18 C 0 km/h
2058 07-11-2010 21:00:00 4.98 C 6.32 g/m*3 4.98 C 0 km/h
2059 07-11-2010 22:00:00 4.9 C 6.32 g/m*3 4.9 C 0 km/h
2060 07-11-2010 23:00:00 4.64 C 6.22 g/m*3 4.64 C 0 km/h
2061 08-11-2010 00:00:00 4.04 C 5.95 g/m*3 4.04 C 0 km/h
2062 08-11-2010 01:00:00 4.12 C 5.97 g/m*3 4.12 C 0 km/h
2063 08-11-2010 02:00:00 4.04 C 5.97 g/m*3 4.04 C 0 km/h
2064 08-11-2010 03:00:00 4.46 C 6.16 g/m*3 4.46 C 0 km/h
2065 08-11-2010 04:00:00 4.4 C 6.14 g/m*3 4.4 C 0 km/h
2066 08-11-2010 05:00:00 4.6 C 6.22 g/m*3 4.6 C 0 km/h
2067 08-11-2010 06:00:00 4.86 C 6.33 g/m*3 4.86 C 0 km/h
2068 08-11-2010 07:00:00 4.74 C 6.26 g/m*3 4.74 C 0 km/h
2069 08-11-2010 08:00:00 4.96 C 6.34 g/m*3 4.96 C 0 km/h
2070 08-11-2010 09:00:00 5.84 C 6.58 g/m*3 5.84 C 0 km/h
2071 08-11-2010 10:00:00 7.08 C 6.5 g/m*3 7.08 C 0 km/h
2072 08-11-2010 11:00:00 7.26 C 5.75 g/m*3 7.26 C 0 km/h
2073 08-11-2010 12:00:00 6.78 C 5.3 g/m*3 6.78 C 0 km/h
2074 08-11-2010 13:00:00 7.24 C 5.15 g/m*3 7.24 C 0 km/h
2075 08-11-2010 14:00:00 6.88 C 4.74 g/m*3 6.88 C 0 km/h
Sensor: Nr:Datum:Temp:Abs-Feuchte:Windchill:Wind:
Aussen-T/F 2076 08-11-2010 15:00:00 5.6 C 4.67 g/m*3 5.6 C 0 km/h
2077 08-11-2010 16:00:00 2.98 C 4.87 g/m*3 2.98 C 0 km/h
2078 08-11-2010 17:00:00 2.08 C 4.85 g/m*3 2.08 C 0 km/h
2079 08-11-2010 18:00:00 1.46 C 4.79 g/m*3 1.46 C 0 km/h
2080 08-11-2010 19:00:00 2.26 C 5.11 g/m*3 2.26 C 0 km/h
2081 08-11-2010 20:00:00 3.5 C 5.42 g/m*3 3.5 C 0 km/h
2082 08-11-2010 21:00:00 3.9 C 5.56 g/m*3 3.9 C 0 km/h
2083 08-11-2010 22:00:00 4.22 C 5.72 g/m*3 4.22 C 0 km/h
2084 08-11-2010 23:00:00 4.44 C 5.62 g/m*3 4.44 C 0 km/h
2085 09-11-2010 00:00:00 4.24 C 5.65 g/m*3 4.24 C 0 km/h
2086 09-11-2010 01:00:00 4.2 C 5.73 g/m*3 4.2 C 0 km/h
2087 09-11-2010 02:00:00 4.2 C 5.79 g/m*3 4.2 C 0 km/h
2088 09-11-2010 03:00:00 4.46 C 5.97 g/m*3 4.46 C 0 km/h
2089 09-11-2010 04:00:00 4.44 C 5.96 g/m*3 4.44 C 0 km/h
2090 09-11-2010 05:00:00 4.74 C 6.08 g/m*3 4.74 C 0 km/h
2091 09-11-2010 06:00:00 5.1 C 6.16 g/m*3 5.1 C 0 km/h
2092 09-11-2010 07:00:00 5.58 C 6.24 g/m*3 5.58 C 0 km/h
2093 09-11-2010 08:00:00 6.42 C 6.09 g/m*3 6.42 C 0 km/h
2094 09-11-2010 09:00:00 6.9 C 6.1 g/m*3 6.9 C 0 km/h
2095 09-11-2010 10:00:00 7.9 C 6.26 g/m*3 7.9 C 0 km/h
2096 09-11-2010 11:00:00 9.16 C 6.29 g/m*3 9.16 C 0 km/h
2097 09-11-2010 12:00:00 9.52 C 6.43 g/m*3 9.52 C 0 km/h
2098 09-11-2010 13:00:00 9.66 C 6.47 g/m*3 9.66 C 0 km/h
2099 09-11-2010 14:00:00 8.86 C 6.85 g/m*3 8.86 C 0 km/h
2100 09-11-2010 15:00:00 8.42 C 7.07 g/m*3 8.42 C 0 km/h
Sensor: Nr:Datum:Temp:Abs-Feuchte:Windchill:Wind:
Aussen-T/F 2101 09-11-2010 16:00:00 7.92 C 7.19 g/m*3 7.92 C 0 km/h
2102 09-11-2010 17:00:00 7.3 C 7.05 g/m*3 7.3 C 0 km/h
2103 09-11-2010 18:00:00 6.64 C 6.83 g/m*3 6.64 C 0 km/h
2104 09-11-2010 19:00:00 6.86 C 7.02 g/m*3 6.86 C 0 km/h
2105 09-11-2010 20:00:00 6.78 C 7.03 g/m*3 6.78 C 0 km/h
2106 09-11-2010 21:00:00 6.84 C 7.05 g/m*3 6.84 C 0 km/h
2107 09-11-2010 22:00:00 6.78 C 7.03 g/m*3 6.78 C 0 km/h
2108 09-11-2010 23:00:00 6.84 C 7.05 g/m*3 6.84 C 0 km/h
2109 10-11-2010 00:00:00 6.56 C 6.93 g/m*3 6.56 C 0 km/h
2110 10-11-2010 01:00:00 6.92 C 7.14 g/m*3 6.92 C 0 km/h
2111 10-11-2010 02:00:00 6.9 C 7.14 g/m*3 6.9 C 0 km/h
2112 10-11-2010 03:00:00 7.1 C 7.18 g/m*3 7.1 C 0 km/h
2113 10-11-2010 04:00:00 6.88 C 7.12 g/m*3 6.88 C 0 km/h
2114 10-11-2010 05:00:00 6.9 C 7.13 g/m*3 6.9 C 0 km/h
2115 10-11-2010 06:00:00 6.82 C 7.09 g/m*3 6.82 C 0 km/h
2116 10-11-2010 07:00:00 6.34 C 6.87 g/m*3 6.34 C 0 km/h
2117 10-11-2010 08:00:00 6.72 C 7.05 g/m*3 6.72 C 0 km/h
2118 10-11-2010 09:00:00 8.22 C 7.56 g/m*3 8.22 C 0 km/h
2119 10-11-2010 10:00:00 9.6 C 6.93 g/m*3 9.6 C 0 km/h
2120 10-11-2010 11:00:00 9.64 C 6.48 g/m*3 9.64 C 0 km/h
2121 10-11-2010 12:00:00 10.18 C 6.48 g/m*3 10.18 C 0 km/h
2122 10-11-2010 13:00:00 11.08 C 6.16 g/m*3 11.08 C 0 km/h
2123 10-11-2010 14:00:00 10.52 C 6.02 g/m*3 10.52 C 0 km/h
2124 10-11-2010 15:00:00 7.86 C 6.41 g/m*3 7.86 C 0 km/h
2125 10-11-2010 16:00:00 6.24 C 6.18 g/m*3 6.24 C 0 km/h
Sensor: Nr:Datum:Temp:Abs-Feuchte:Windchill:Wind:
Aussen-T/F 2126 10-11-2010 17:00:00 5.94 C 5.81 g/m*3 5.94 C 0 km/h
2127 10-11-2010 18:00:00 5.22 C 5.67 g/m*3 5.22 C 0 km/h
2128 10-11-2010 19:00:00 5.2 C 5.63 g/m*3 5.2 C 0 km/h
2129 10-11-2010 20:00:00 5.34 C 5.5 g/m*3 5.34 C 0 km/h
2130 10-11-2010 21:00:00 4.46 C 5.52 g/m*3 4.46 C 0 km/h
2131 10-11-2010 22:00:00 4.55 C 5.59 g/m*3 4.55 C 0 km/h
2132 10-11-2010 23:00:00 4.3 C 5.34 g/m*3 4.3 C 0 km/h
2133 11-11-2010 00:00:00 4.6 C 5.29 g/m*3 4.6 C 0 km/h
2134 11-11-2010 01:00:00 4.5 C 5.44 g/m*3 4.5 C 0 km/h
2135 11-11-2010 02:00:00 5.02 C 5.42 g/m*3 5.02 C 0 km/h
2136 11-11-2010 03:00:00 4.84 C 5.23 g/m*3 4.84 C 0 km/h
2137 11-11-2010 04:00:00 4.3 C 5.24 g/m*3 4.3 C 0 km/h
2138 11-11-2010 05:00:00 4.12 C 5.2 g/m*3 4.12 C 0 km/h
2139 11-11-2010 06:00:00 3.7 C 5.01 g/m*3 3.7 C 0 km/h
2140 11-11-2010 07:00:00 3.56 C 4.98 g/m*3 3.56 C 0 km/h
2141 11-11-2010 08:00:00 2.32 C 4.71 g/m*3 2.32 C 0 km/h
2142 11-11-2010 09:00:00 3.66 C 5.28 g/m*3 3.66 C 0 km/h
2143 11-11-2010 10:00:00 5.58 C 4.59 g/m*3 5.58 C 0 km/h
2144 11-11-2010 11:00:00 6.94 C 3.78 g/m*3 6.94 C 0 km/h
2145 11-11-2010 12:00:00 7.46 C 3.98 g/m*3 7.46 C 0 km/h
2146 11-11-2010 13:00:00 7.7 C 4.15 g/m*3 7.7 C 0 km/h
2147 11-11-2010 14:00:00 7.36 C 4.24 g/m*3 7.36 C 0 km/h
2148 11-11-2010 15:00:00 6.8 C 4.45 g/m*3 6.8 C 0 km/h
2149 11-11-2010 16:00:00 5.54 C 5.08 g/m*3 5.54 C 0 km/h
2150 11-11-2010 17:00:00 5.28 C 5.48 g/m*3 5.28 C 0 km/h
Sensor: Nr:Datum:Temp:Abs-Feuchte:Windchill:Wind:
Aussen-T/F 2151 11-11-2010 18:00:00 5.64 C 5.87 g/m*3 5.64 C 0 km/h
2152 11-11-2010 19:00:00 6.22 C 6.27 g/m*3 6.22 C 0 km/h
2153 11-11-2010 20:00:00 7.5 C 6.34 g/m*3 7.5 C 0 km/h
2154 11-11-2010 21:00:00 8.44 C 6.57 g/m*3 8.44 C 0 km/h
2155 11-11-2010 22:00:00 9.34 C 7.23 g/m*3 9.34 C 0 km/h
2156 11-11-2010 23:00:00 9.78 C 7.69 g/m*3 9.78 C 0 km/h
2157 12-11-2010 00:00:00 9.74 C 6.82 g/m*3 9.74 C 0 km/h
2158 12-11-2010 01:00:00 9.84 C 5.93 g/m*3 9.84 C 0 km/h
2159 12-11-2010 02:00:00 9.88 C 5.63 g/m*3 9.88 C 0 km/h
2160 12-11-2010 03:00:00 9.6 C 5.81 g/m*3 9.6 C 0 km/h
2161 12-11-2010 04:00:00 9.8 C 5.6 g/m*3 9.8 C 0 km/h
2162 12-11-2010 05:00:00 9.94 C 5.77 g/m*3 9.94 C 0 km/h
2163 12-11-2010 06:00:00 10.62 C 5.77 g/m*3 10.62 C 0 km/h
2164 12-11-2010 07:00:00 10.62 C 5.8 g/m*3 10.62 C 0 km/h
2165 12-11-2010 08:00:00 10.7 C 5.81 g/m*3 10.7 C 0 km/h
2166 12-11-2010 09:00:00 10.84 C 5.85 g/m*3 10.84 C 0 km/h
2167 12-11-2010 10:00:00 10.7 C 6.11 g/m*3 10.7 C 0 km/h
2168 12-11-2010 11:00:00 11.42 C 6.08 g/m*3 11.42 C 0 km/h
2169 12-11-2010 12:00:00 11.88 C 5.99 g/m*3 11.88 C 0 km/h
2170 12-11-2010 13:00:00 11.64 C 6.29 g/m*3 11.64 C 0 km/h
2171 12-11-2010 14:00:00 11.6 C 6.55 g/m*3 11.6 C 0 km/h
2172 12-11-2010 15:00:00 11.6 C 6.57 g/m*3 11.6 C 0 km/h
2173 12-11-2010 16:00:00 11.54 C 6.73 g/m*3 11.54 C 0 km/h
2174 12-11-2010 17:00:00 11.16 C 7.2 g/m*3 11.16 C 0 km/h
2175 12-11-2010 18:00:00 10.48 C 7.73 g/m*3 10.48 C 0 km/h
Sensor: Nr:Datum:Temp:Abs-Feuchte:Windchill:Wind:
Aussen-T/F 2176 12-11-2010 19:00:00 10.52 C 8.29 g/m*3 10.52 C 0 km/h
2177 12-11-2010 20:00:00 11.52 C 8.77 g/m*3 11.52 C 0 km/h
2178 12-11-2010 21:00:00 12.16 C 9.28 g/m*3 12.16 C 0 km/h
2179 12-11-2010 22:00:00 13.3 C 9.22 g/m*3 13.3 C 0 km/h
2180 12-11-2010 23:00:00 13.88 C 8.69 g/m*3 13.88 C 0 km/h
2181 13-11-2010 00:00:00 13.82 C 8.85 g/m*3 13.82 C 0 km/h
2182 13-11-2010 01:00:00 13.86 C 9.06 g/m*3 13.86 C 0 km/h
2183 13-11-2010 02:00:00 13.78 C 9.28 g/m*3 13.78 C 0 km/h
2184 13-11-2010 03:00:00 14.2 C 9.33 g/m*3 14.2 C 0 km/h
2185 13-11-2010 04:00:00 14.14 C 9.25 g/m*3 14.14 C 0 km/h
2186 13-11-2010 05:00:00 14.5 C 9.1 g/m*3 14.5 C 0 km/h
2187 13-11-2010 06:00:00 14.62 C 9.05 g/m*3 14.62 C 0 km/h
2188 13-11-2010 07:00:00 14.72 C 9 g/m*3 14.72 C 0 km/h
2189 13-11-2010 08:00:00 14.72 C 9 g/m*3 14.72 C 0 km/h
2190 13-11-2010 09:00:00 14.18 C 9.15 g/m*3 14.18 C 0 km/h
2191 13-11-2010 10:00:00 14.32 C 9.23 g/m*3 14.32 C 0 km/h
2192 13-11-2010 11:00:00 14.76 C 9 g/m*3 14.76 C 0 km/h
2193 13-11-2010 12:00:00 14.8 C 8.84 g/m*3 14.8 C 0 km/h
2194 13-11-2010 13:00:00 14.76 C 8.85 g/m*3 14.76 C 0 km/h
2195 13-11-2010 14:00:00 14.78 C 8.68 g/m*3 14.78 C 0 km/h
2196 13-11-2010 15:00:00 14.82 C 8.55 g/m*3 14.82 C 0 km/h
2197 13-11-2010 16:00:00 14.68 C 8.68 g/m*3 14.68 C 0 km/h
2198 13-11-2010 17:00:00 14.26 C 8.75 g/m*3 14.26 C 0 km/h
2199 13-11-2010 18:00:00 14.68 C 8.7 g/m*3 14.68 C 0 km/h
2200 13-11-2010 19:00:00 14.94 C 8.51 g/m*3 14.94 C 0 km/h
Sensor: Nr:Datum:Temp:Abs-Feuchte:Windchill:Wind:
Aussen-T/F 2201 13-11-2010 20:00:00 15 C 8.28 g/m*3 15 C 0 km/h
2202 13-11-2010 21:00:00 14.52 C 8.39 g/m*3 14.52 C 0 km/h
2203 13-11-2010 22:00:00 14.86 C 8.11 g/m*3 14.86 C 0 km/h
2204 13-11-2010 23:00:00 14.74 C 8.05 g/m*3 14.74 C 0 km/h
2205 14-11-2010 00:00:00 15.08 C 8.07 g/m*3 15.08 C 0 km/h
2206 14-11-2010 01:00:00 14.24 C 8.27 g/m*3 14.24 C 0 km/h
2207 14-11-2010 02:00:00 13.58 C 8.7 g/m*3 13.58 C 0 km/h
2208 14-11-2010 03:00:00 14.36 C 8.39 g/m*3 14.36 C 0 km/h
2209 14-11-2010 04:00:00 14.02 C 8.38 g/m*3 14.02 C 0 km/h
2210 14-11-2010 05:00:00 13.9 C 8.46 g/m*3 13.9 C 0 km/h
2211 14-11-2010 06:00:00 13.42 C 8.36 g/m*3 13.42 C 0 km/h
2212 14-11-2010 07:00:00 11.92 C 8 g/m*3 11.92 C 0 km/h
2213 14-11-2010 08:00:00 12.66 C 7.53 g/m*3 12.66 C 0 km/h
2214 14-11-2010 09:00:00 14.28 C 7.24 g/m*3 14.28 C 0 km/h
2215 14-11-2010 10:00:00 15.02 C 7.22 g/m*3 15.02 C 0 km/h
2216 14-11-2010 11:00:00 15.44 C 7.22 g/m*3 15.44 C 0 km/h
2217 14-11-2010 12:00:00 16.16 C 7.4 g/m*3 16.16 C 0 km/h
2218 14-11-2010 13:00:00 17.46 C 7.44 g/m*3 17.46 C 0 km/h
2219 14-11-2010 14:00:00 17.64 C 7.25 g/m*3 17.64 C 0 km/h
2220 14-11-2010 15:00:00 17.7 C 7.12 g/m*3 17.7 C 0 km/h
2221 14-11-2010 16:00:00 15.72 C 7.64 g/m*3 15.72 C 0 km/h
2222 14-11-2010 17:00:00 14.74 C 8.13 g/m*3 14.74 C 0 km/h
2223 14-11-2010 18:00:00 14.16 C 8.02 g/m*3 14.16 C 0 km/h
2224 14-11-2010 19:00:00 13.96 C 7.89 g/m*3 13.96 C 0 km/h
2225 14-11-2010 20:00:00 14.02 C 7.68 g/m*3 14.02 C 0 km/h
Sensor: Nr:Datum:Temp:Abs-Feuchte:Windchill:Wind:
Aussen-T/F 2226 14-11-2010 21:00:00 13.92 C 7.27 g/m*3 13.92 C 0 km/h
2227 14-11-2010 22:00:00 13.78 C 7.09 g/m*3 13.78 C 0 km/h
2228 14-11-2010 23:00:00 13.42 C 6.94 g/m*3 13.42 C 0 km/h
2229 15-11-2010 00:00:00 12.88 C 6.98 g/m*3 12.88 C 0 km/h
2230 15-11-2010 01:00:00 12.22 C 6.91 g/m*3 12.22 C 0 km/h
2231 15-11-2010 02:00:00 11.78 C 6.92 g/m*3 11.78 C 0 km/h
2232 15-11-2010 03:00:00 10.9 C 7.02 g/m*3 10.9 C 0 km/h
2233 15-11-2010 04:00:00 10.24 C 6.95 g/m*3 10.24 C 0 km/h
2234 15-11-2010 05:00:00 9.92 C 6.53 g/m*3 9.92 C 0 km/h
2235 15-11-2010 06:00:00 9.34 C 6.27 g/m*3 9.34 C 0 km/h
2236 15-11-2010 07:00:00 8.96 C 6.42 g/m*3 8.96 C 0 km/h
2237 15-11-2010 08:00:00 9.1 C 6.28 g/m*3 9.1 C 0 km/h
2238 15-11-2010 09:00:00 9.16 C 6.07 g/m*3 9.16 C 0 km/h
2239 15-11-2010 10:00:00 9.82 C 5.87 g/m*3 9.82 C 0 km/h
2240 15-11-2010 11:00:00 10.3 C 5.75 g/m*3 10.3 C 0 km/h
2241 15-11-2010 12:00:00 10.84 C 5.57 g/m*3 10.84 C 0 km/h
2242 15-11-2010 13:00:00 10.48 C 5.62 g/m*3 10.48 C 0 km/h
2243 15-11-2010 14:00:00 10.24 C 5.5 g/m*3 10.24 C 0 km/h
2244 15-11-2010 15:00:00 9.68 C 5.54 g/m*3 9.68 C 0 km/h
2245 15-11-2010 16:00:00 8.96 C 5.7 g/m*3 8.96 C 0 km/h
2246 15-11-2010 17:00:00 8.16 C 5.81 g/m*3 8.16 C 0 km/h
2247 15-11-2010 18:00:00 8.14 C 5.89 g/m*3 8.14 C 0 km/h
2248 15-11-2010 19:00:00 7.98 C 5.88 g/m*3 7.98 C 0 km/h
2249 15-11-2010 20:00:00 7.6 C 5.95 g/m*3 7.6 C 0 km/h
2250 15-11-2010 21:00:00 7.16 C 5.93 g/m*3 7.16 C 0 km/h
Sensor: Nr:Datum:Temp:Abs-Feuchte:Windchill:Wind:
Aussen-T/F 2251 15-11-2010 22:00:00 6.94 C 5.97 g/m*3 6.94 C 0 km/h
2252 15-11-2010 23:00:00 6.68 C 5.99 g/m*3 6.68 C 0 km/h
2253 16-11-2010 00:00:00 5.88 C 5.95 g/m*3 5.88 C 0 km/h
2254 16-11-2010 01:00:00 5.2 C 5.87 g/m*3 5.2 C 0 km/h
2255 16-11-2010 02:00:00 5.48 C 6.1 g/m*3 5.48 C 0 km/h
2256 16-11-2010 03:00:00 5.86 C 6.21 g/m*3 5.86 C 0 km/h
2257 16-11-2010 04:00:00 5.22 C 5.97 g/m*3 5.22 C 0 km/h
2258 16-11-2010 05:00:00 5.5 C 6.07 g/m*3 5.5 C 0 km/h
2259 16-11-2010 06:00:00 5.22 C 5.83 g/m*3 5.22 C 0 km/h
2260 16-11-2010 07:00:00 5.18 C 5.79 g/m*3 5.18 C 0 km/h
2261 16-11-2010 08:00:00 5.42 C 5.83 g/m*3 5.42 C 0 km/h
2262 16-11-2010 09:00:00 5.88 C 5.82 g/m*3 5.88 C 0 km/h
2263 16-11-2010 10:00:00 6.26 C 5.74 g/m*3 6.26 C 0 km/h
2264 16-11-2010 11:00:00 6.56 C 5.65 g/m*3 6.56 C 0 km/h
2265 16-11-2010 12:00:00 7.34 C 5.53 g/m*3 7.34 C 0 km/h
2266 16-11-2010 13:00:00 7.54 C 5.59 g/m*3 7.54 C 0 km/h
2267 16-11-2010 14:00:00 7.68 C 5.52 g/m*3 7.68 C 0 km/h
2268 16-11-2010 15:00:00 7.24 C 5.51 g/m*3 7.24 C 0 km/h
2269 16-11-2010 16:00:00 7.08 C 5.53 g/m*3 7.08 C 0 km/h
2270 16-11-2010 17:00:00 6.8 C 5.64 g/m*3 6.8 C 0 km/h
2271 16-11-2010 18:00:00 6.22 C 5.67 g/m*3 6.22 C 0 km/h
2272 16-11-2010 19:00:00 5.92 C 5.75 g/m*3 5.92 C 0 km/h
2273 16-11-2010 20:00:00 5.56 C 5.71 g/m*3 5.56 C 0 km/h
2274 16-11-2010 21:00:00 5.42 C 5.66 g/m*3 5.42 C 0 km/h
2275 16-11-2010 22:00:00 5.24 C 5.61 g/m*3 5.24 C 0 km/h
Sensor: Nr:Datum:Temp:Abs-Feuchte:Windchill:Wind:
Aussen-T/F 2276 16-11-2010 23:00:00 4.6 C 5.58 g/m*3 4.6 C 0 km/h
2277 17-11-2010 00:00:00 4.78 C 5.72 g/m*3 4.78 C 0 km/h
2278 17-11-2010 01:00:00 5.08 C 5.62 g/m*3 5.08 C 0 km/h
2279 17-11-2010 02:00:00 5 C 5.59 g/m*3 5 C 0 km/h
2280 17-11-2010 03:00:00 4.92 C 5.66 g/m*3 4.92 C 0 km/h
2281 17-11-2010 04:00:00 4.8 C 5.65 g/m*3 4.8 C 0 km/h
2282 17-11-2010 05:00:00 4.74 C 5.72 g/m*3 4.74 C 0 km/h
2283 17-11-2010 06:00:00 4.7 C 5.73 g/m*3 4.7 C 0 km/h
2284 17-11-2010 07:00:00 4.72 C 5.67 g/m*3 4.72 C 0 km/h
2285 17-11-2010 08:00:00 5.1 C 4.98 g/m*3 5.1 C 0 km/h
2286 17-11-2010 09:00:00 5.56 C 4.64 g/m*3 5.56 C 0 km/h
2287 17-11-2010 10:00:00 5.78 C 4.66 g/m*3 5.78 C 0 km/h
2288 17-11-2010 11:00:00 6.04 C 4.6 g/m*3 6.04 C 0 km/h
2289 17-11-2010 12:00:00 6.28 C 4.6 g/m*3 6.28 C 0 km/h
2290 17-11-2010 13:00:00 6.54 C 4.63 g/m*3 6.54 C 0 km/h
2291 17-11-2010 14:00:00 6.18 C 4.55 g/m*3 6.18 C 0 km/h
2292 17-11-2010 15:00:00 5.86 C 4.67 g/m*3 5.86 C 0 km/h
2293 17-11-2010 16:00:00 5.54 C 4.8 g/m*3 5.54 C 0 km/h
2294 17-11-2010 17:00:00 5.26 C 4.91 g/m*3 5.26 C 0 km/h
2295 17-11-2010 18:00:00 5.2 C 4.97 g/m*3 5.2 C 0 km/h
2296 17-11-2010 19:00:00 5.3 C 4.99 g/m*3 5.3 C 0 km/h
2297 17-11-2010 20:00:00 5.3 C 5.12 g/m*3 5.3 C 0 km/h
2298 17-11-2010 21:00:00 5.26 C 5.21 g/m*3 5.26 C 0 km/h
2299 17-11-2010 22:00:00 5.04 C 5.34 g/m*3 5.04 C 0 km/h
2300 17-11-2010 23:00:00 4.52 C 5.58 g/m*3 4.52 C 0 km/h
Sensor: Nr:Datum:Temp:Abs-Feuchte:Windchill:Wind:
Aussen-T/F 2301 18-11-2010 00:00:00 4.56 C 5.74 g/m*3 4.56 C 0 km/h
2302 18-11-2010 01:00:00 4.28 C 5.71 g/m*3 4.28 C 0 km/h
2303 18-11-2010 02:00:00 4.28 C 5.77 g/m*3 4.28 C 0 km/h
2304 18-11-2010 03:00:00 4.06 C 5.75 g/m*3 4.06 C 0 km/h
2305 18-11-2010 04:00:00 4.28 C 5.88 g/m*3 4.28 C 0 km/h
2306 18-11-2010 05:00:00 4.28 C 5.89 g/m*3 4.28 C 0 km/h
2307 18-11-2010 06:00:00 3.92 C 5.81 g/m*3 3.92 C 0 km/h
2308 18-11-2010 07:00:00 3.98 C 5.84 g/m*3 3.98 C 0 km/h
2309 18-11-2010 08:00:00 4.22 C 5.94 g/m*3 4.22 C 0 km/h
2310 18-11-2010 09:00:00 4.94 C 6.2 g/m*3 4.94 C 0 km/h
2311 18-11-2010 10:00:00 5.96 C 6.24 g/m*3 5.96 C 0 km/h
2312 18-11-2010 11:00:00 6.9 C 6.02 g/m*3 6.9 C 0 km/h
2313 18-11-2010 12:00:00 7.54 C 5.92 g/m*3 7.54 C 0 km/h
2314 18-11-2010 13:00:00 8.36 C 5.7 g/m*3 8.36 C 0 km/h
2315 18-11-2010 14:00:00 8.14 C 5.32 g/m*3 8.14 C 0 km/h
2316 18-11-2010 15:00:00 7.76 C 5.39 g/m*3 7.76 C 0 km/h
2317 18-11-2010 16:00:00 6.9 C 5.77 g/m*3 6.9 C 0 km/h
2318 18-11-2010 17:00:00 6.12 C 5.87 g/m*3 6.12 C 0 km/h
2319 18-11-2010 18:00:00 6.2 C 6.02 g/m*3 6.2 C 0 km/h
2320 18-11-2010 19:00:00 5.94 C 6.01 g/m*3 5.94 C 0 km/h
2321 18-11-2010 20:00:00 5.58 C 6.23 g/m*3 5.58 C 0 km/h
2322 18-11-2010 21:00:00 5.52 C 6.27 g/m*3 5.52 C 0 km/h
2323 18-11-2010 22:00:00 5.5 C 6.32 g/m*3 5.5 C 0 km/h
2324 18-11-2010 23:00:00 5.64 C 6.42 g/m*3 5.64 C 0 km/h
2325 19-11-2010 00:00:00 5.66 C 6.26 g/m*3 5.66 C 0 km/h
Sensor: Nr:Datum:Temp:Abs-Feuchte:Windchill:Wind:
Aussen-T/F 2326 19-11-2010 01:00:00 5.58 C 6.11 g/m*3 5.58 C 0 km/h
2327 19-11-2010 02:00:00 5.34 C 6.17 g/m*3 5.34 C 0 km/h
2328 19-11-2010 03:00:00 5.12 C 6.08 g/m*3 5.12 C 0 km/h
2329 19-11-2010 04:00:00 5.04 C 6.05 g/m*3 5.04 C 0 km/h
2330 19-11-2010 05:00:00 4.94 C 6.04 g/m*3 4.94 C 0 km/h
2331 19-11-2010 06:00:00 4.9 C 6.02 g/m*3 4.9 C 0 km/h
2332 19-11-2010 07:00:00 5.14 C 6.1 g/m*3 5.14 C 0 km/h
2333 19-11-2010 08:00:00 5.44 C 6.23 g/m*3 5.44 C 0 km/h
2334 19-11-2010 09:00:00 6.32 C 6.26 g/m*3 6.32 C 0 km/h
2335 19-11-2010 10:00:00 7.62 C 6.28 g/m*3 7.62 C 0 km/h
2336 19-11-2010 11:00:00 8.84 C 6.06 g/m*3 8.84 C 0 km/h
2337 19-11-2010 12:00:00 9.52 C 5.85 g/m*3 9.52 C 0 km/h
2338 19-11-2010 13:00:00 9.74 C 5.82 g/m*3 9.74 C 0 km/h
2339 19-11-2010 14:00:00 9.94 C 5.69 g/m*3 9.94 C 0 km/h
2340 19-11-2010 15:00:00 8.5 C 5.93 g/m*3 8.5 C 0 km/h
2341 19-11-2010 16:00:00 7.04 C 6.23 g/m*3 7.04 C 0 km/h
2342 19-11-2010 17:00:00 7.58 C 6.31 g/m*3 7.58 C 0 km/h
2343 19-11-2010 18:00:00 7.62 C 6.32 g/m*3 7.62 C 0 km/h
2344 19-11-2010 19:00:00 6.96 C 6.23 g/m*3 6.96 C 0 km/h
2345 19-11-2010 20:00:00 5.1 C 5.91 g/m*3 5.1 C 0 km/h
2346 19-11-2010 21:00:00 3.86 C 5.62 g/m*3 3.86 C 0 km/h
2347 19-11-2010 22:00:00 3.92 C 5.74 g/m*3 3.92 C 0 km/h
2348 19-11-2010 23:00:00 4.54 C 6.02 g/m*3 4.54 C 0 km/h
2349 20-11-2010 00:00:00 4.04 C 5.86 g/m*3 4.04 C 0 km/h
2350 20-11-2010 01:00:00 4.18 C 5.92 g/m*3 4.18 C 0 km/h
Sensor: Nr:Datum:Temp:Abs-Feuchte:Windchill:Wind:
Aussen-T/F 2351 20-11-2010 02:00:00 1.94 C 5.11 g/m*3 1.94 C 0 km/h
2352 20-11-2010 03:00:00 1.34 C 4.91 g/m*3 1.34 C 0 km/h
2353 20-11-2010 04:00:00 2.64 C 5.37 g/m*3 2.64 C 0 km/h
2354 20-11-2010 05:00:00 3.34 C 5.65 g/m*3 3.34 C 0 km/h
2355 20-11-2010 06:00:00 3.76 C 5.82 g/m*3 3.76 C 0 km/h
2356 20-11-2010 07:00:00 4.06 C 5.94 g/m*3 4.06 C 0 km/h
2357 20-11-2010 08:00:00 4.4 C 6.07 g/m*3 4.4 C 0 km/h
2358 20-11-2010 09:00:00 5.04 C 6.32 g/m*3 5.04 C 0 km/h
2359 20-11-2010 10:00:00 6.02 C 6.63 g/m*3 6.02 C 0 km/h
2360 20-11-2010 11:00:00 7.46 C 6.75 g/m*3 7.46 C 0 km/h
2361 20-11-2010 12:00:00 9.1 C 6.67 g/m*3 9.1 C 0 km/h
2362 20-11-2010 13:00:00 8.88 C 6.37 g/m*3 8.88 C 0 km/h
2363 20-11-2010 14:00:00 8.78 C 6.29 g/m*3 8.78 C 0 km/h
2364 20-11-2010 15:00:00 7.76 C 6.19 g/m*3 7.76 C 0 km/h
2365 20-11-2010 16:00:00 5.34 C 5.87 g/m*3 5.34 C 0 km/h
2366 20-11-2010 17:00:00 4.6 C 5.9 g/m*3 4.6 C 0 km/h
2367 20-11-2010 18:00:00 4.4 C 5.9 g/m*3 4.4 C 0 km/h
2368 20-11-2010 19:00:00 3.92 C 5.75 g/m*3 3.92 C 0 km/h
2369 20-11-2010 20:00:00 3.28 C 5.55 g/m*3 3.28 C 0 km/h
2370 20-11-2010 21:00:00 3.26 C 5.57 g/m*3 3.26 C 0 km/h
2371 20-11-2010 22:00:00 4.32 C 5.98 g/m*3 4.32 C 0 km/h
2372 20-11-2010 23:00:00 4.12 C 5.92 g/m*3 4.12 C 0 km/h
2373 21-11-2010 00:00:00 4.32 C 5.96 g/m*3 4.32 C 0 km/h
2374 21-11-2010 01:00:00 4.48 C 5.75 g/m*3 4.48 C 0 km/h
2375 21-11-2010 02:00:00 4.44 C 5.43 g/m*3 4.44 C 0 km/h
Sensor: Nr:Datum:Temp:Abs-Feuchte:Windchill:Wind:
Aussen-T/F 2376 21-11-2010 03:00:00 4.5 C 5.28 g/m*3 4.5 C 0 km/h
2377 21-11-2010 04:00:00 4.56 C 5.06 g/m*3 4.56 C 0 km/h
2378 21-11-2010 05:00:00 4.5 C 4.94 g/m*3 4.5 C 0 km/h
2379 21-11-2010 06:00:00 4.4 C 4.92 g/m*3 4.4 C 0 km/h
2380 21-11-2010 07:00:00 4.38 C 5.05 g/m*3 4.38 C 0 km/h
2381 21-11-2010 08:00:00 4.7 C 5.14 g/m*3 4.7 C 0 km/h
2382 21-11-2010 09:00:00 5 C 4.92 g/m*3 5 C 0 km/h
2383 21-11-2010 10:00:00 5.36 C 4.82 g/m*3 5.36 C 0 km/h
2384 21-11-2010 11:00:00 5.3 C 4.63 g/m*3 5.3 C 0 km/h
2385 21-11-2010 12:00:00 5.1 C 4.53 g/m*3 5.1 C 0 km/h
2386 21-11-2010 13:00:00 5.12 C 4.45 g/m*3 5.12 C 0 km/h
2387 21-11-2010 14:00:00 4.88 C 4.42 g/m*3 4.88 C 0 km/h
2388 21-11-2010 15:00:00 4.44 C 4.28 g/m*3 4.44 C 0 km/h
2389 21-11-2010 16:00:00 4.16 C 4.38 g/m*3 4.16 C 0 km/h
2390 21-11-2010 17:00:00 3.96 C 4.5 g/m*3 3.96 C 0 km/h
2391 21-11-2010 18:00:00 3.96 C 4.57 g/m*3 3.96 C 0 km/h
2392 21-11-2010 19:00:00 4.06 C 4.61 g/m*3 4.06 C 0 km/h
2393 21-11-2010 20:00:00 4.3 C 4.55 g/m*3 4.3 C 0 km/h
2394 21-11-2010 21:00:00 4.16 C 4.5 g/m*3 4.16 C 0 km/h
2395 21-11-2010 22:00:00 3.76 C 4.66 g/m*3 3.76 C 0 km/h
2396 21-11-2010 23:00:00 3.76 C 4.81 g/m*3 3.76 C 0 km/h
2397 22-11-2010 00:00:00 4.06 C 4.93 g/m*3 4.06 C 0 km/h
2398 22-11-2010 01:00:00 4.08 C 4.92 g/m*3 4.08 C 0 km/h
2399 22-11-2010 02:00:00 4.16 C 4.97 g/m*3 4.16 C 0 km/h
2400 22-11-2010 03:00:00 4.46 C 5.06 g/m*3 4.46 C 0 km/h
Sensor: Nr:Datum:Temp:Abs-Feuchte:Windchill:Wind:
Aussen-T/F 2401 22-11-2010 04:00:00 4.86 C 5.01 g/m*3 4.86 C 0 km/h
2402 22-11-2010 05:00:00 4.88 C 4.95 g/m*3 4.88 C 0 km/h
2403 22-11-2010 06:00:00 4.7 C 4.86 g/m*3 4.7 C 0 km/h
2404 22-11-2010 07:00:00 4.64 C 4.79 g/m*3 4.64 C 0 km/h
2405 22-11-2010 08:00:00 4.64 C 4.8 g/m*3 4.64 C 0 km/h
2406 22-11-2010 09:00:00 4.74 C 4.81 g/m*3 4.74 C 0 km/h
2407 22-11-2010 10:00:00 4.82 C 4.86 g/m*3 4.82 C 0 km/h
2408 22-11-2010 11:00:00 4.48 C 4.95 g/m*3 4.48 C 0 km/h
2409 22-11-2010 12:00:00 4.2 C 5.21 g/m*3 4.2 C 0 km/h
2410 22-11-2010 13:00:00 4.24 C 5.38 g/m*3 4.24 C 0 km/h
2411 22-11-2010 14:00:00 4.78 C 5.25 g/m*3 4.78 C 0 km/h
2412 22-11-2010 15:00:00 4.9 C 5.02 g/m*3 4.9 C 0 km/h
2413 22-11-2010 16:00:00 4.32 C 4.91 g/m*3 4.32 C 0 km/h
2414 22-11-2010 17:00:00 4.04 C 4.99 g/m*3 4.04 C 0 km/h
2415 22-11-2010 18:00:00 4.28 C 4.95 g/m*3 4.28 C 0 km/h
2416 22-11-2010 19:00:00 4.38 C 4.88 g/m*3 4.38 C 0 km/h
2417 22-11-2010 20:00:00 4.42 C 4.8 g/m*3 4.42 C 0 km/h
2418 22-11-2010 21:00:00 4.4 C 4.82 g/m*3 4.4 C 0 km/h
2419 22-11-2010 22:00:00 4.5 C 4.89 g/m*3 4.5 C 0 km/h
2420 22-11-2010 23:00:00 4.4 C 4.94 g/m*3 4.4 C 0 km/h
2421 23-11-2010 00:00:00 4.44 C 4.94 g/m*3 4.44 C 0 km/h
2422 23-11-2010 01:00:00 4.46 C 4.85 g/m*3 4.46 C 0 km/h
2423 23-11-2010 02:00:00 4.26 C 4.62 g/m*3 4.26 C 0 km/h
2424 23-11-2010 03:00:00 4.08 C 4.42 g/m*3 4.08 C 0 km/h
2425 23-11-2010 04:00:00 3.68 C 4.52 g/m*3 3.68 C 0 km/h
Sensor: Nr:Datum:Temp:Abs-Feuchte:Windchill:Wind:
Aussen-T/F 2426 23-11-2010 05:00:00 3.2 C 4.65 g/m*3 3.2 C 0 km/h
2427 23-11-2010 06:00:00 2.66 C 5.01 g/m*3 2.66 C 0 km/h
2428 23-11-2010 07:00:00 2.96 C 5.08 g/m*3 2.96 C 0 km/h
2429 23-11-2010 08:00:00 3.18 C 4.89 g/m*3 3.18 C 0 km/h
2430 23-11-2010 09:00:00 3.68 C 4.75 g/m*3 3.68 C 0 km/h
2431 23-11-2010 10:00:00 4.26 C 4.58 g/m*3 4.26 C 0 km/h
2432 23-11-2010 11:00:00 4.72 C 4.66 g/m*3 4.72 C 0 km/h
2433 23-11-2010 12:00:00 5.28 C 4.47 g/m*3 5.28 C 0 km/h
2434 23-11-2010 13:00:00 6.04 C 4.37 g/m*3 6.04 C 0 km/h
2435 23-11-2010 14:00:00 5.74 C 4.25 g/m*3 5.74 C 0 km/h
2436 23-11-2010 15:00:00 5.54 C 4.25 g/m*3 5.54 C 0 km/h
2437 23-11-2010 16:00:00 5.38 C 4.47 g/m*3 5.38 C 0 km/h
2438 23-11-2010 17:00:00 5.32 C 4.46 g/m*3 5.32 C 0 km/h
2439 23-11-2010 18:00:00 5.28 C 4.42 g/m*3 5.28 C 0 km/h
2440 23-11-2010 19:00:00 5.2 C 4.5 g/m*3 5.2 C 0 km/h
2441 23-11-2010 20:00:00 5.14 C 4.46 g/m*3 5.14 C 0 km/h
2442 23-11-2010 21:00:00 4.98 C 4.33 g/m*3 4.98 C 0 km/h
2443 23-11-2010 22:00:00 4.95 C 4.33 g/m*3 4.95 C 0 km/h
2444 23-11-2010 23:00:00 4.64 C 4.39 g/m*3 4.64 C 0 km/h
2445 24-11-2010 00:00:00 4.32 C 4.44 g/m*3 4.32 C 0 km/h
2446 24-11-2010 01:00:00 3.96 C 4.46 g/m*3 3.96 C 0 km/h
2447 24-11-2010 02:00:00 3.42 C 4.5 g/m*3 3.42 C 0 km/h
2448 24-11-2010 03:00:00 3.52 C 4.62 g/m*3 3.52 C 0 km/h
2449 24-11-2010 04:00:00 3.46 C 4.72 g/m*3 3.46 C 0 km/h
2450 24-11-2010 05:00:00 2.92 C 5 g/m*3 2.92 C 0 km/h
Sensor: Nr:Datum:Temp:Abs-Feuchte:Windchill:Wind:
Aussen-T/F 2451 24-11-2010 06:00:00 3.2 C 5.07 g/m*3 3.2 C 0 km/h
2452 24-11-2010 07:00:00 3.34 C 5.01 g/m*3 3.34 C 0 km/h
2453 24-11-2010 08:00:00 3.42 C 5.08 g/m*3 3.42 C 0 km/h
2454 24-11-2010 09:00:00 4.22 C 4.99 g/m*3 4.22 C 0 km/h
2455 24-11-2010 10:00:00 5.22 C 4.7 g/m*3 5.22 C 0 km/h
2456 24-11-2010 11:00:00 5.22 C 4.78 g/m*3 5.22 C 0 km/h
2457 24-11-2010 12:00:00 5.8 C 4.57 g/m*3 5.8 C 0 km/h
2458 24-11-2010 13:00:00 5.36 C 4.61 g/m*3 5.36 C 0 km/h
2459 24-11-2010 14:00:00 4.48 C 5.08 g/m*3 4.48 C 0 km/h
2460 24-11-2010 15:00:00 3.48 C 5.24 g/m*3 3.48 C 0 km/h
2461 24-11-2010 16:00:00 3.3 C 5.22 g/m*3 3.3 C 0 km/h
2462 24-11-2010 17:00:00 2.28 C 4.88 g/m*3 2.28 C 0 km/h
2463 24-11-2010 18:00:00 1.64 C 4.9 g/m*3 1.64 C 0 km/h
2464 24-11-2010 19:00:00 2.02 C 5.09 g/m*3 2.02 C 0 km/h
2465 24-11-2010 20:00:00 1.42 C 4.91 g/m*3 1.42 C 0 km/h
2466 24-11-2010 21:00:00 1.42 C 4.91 g/m*3 1.42 C 0 km/h
2467 24-11-2010 22:00:00 2.14 C 5.13 g/m*3 2.14 C 0 km/h
2468 24-11-2010 23:00:00 2.4 C 5.06 g/m*3 2.4 C 0 km/h
2469 25-11-2010 00:00:00 2.5 C 4.93 g/m*3 2.5 C 0 km/h
2470 25-11-2010 01:00:00 2.94 C 4.82 g/m*3 2.94 C 0 km/h
2471 25-11-2010 02:00:00 2.76 C 4.55 g/m*3 2.76 C 0 km/h
2472 25-11-2010 03:00:00 2.82 C 4.43 g/m*3 2.82 C 0 km/h
2473 25-11-2010 04:00:00 2.02 C 4.2 g/m*3 2.02 C 0 km/h
2474 25-11-2010 05:00:00 1.3 C 4.08 g/m*3 1.3 C 0 km/h
2475 25-11-2010 06:00:00 0.66 C 4.12 g/m*3 0.66 C 0 km/h
Sensor: Nr:Datum:Temp:Abs-Feuchte:Windchill:Wind:
Aussen-T/F 2476 25-11-2010 07:00:00 0.06 C 4.24 g/m*3 0.06 C 0 km/h
2477 25-11-2010 08:00:00 -0.28 C 4.23 g/m*3 -0.28 C 0 km/h
2478 25-11-2010 09:00:00 0.58 C 4.45 g/m*3 0.58 C 0 km/h
2479 25-11-2010 10:00:00 0.8 C 4.42 g/m*3 0.8 C 0 km/h
2480 25-11-2010 11:00:00 1.76 C 4.53 g/m*3 1.76 C 0 km/h
2481 25-11-2010 12:00:00 2 C 4.51 g/m*3 2 C 0 km/h
2482 25-11-2010 13:00:00 3.48 C 4.22 g/m*3 3.48 C 0 km/h
2483 25-11-2010 14:00:00 3.66 C 4.03 g/m*3 3.66 C 0 km/h
2484 25-11-2010 15:00:00 3.28 C 3.96 g/m*3 3.28 C 0 km/h
2485 25-11-2010 16:00:00 2.04 C 4.21 g/m*3 2.04 C 0 km/h
2486 25-11-2010 17:00:00 2.04 C 4.35 g/m*3 2.04 C 0 km/h
2487 25-11-2010 18:00:00 1.74 C 4.42 g/m*3 1.74 C 0 km/h
2488 25-11-2010 19:00:00 0.98 C 4.38 g/m*3 0.98 C 0 km/h
2489 25-11-2010 20:00:00 0.7 C 4.4 g/m*3 0.7 C 0 km/h
2490 25-11-2010 21:00:00 1.24 C 4.5 g/m*3 1.24 C 0 km/h
2491 25-11-2010 22:00:00 1.34 C 4.49 g/m*3 1.34 C 0 km/h
2492 25-11-2010 23:00:00 1.36 C 4.52 g/m*3 1.36 C 0 km/h
2493 26-11-2010 00:00:00 1.4 C 4.51 g/m*3 1.4 C 0 km/h
2494 26-11-2010 01:00:00 1.06 C 4.49 g/m*3 1.06 C 0 km/h
2495 26-11-2010 02:00:00 1.06 C 4.47 g/m*3 1.06 C 0 km/h
2496 26-11-2010 03:00:00 0.74 C 4.37 g/m*3 0.74 C 0 km/h
2497 26-11-2010 04:00:00 0.32 C 4.4 g/m*3 0.32 C 0 km/h
2498 26-11-2010 05:00:00 0.26 C 4.47 g/m*3 0.26 C 0 km/h
2499 26-11-2010 06:00:00 0.22 C 4.49 g/m*3 0.22 C 0 km/h
2500 26-11-2010 07:00:00 0 C 4.46 g/m*3 0 C 0 km/h
Sensor: Nr:Datum:Temp:Abs-Feuchte:Windchill:Wind:
Aussen-T/F 2501 26-11-2010 08:00:00 0.04 C 4.49 g/m*3 0.04 C 0 km/h
2502 26-11-2010 09:00:00 0.14 C 4.55 g/m*3 0.14 C 0 km/h
2503 26-11-2010 10:00:00 0.58 C 4.66 g/m*3 0.58 C 0 km/h
2504 26-11-2010 11:00:00 1.12 C 4.61 g/m*3 1.12 C 0 km/h
2505 26-11-2010 12:00:00 0.84 C 4.41 g/m*3 0.84 C 0 km/h
2506 26-11-2010 13:00:00 0.9 C 4.37 g/m*3 0.9 C 0 km/h
2507 26-11-2010 14:00:00 1.6 C 4.17 g/m*3 1.6 C 0 km/h
2508 26-11-2010 15:00:00 0.8 C 3.8 g/m*3 0.8 C 0 km/h
2509 26-11-2010 16:00:00 -1.48 C 3.69 g/m*3 -1.48 C 0 km/h
2510 26-11-2010 17:00:00 -2.36 C 3.65 g/m*3 -2.36 C 0 km/h
2511 26-11-2010 18:00:00 -1.38 C 4 g/m*3 -1.38 C 0 km/h
2512 26-11-2010 19:00:00 -1.54 C 3.96 g/m*3 -1.54 C 0 km/h
2513 26-11-2010 20:00:00 -1.96 C 3.85 g/m*3 -1.96 C 0 km/h
2514 26-11-2010 21:00:00 -2.34 C 3.75 g/m*3 -2.34 C 0 km/h
2515 26-11-2010 22:00:00 -3.24 C 3.5 g/m*3 -3.24 C 0 km/h
2516 26-11-2010 23:00:00 -3.76 C 3.35 g/m*3 -3.76 C 0 km/h
2517 27-11-2010 00:00:00 -4.08 C 3.27 g/m*3 -4.08 C 0 km/h
2518 27-11-2010 01:00:00 -3.54 C 3.39 g/m*3 -3.54 C 0 km/h
2519 27-11-2010 02:00:00 -3.94 C 3.25 g/m*3 -3.94 C 0 km/h
2520 27-11-2010 03:00:00 -3.16 C 3.46 g/m*3 -3.16 C 0 km/h
2521 27-11-2010 04:00:00 -4.12 C 3.19 g/m*3 -4.12 C 0 km/h
2522 27-11-2010 05:00:00 -4.28 C 3.15 g/m*3 -4.28 C 0 km/h
2523 27-11-2010 06:00:00 -3.52 C 3.35 g/m*3 -3.52 C 0 km/h
2524 27-11-2010 07:00:00 -3.54 C 3.33 g/m*3 -3.54 C 0 km/h
2525 27-11-2010 08:00:00 -3 C 3.48 g/m*3 -3 C 0 km/h
Sensor: Nr:Datum:Temp:Abs-Feuchte:Windchill:Wind:
Aussen-T/F 2526 27-11-2010 09:00:00 -1.8 C 3.8 g/m*3 -1.8 C 0 km/h
2527 27-11-2010 10:00:00 -0.84 C 4.06 g/m*3 -0.84 C 0 km/h
2528 27-11-2010 11:00:00 -0.2 C 4.19 g/m*3 -0.2 C 0 km/h
2529 27-11-2010 12:00:00 0.38 C 4 g/m*3 0.38 C 0 km/h
2530 27-11-2010 13:00:00 0.86 C 3.91 g/m*3 0.86 C 0 km/h
2531 27-11-2010 14:00:00 1.48 C 3.79 g/m*3 1.48 C 0 km/h
2532 27-11-2010 15:00:00 0.76 C 3.8 g/m*3 0.76 C 0 km/h
2533 27-11-2010 16:00:00 -0.72 C 3.59 g/m*3 -0.72 C 0 km/h
2534 27-11-2010 17:00:00 -0.86 C 3.65 g/m*3 -0.86 C 0 km/h
2535 27-11-2010 18:00:00 -1.58 C 3.59 g/m*3 -1.58 C 0 km/h
2536 27-11-2010 19:00:00 -0.92 C 3.75 g/m*3 -0.92 C 0 km/h
2537 27-11-2010 20:00:00 -1.5 C 3.52 g/m*3 -1.5 C 0 km/h
2538 27-11-2010 21:00:00 -3.1 C 3.27 g/m*3 -3.1 C 0 km/h
2539 27-11-2010 22:00:00 -3.36 C 3.3 g/m*3 -3.36 C 0 km/h
2540 27-11-2010 23:00:00 -3.22 C 3.31 g/m*3 -3.22 C 0 km/h
2541 28-11-2010 00:00:00 -3.76 C 3.2 g/m*3 -3.76 C 0 km/h
2542 28-11-2010 01:00:00 -2.76 C 3.5 g/m*3 -2.76 C 0 km/h
2543 28-11-2010 02:00:00 -2.18 C 3.6 g/m*3 -2.18 C 0 km/h
2544 28-11-2010 03:00:00 -3.4 C 3.22 g/m*3 -3.4 C 0 km/h
2545 28-11-2010 04:00:00 -2.64 C 3.47 g/m*3 -2.64 C 0 km/h
2546 28-11-2010 05:00:00 -2.72 C 3.42 g/m*3 -2.72 C 0 km/h
2547 28-11-2010 06:00:00 -2.18 C 3.56 g/m*3 -2.18 C 0 km/h
2548 28-11-2010 07:00:00 -1.88 C 3.58 g/m*3 -1.88 C 0 km/h
2549 28-11-2010 08:00:00 -1.66 C 3.6 g/m*3 -1.66 C 0 km/h
2550 28-11-2010 09:00:00 -1.18 C 3.62 g/m*3 -1.18 C 0 km/h
Sensor: Nr:Datum:Temp:Abs-Feuchte:Windchill:Wind:
Aussen-T/F 2551 28-11-2010 10:00:00 -0.38 C 3.63 g/m*3 -0.38 C 0 km/h
2552 28-11-2010 11:00:00 -0.18 C 3.55 g/m*3 -0.18 C 0 km/h
2553 28-11-2010 12:00:00 0.02 C 3.59 g/m*3 0.02 C 0 km/h
2554 28-11-2010 13:00:00 0.14 C 3.63 g/m*3 0.14 C 0 km/h
2555 28-11-2010 14:00:00 0.5 C 3.69 g/m*3 0.5 C 0 km/h
2556 28-11-2010 15:00:00 0.54 C 3.71 g/m*3 0.54 C 0 km/h
2557 28-11-2010 16:00:00 -0.34 C 3.68 g/m*3 -0.34 C 0 km/h
2558 28-11-2010 17:00:00 -0.64 C 3.67 g/m*3 -0.64 C 0 km/h
2559 28-11-2010 18:00:00 -1.1 C 3.71 g/m*3 -1.1 C 0 km/h
2560 28-11-2010 19:00:00 -0.7 C 3.7 g/m*3 -0.7 C 0 km/h
2561 28-11-2010 20:00:00 -0.8 C 3.55 g/m*3 -0.8 C 0 km/h
2562 28-11-2010 21:00:00 -0.86 C 3.46 g/m*3 -0.86 C 0 km/h
2563 28-11-2010 22:00:00 -1.6 C 3.36 g/m*3 -1.6 C 0 km/h
2564 28-11-2010 23:00:00 -2.04 C 3.42 g/m*3 -2.04 C 0 km/h
2565 29-11-2010 00:00:00 -1.48 C 3.37 g/m*3 -1.48 C 0 km/h
2566 29-11-2010 01:00:00 -1.8 C 3.31 g/m*3 -1.8 C 0 km/h
2567 29-11-2010 02:00:00 -1.88 C 3.26 g/m*3 -1.88 C 0 km/h
2568 29-11-2010 03:00:00 -2 C 3.21 g/m*3 -2 C 0 km/h
2569 29-11-2010 04:00:00 -2 C 3.22 g/m*3 -2 C 0 km/h
2570 29-11-2010 05:00:00 -1.82 C 3.27 g/m*3 -1.82 C 0 km/h
2571 29-11-2010 06:00:00 -1.68 C 3.31 g/m*3 -1.68 C 0 km/h
2572 29-11-2010 07:00:00 -1.66 C 3.29 g/m*3 -1.66 C 0 km/h
2573 29-11-2010 08:00:00 -1.6 C 3.33 g/m*3 -1.6 C 0 km/h
2574 29-11-2010 09:00:00 -1.38 C 3.3 g/m*3 -1.38 C 0 km/h
2575 29-11-2010 10:00:00 -1.3 C 3.37 g/m*3 -1.3 C 0 km/h
Sensor: Nr:Datum:Temp:Abs-Feuchte:Windchill:Wind:
Aussen-T/F 2576 29-11-2010 11:00:00 -1.22 C 3.45 g/m*3 -1.22 C 0 km/h
2577 29-11-2010 12:00:00 -1.14 C 3.52 g/m*3 -1.14 C 0 km/h
2578 29-11-2010 13:00:00 -0.84 C 3.57 g/m*3 -0.84 C 0 km/h
2579 29-11-2010 14:00:00 -1.02 C 3.67 g/m*3 -1.02 C 0 km/h
2580 29-11-2010 15:00:00 -1.3 C 3.72 g/m*3 -1.3 C 0 km/h
2581 29-11-2010 16:00:00 -1.46 C 3.73 g/m*3 -1.46 C 0 km/h
2582 29-11-2010 17:00:00 -1.68 C 3.71 g/m*3 -1.68 C 0 km/h
2583 29-11-2010 18:00:00 -1.68 C 3.75 g/m*3 -1.68 C 0 km/h
2584 29-11-2010 19:00:00 -1.7 C 3.75 g/m*3 -1.7 C 0 km/h
2585 29-11-2010 20:00:00 -1.64 C 3.8 g/m*3 -1.64 C 0 km/h
2586 29-11-2010 21:00:00 -1.66 C 3.8 g/m*3 -1.66 C 0 km/h
2587 29-11-2010 22:00:00 -1.78 C 3.77 g/m*3 -1.78 C 0 km/h
2588 29-11-2010 23:00:00 -1.68 C 3.83 g/m*3 -1.68 C 0 km/h
2589 30-11-2010 00:00:00 -1.78 C 3.81 g/m*3 -1.78 C 0 km/h
2590 30-11-2010 01:00:00 -1.96 C 3.76 g/m*3 -1.96 C 0 km/h
2591 30-11-2010 02:00:00 -1.68 C 3.84 g/m*3 -1.68 C 0 km/h
2592 30-11-2010 03:00:00 -1.7 C 3.82 g/m*3 -1.7 C 0 km/h
2593 30-11-2010 04:00:00 -2.36 C 3.62 g/m*3 -2.36 C 0 km/h
2594 30-11-2010 05:00:00 -2.4 C 3.62 g/m*3 -2.4 C 0 km/h
2595 30-11-2010 06:00:00 -2.26 C 3.66 g/m*3 -2.26 C 0 km/h
2596 30-11-2010 07:00:00 -2.28 C 3.66 g/m*3 -2.28 C 0 km/h
2597 30-11-2010 08:00:00 -2.08 C 3.66 g/m*3 -2.08 C 0 km/h
2598 30-11-2010 09:00:00 -2 C 3.58 g/m*3 -2 C 0 km/h
2599 30-11-2010 10:00:00 -1.82 C 3.51 g/m*3 -1.82 C 0 km/h
2600 30-11-2010 11:00:00 -1.5 C 3.44 g/m*3 -1.5 C 0 km/h
Sensor: Nr:Datum:Temp:Abs-Feuchte:Windchill:Wind:
Aussen-T/F 2601 30-11-2010 12:00:00 -1.3 C 3.28 g/m*3 -1.3 C 0 km/h
2602 30-11-2010 13:00:00 -1.08 C 3.25 g/m*3 -1.08 C 0 km/h
2603 30-11-2010 14:00:00 -1.32 C 3.2 g/m*3 -1.32 C 0 km/h
2604 30-11-2010 15:00:00 -1.48 C 3.23 g/m*3 -1.48 C 0 km/h
2605 30-11-2010 16:00:00 -1.5 C 3.23 g/m*3 -1.5 C 0 km/h
2606 30-11-2010 17:00:00 -1.92 C 3.21 g/m*3 -1.92 C 0 km/h
2607 30-11-2010 18:00:00 -2.1 C 3.18 g/m*3 -2.1 C 0 km/h
2608 30-11-2010 19:00:00 -2.1 C 3.17 g/m*3 -2.1 C 0 km/h
2609 30-11-2010 20:00:00 -2.26 C 3.11 g/m*3 -2.26 C 0 km/h
2610 30-11-2010 21:00:00 -2.4 C 3.05 g/m*3 -2.4 C 0 km/h
2611 30-11-2010 22:00:00 -2.58 C 2.94 g/m*3 -2.58 C 0 km/h
2612 30-11-2010 23:00:00 -2.76 C 2.83 g/m*3 -2.76 C 0 km/h
2613 01-12-2010 00:00:00 -3 C 2.76 g/m*3 -3 C 0 km/h
2614 01-12-2010 01:00:00 -3.3 C 2.67 g/m*3 -3.3 C 0 km/h
2615 01-12-2010 02:00:00 -3.88 C 2.51 g/m*3 -3.88 C 0 km/h
2616 01-12-2010 03:00:00 -4.34 C 2.36 g/m*3 -4.34 C 0 km/h
2617 01-12-2010 04:00:00 -5 C 2.23 g/m*3 -5 C 0 km/h
2618 01-12-2010 05:00:00 -5.4 C 2.18 g/m*3 -5.4 C 0 km/h
2619 01-12-2010 06:00:00 -5.56 C 2.14 g/m*3 -5.56 C 0 km/h
2620 01-12-2010 07:00:00 -5.9 C 2.05 g/m*3 -5.9 C 0 km/h
2621 01-12-2010 08:00:00 -6.26 C 1.95 g/m*3 -6.26 C 0 km/h
2622 01-12-2010 09:00:00 -5.96 C 1.92 g/m*3 -5.96 C 0 km/h
2623 01-12-2010 10:00:00 -5.54 C 1.95 g/m*3 -5.54 C 0 km/h
2624 01-12-2010 11:00:00 -5.48 C 1.97 g/m*3 -5.48 C 0 km/h
2625 01-12-2010 12:00:00 -5.82 C 1.93 g/m*3 -5.82 C 0 km/h
Sensor: Nr:Datum:Temp:Abs-Feuchte:Windchill:Wind:
Aussen-T/F 2626 01-12-2010 13:00:00 -6.1 C 1.85 g/m*3 -6.1 C 0 km/h
2627 01-12-2010 14:00:00 -6.18 C 1.79 g/m*3 -6.18 C 0 km/h
2628 01-12-2010 15:00:00 -6.28 C 1.78 g/m*3 -6.28 C 0 km/h
2629 01-12-2010 16:00:00 -6.58 C 1.75 g/m*3 -6.58 C 0 km/h
2630 01-12-2010 17:00:00 -6.58 C 1.8 g/m*3 -6.58 C 0 km/h
2631 01-12-2010 18:00:00 -6.54 C 1.82 g/m*3 -6.54 C 0 km/h
2632 01-12-2010 19:00:00 -6.58 C 1.81 g/m*3 -6.58 C 0 km/h
2633 01-12-2010 20:00:00 -6.64 C 1.77 g/m*3 -6.64 C 0 km/h
2634 01-12-2010 21:00:00 -6.74 C 1.74 g/m*3 -6.74 C 0 km/h
2635 01-12-2010 22:00:00 -6.86 C 1.73 g/m*3 -6.86 C 0 km/h
2636 01-12-2010 23:00:00 -7.06 C 1.77 g/m*3 -7.06 C 0 km/h
2637 02-12-2010 00:00:00 -7.14 C 1.81 g/m*3 -7.14 C 0 km/h
2638 02-12-2010 01:00:00 -7.12 C 1.79 g/m*3 -7.12 C 0 km/h
2639 02-12-2010 02:00:00 -7.28 C 1.71 g/m*3 -7.28 C 0 km/h
2640 02-12-2010 03:00:00 -7.32 C 1.74 g/m*3 -7.32 C 0 km/h
2641 02-12-2010 04:00:00 -7.5 C 1.78 g/m*3 -7.5 C 0 km/h
2642 02-12-2010 05:00:00 -7.64 C 1.79 g/m*3 -7.64 C 0 km/h
2643 02-12-2010 06:00:00 -7.76 C 1.84 g/m*3 -7.76 C 0 km/h
2644 02-12-2010 07:00:00 -7.72 C 1.89 g/m*3 -7.72 C 0 km/h
2645 02-12-2010 08:00:00 -7.7 C 1.87 g/m*3 -7.7 C 0 km/h
2646 02-12-2010 09:00:00 -7.1 C 1.96 g/m*3 -7.1 C 0 km/h
2647 02-12-2010 10:00:00 -6.14 C 1.99 g/m*3 -6.14 C 0 km/h
2648 02-12-2010 11:00:00 -5.62 C 2.03 g/m*3 -5.62 C 0 km/h
2649 02-12-2010 12:00:00 -6.08 C 2.05 g/m*3 -6.08 C 0 km/h
2650 02-12-2010 13:00:00 -5.3 C 2.15 g/m*3 -5.3 C 0 km/h
Sensor: Nr:Datum:Temp:Abs-Feuchte:Windchill:Wind:
Aussen-T/F 2651 02-12-2010 14:00:00 -5.6 C 2.16 g/m*3 -5.6 C 0 km/h
2652 02-12-2010 15:00:00 -4.74 C 2.28 g/m*3 -4.74 C 0 km/h
2653 02-12-2010 16:00:00 -5.12 C 2.3 g/m*3 -5.12 C 0 km/h
2654 02-12-2010 17:00:00 -7.36 C 2.12 g/m*3 -7.36 C 0 km/h
2655 02-12-2010 18:00:00 -8.02 C 2.2 g/m*3 -8.02 C 0 km/h
2656 02-12-2010 19:00:00 -8.42 C 2.16 g/m*3 -8.42 C 0 km/h
2657 02-12-2010 20:00:00 -8.04 C 2.25 g/m*3 -8.04 C 0 km/h
2658 02-12-2010 21:00:00 -7.54 C 2.33 g/m*3 -7.54 C 0 km/h
2659 02-12-2010 22:00:00 -8.54 C 2.13 g/m*3 -8.54 C 0 km/h
2660 02-12-2010 23:00:00 -7.96 C 2.23 g/m*3 -7.96 C 0 km/h
2661 03-12-2010 00:00:00 -9.88 C 1.86 g/m*3 -9.88 C 0 km/h
2662 03-12-2010 01:00:00 -9.66 C 1.91 g/m*3 -9.66 C 0 km/h
2663 03-12-2010 02:00:00 -9.12 C 2 g/m*3 -9.12 C 0 km/h
2664 03-12-2010 03:00:00 -8.78 C 2.04 g/m*3 -8.78 C 0 km/h
2665 03-12-2010 04:00:00 -8.06 C 2.15 g/m*3 -8.06 C 0 km/h
2666 03-12-2010 05:00:00 -8.68 C 2.03 g/m*3 -8.68 C 0 km/h
2667 03-12-2010 06:00:00 -9.48 C 1.91 g/m*3 -9.48 C 0 km/h
2668 03-12-2010 07:00:00 -8.92 C 2.03 g/m*3 -8.92 C 0 km/h
2669 03-12-2010 08:00:00 -9.92 C 1.85 g/m*3 -9.92 C 0 km/h
2670 03-12-2010 09:00:00 -9.8 C 1.85 g/m*3 -9.8 C 0 km/h
2671 03-12-2010 10:00:00 -8.1 C 2.05 g/m*3 -8.1 C 0 km/h
2672 03-12-2010 11:00:00 -6.32 C 2.23 g/m*3 -6.32 C 0 km/h
2673 03-12-2010 12:00:00 -5.16 C 2.28 g/m*3 -5.16 C 0 km/h
2674 03-12-2010 13:00:00 -4.74 C 2.32 g/m*3 -4.74 C 0 km/h
2675 03-12-2010 14:00:00 -4.26 C 2.38 g/m*3 -4.26 C 0 km/h
Sensor: Nr:Datum:Temp:Abs-Feuchte:Windchill:Wind:
Aussen-T/F 2676 03-12-2010 15:00:00 -4.68 C 2.4 g/m*3 -4.68 C 0 km/h
2677 03-12-2010 16:00:00 -6.18 C 2.37 g/m*3 -6.18 C 0 km/h
2678 03-12-2010 17:00:00 -6.98 C 2.34 g/m*3 -6.98 C 0 km/h
2679 03-12-2010 18:00:00 -7.02 C 2.36 g/m*3 -7.02 C 0 km/h
2680 03-12-2010 19:00:00 -5.74 C 2.63 g/m*3 -5.74 C 0 km/h
2681 03-12-2010 20:00:00 -5.36 C 2.64 g/m*3 -5.36 C 0 km/h
2682 03-12-2010 21:00:00 -5.72 C 2.55 g/m*3 -5.72 C 0 km/h
2683 03-12-2010 22:00:00 -6.78 C 2.39 g/m*3 -6.78 C 0 km/h
2684 03-12-2010 23:00:00 -7.92 C 2.24 g/m*3 -7.92 C 0 km/h
2685 04-12-2010 00:00:00 -8.5 C 2.17 g/m*3 -8.5 C 0 km/h
2686 04-12-2010 01:00:00 -9.1 C 2.06 g/m*3 -9.1 C 0 km/h
2687 04-12-2010 02:00:00 -9.26 C 2.02 g/m*3 -9.26 C 0 km/h
2688 04-12-2010 03:00:00 -9.94 C 1.9 g/m*3 -9.94 C 0 km/h
2689 04-12-2010 04:00:00 -7.96 C 2.24 g/m*3 -7.96 C 0 km/h
2690 04-12-2010 05:00:00 -5.52 C 2.67 g/m*3 -5.52 C 0 km/h
2691 04-12-2010 06:00:00 -4.94 C 2.59 g/m*3 -4.94 C 0 km/h
2692 04-12-2010 07:00:00 -5.14 C 2.58 g/m*3 -5.14 C 0 km/h
2693 04-12-2010 08:00:00 -3.94 C 2.67 g/m*3 -3.94 C 0 km/h
2694 04-12-2010 09:00:00 -3.1 C 2.58 g/m*3 -3.1 C 0 km/h
2695 04-12-2010 10:00:00 -2.12 C 2.68 g/m*3 -2.12 C 0 km/h
2696 04-12-2010 11:00:00 -1.38 C 2.45 g/m*3 -1.38 C 0 km/h
2697 04-12-2010 12:00:00 -0.86 C 2.46 g/m*3 -0.86 C 0 km/h
2698 04-12-2010 13:00:00 -1.4 C 2.41 g/m*3 -1.4 C 0 km/h
2699 04-12-2010 14:00:00 -1 C 2.47 g/m*3 -1 C 0 km/h
2700 04-12-2010 15:00:00 -0.92 C 2.52 g/m*3 -0.92 C 0 km/h
Sensor: Nr:Datum:Temp:Abs-Feuchte:Windchill:Wind:
Aussen-T/F 2701 04-12-2010 16:00:00 -1.22 C 2.64 g/m*3 -1.22 C 0 km/h
2702 04-12-2010 17:00:00 -1.08 C 2.76 g/m*3 -1.08 C 0 km/h
2703 04-12-2010 18:00:00 -0.9 C 2.79 g/m*3 -0.9 C 0 km/h
2704 04-12-2010 19:00:00 -0.92 C 2.79 g/m*3 -0.92 C 0 km/h
2705 04-12-2010 20:00:00 -0.96 C 2.87 g/m*3 -0.96 C 0 km/h
2706 04-12-2010 21:00:00 -1.1 C 3.13 g/m*3 -1.1 C 0 km/h
2707 04-12-2010 22:00:00 -1.18 C 3.46 g/m*3 -1.18 C 0 km/h
2708 04-12-2010 23:00:00 -1.12 C 3.51 g/m*3 -1.12 C 0 km/h
2709 05-12-2010 00:00:00 -0.5 C 3.48 g/m*3 -0.5 C 0 km/h
2710 05-12-2010 01:00:00 0.12 C 3.31 g/m*3 0.12 C 0 km/h
2711 05-12-2010 02:00:00 0.02 C 3.49 g/m*3 0.02 C 0 km/h
2712 05-12-2010 03:00:00 0.12 C 3.53 g/m*3 0.12 C 0 km/h
2713 05-12-2010 04:00:00 0.12 C 3.58 g/m*3 0.12 C 0 km/h
2714 05-12-2010 05:00:00 0.22 C 3.25 g/m*3 0.22 C 0 km/h
2715 05-12-2010 06:00:00 0.22 C 3.02 g/m*3 0.22 C 0 km/h
2716 05-12-2010 07:00:00 -0.08 C 2.91 g/m*3 -0.08 C 0 km/h
2717 05-12-2010 08:00:00 -0.32 C 2.9 g/m*3 -0.32 C 0 km/h
2718 05-12-2010 09:00:00 0.02 C 2.96 g/m*3 0.02 C 0 km/h
2719 05-12-2010 10:00:00 1.68 C 2.83 g/m*3 1.68 C 0 km/h
2720 05-12-2010 11:00:00 2.54 C 2.77 g/m*3 2.54 C 0 km/h
2721 05-12-2010 12:00:00 3.1 C 2.67 g/m*3 3.1 C 0 km/h
2722 05-12-2010 13:00:00 3.4 C 2.63 g/m*3 3.4 C 0 km/h
2723 05-12-2010 14:00:00 3.24 C 2.6 g/m*3 3.24 C 0 km/h
2724 05-12-2010 15:00:00 2.22 C 3.05 g/m*3 2.22 C 0 km/h
2725 05-12-2010 16:00:00 1.24 C 3.28 g/m*3 1.24 C 0 km/h
Sensor: Nr:Datum:Temp:Abs-Feuchte:Windchill:Wind:
Aussen-T/F 2726 05-12-2010 17:00:00 1.38 C 3.4 g/m*3 1.38 C 0 km/h
2727 05-12-2010 18:00:00 0.88 C 3.81 g/m*3 0.88 C 0 km/h
2728 05-12-2010 19:00:00 0.86 C 3.97 g/m*3 0.86 C 0 km/h
2729 05-12-2010 20:00:00 0.62 C 4.08 g/m*3 0.62 C 0 km/h
2730 05-12-2010 21:00:00 0.34 C 4.27 g/m*3 0.34 C 0 km/h
2731 05-12-2010 22:00:00 0.36 C 4.35 g/m*3 0.36 C 0 km/h
2732 05-12-2010 23:00:00 0.2 C 4.33 g/m*3 0.2 C 0 km/h
2733 06-12-2010 00:00:00 0.12 C 4.35 g/m*3 0.12 C 0 km/h
2734 06-12-2010 01:00:00 0.12 C 4.38 g/m*3 0.12 C 0 km/h
2735 06-12-2010 02:00:00 0.1 C 4.39 g/m*3 0.1 C 0 km/h
2736 06-12-2010 03:00:00 0.1 C 4.35 g/m*3 0.1 C 0 km/h
2737 06-12-2010 04:00:00 0.14 C 4.38 g/m*3 0.14 C 0 km/h
2738 06-12-2010 05:00:00 0.04 C 4.33 g/m*3 0.04 C 0 km/h
2739 06-12-2010 06:00:00 0.02 C 4.37 g/m*3 0.02 C 0 km/h
2740 06-12-2010 07:00:00 0 C 4.34 g/m*3 0 C 0 km/h
2741 06-12-2010 08:00:00 0.06 C 4.31 g/m*3 0.06 C 0 km/h
2742 06-12-2010 09:00:00 0.84 C 4.37 g/m*3 0.84 C 0 km/h
2743 06-12-2010 10:00:00 1.38 C 4.04 g/m*3 1.38 C 0 km/h
2744 06-12-2010 11:00:00 1.88 C 3.94 g/m*3 1.88 C 0 km/h
2745 06-12-2010 12:00:00 2.4 C 3.76 g/m*3 2.4 C 0 km/h
2746 06-12-2010 13:00:00 2.54 C 3.68 g/m*3 2.54 C 0 km/h
2747 06-12-2010 14:00:00 1.9 C 3.59 g/m*3 1.9 C 0 km/h
2748 06-12-2010 15:00:00 0.96 C 3.65 g/m*3 0.96 C 0 km/h
2749 06-12-2010 16:00:00 -0.26 C 3.69 g/m*3 -0.26 C 0 km/h
2750 06-12-2010 17:00:00 -0.68 C 3.73 g/m*3 -0.68 C 0 km/h
Sensor: Nr:Datum:Temp:Abs-Feuchte:Windchill:Wind:
Aussen-T/F 2751 06-12-2010 18:00:00 -0.9 C 3.76 g/m*3 -0.9 C 0 km/h
2752 06-12-2010 19:00:00 -0.84 C 3.75 g/m*3 -0.84 C 0 km/h
2753 06-12-2010 20:00:00 -1.14 C 3.67 g/m*3 -1.14 C 0 km/h
2754 06-12-2010 21:00:00 -1.275 C 3.64 g/m*3 -1.27 C 0 km/h
2755 06-12-2010 22:00:00 -1.24 C 3.68 g/m*3 -1.24 C 0 km/h
2756 06-12-2010 23:00:00 -0.68 C 3.74 g/m*3 -0.68 C 0 km/h
2757 07-12-2010 00:00:00 -1.06 C 3.6 g/m*3 -1.06 C 0 km/h
2758 07-12-2010 01:00:00 -1.16 C 3.68 g/m*3 -1.16 C 0 km/h
2759 07-12-2010 02:00:00 -0.56 C 3.77 g/m*3 -0.56 C 0 km/h
2760 07-12-2010 03:00:00 -0.56 C 3.73 g/m*3 -0.56 C 0 km/h
2761 07-12-2010 04:00:00 -0.74 C 3.7 g/m*3 -0.74 C 0 km/h
2762 07-12-2010 05:00:00 -0.94 C 3.68 g/m*3 -0.94 C 0 km/h
2763 07-12-2010 06:00:00 -0.78 C 3.68 g/m*3 -0.78 C 0 km/h
2764 07-12-2010 07:00:00 -1 C 3.57 g/m*3 -1 C 0 km/h
2765 07-12-2010 08:00:00 -0.84 C 3.6 g/m*3 -0.84 C 0 km/h
2766 07-12-2010 09:00:00 -0.4 C 3.61 g/m*3 -0.4 C 0 km/h
2767 07-12-2010 10:00:00 0.18 C 3.6 g/m*3 0.18 C 0 km/h
2768 07-12-2010 11:00:00 0.56 C 3.61 g/m*3 0.56 C 0 km/h
2769 07-12-2010 12:00:00 1.12 C 3.63 g/m*3 1.12 C 0 km/h
2770 07-12-2010 13:00:00 1.44 C 3.61 g/m*3 1.44 C 0 km/h
2771 07-12-2010 14:00:00 1.06 C 3.67 g/m*3 1.06 C 0 km/h
2772 07-12-2010 15:00:00 0.4 C 3.81 g/m*3 0.4 C 0 km/h
2773 07-12-2010 16:00:00 -0.22 C 4.06 g/m*3 -0.22 C 0 km/h
2774 07-12-2010 17:00:00 -0.3 C 4.2 g/m*3 -0.3 C 0 km/h
2775 07-12-2010 18:00:00 -0.26 C 4.26 g/m*3 -0.26 C 0 km/h
Sensor: Nr:Datum:Temp:Abs-Feuchte:Windchill:Wind:
Aussen-T/F 2776 07-12-2010 19:00:00 -0.2 C 4.31 g/m*3 -0.2 C 0 km/h
2777 07-12-2010 20:00:00 -0.16 C 4.36 g/m*3 -0.16 C 0 km/h
2778 07-12-2010 21:00:00 -0.2 C 4.36 g/m*3 -0.2 C 0 km/h
2779 07-12-2010 22:00:00 -0.18 C 4.4 g/m*3 -0.18 C 0 km/h
2780 07-12-2010 23:00:00 -0.2 C 4.4 g/m*3 -0.2 C 0 km/h
2781 08-12-2010 00:00:00 -0.2 C 4.4 g/m*3 -0.2 C 0 km/h
2782 08-12-2010 01:00:00 -0.2 C 4.4 g/m*3 -0.2 C 0 km/h
2783 08-12-2010 02:00:00 -0.16 C 4.41 g/m*3 -0.16 C 0 km/h
2784 08-12-2010 03:00:00 -0.18 C 4.4 g/m*3 -0.18 C 0 km/h
2785 08-12-2010 04:00:00 -0.08 C 4.43 g/m*3 -0.08 C 0 km/h
2786 08-12-2010 05:00:00 -0.08 C 4.46 g/m*3 -0.08 C 0 km/h
2787 08-12-2010 06:00:00 -0.06 C 4.49 g/m*3 -0.06 C 0 km/h
2788 08-12-2010 07:00:00 -0.02 C 4.5 g/m*3 -0.02 C 0 km/h
2789 08-12-2010 08:00:00 0 C 4.51 g/m*3 0 C 0 km/h
2790 08-12-2010 09:00:00 0.08 C 4.53 g/m*3 0.08 C 0 km/h
2791 08-12-2010 10:00:00 0.18 C 4.56 g/m*3 0.18 C 0 km/h
2792 08-12-2010 11:00:00 0.34 C 4.63 g/m*3 0.34 C 0 km/h
2793 08-12-2010 12:00:00 0.56 C 4.67 g/m*3 0.56 C 0 km/h
2794 08-12-2010 13:00:00 0.62 C 4.58 g/m*3 0.62 C 0 km/h
2795 08-12-2010 14:00:00 0.42 C 4.44 g/m*3 0.42 C 0 km/h
2796 08-12-2010 15:00:00 -0.08 C 4.29 g/m*3 -0.08 C 0 km/h
2797 08-12-2010 16:00:00 -0.3 C 4.26 g/m*3 -0.3 C 0 km/h
2798 08-12-2010 17:00:00 -0.36 C 4.24 g/m*3 -0.36 C 0 km/h
2799 08-12-2010 18:00:00 -0.74 C 4.1 g/m*3 -0.74 C 0 km/h
2800 08-12-2010 19:00:00 -0.92 C 4.05 g/m*3 -0.92 C 0 km/h
Sensor: Nr:Datum:Temp:Abs-Feuchte:Windchill:Wind:
Aussen-T/F 2801 08-12-2010 20:00:00 -1.06 C 4.02 g/m*3 -1.06 C 0 km/h
2802 08-12-2010 21:00:00 -1.24 C 3.94 g/m*3 -1.24 C 0 km/h
2803 08-12-2010 22:00:00 -1.44 C 3.82 g/m*3 -1.44 C 0 km/h
2804 08-12-2010 23:00:00 -1.3 C 3.74 g/m*3 -1.3 C 0 km/h
2805 09-12-2010 00:00:00 -1.32 C 3.64 g/m*3 -1.32 C 0 km/h
2806 09-12-2010 01:00:00 -1.52 C 3.56 g/m*3 -1.52 C 0 km/h
2807 09-12-2010 02:00:00 -1.74 C 3.55 g/m*3 -1.74 C 0 km/h
2808 09-12-2010 03:00:00 -1.7 C 3.69 g/m*3 -1.7 C 0 km/h
2809 09-12-2010 04:00:00 -1.62 C 3.72 g/m*3 -1.62 C 0 km/h
2810 09-12-2010 05:00:00 -1.04 C 3.84 g/m*3 -1.04 C 0 km/h
2811 09-12-2010 06:00:00 -0.42 C 3.9 g/m*3 -0.42 C 0 km/h
2812 09-12-2010 07:00:00 -0.28 C 3.95 g/m*3 -0.28 C 0 km/h
2813 09-12-2010 08:00:00 -0.38 C 3.91 g/m*3 -0.38 C 0 km/h
2814 09-12-2010 09:00:00 -0.08 C 3.93 g/m*3 -0.08 C 0 km/h
2815 09-12-2010 10:00:00 0.32 C 4 g/m*3 0.32 C 0 km/h
2816 09-12-2010 11:00:00 0.8 C 4.06 g/m*3 0.8 C 0 km/h
2817 09-12-2010 12:00:00 2.18 C 4.07 g/m*3 2.18 C 0 km/h
2818 09-12-2010 13:00:00 1.74 C 4.11 g/m*3 1.74 C 0 km/h
2819 09-12-2010 14:00:00 2.12 C 3.92 g/m*3 2.12 C 0 km/h
2820 09-12-2010 15:00:00 1.84 C 3.75 g/m*3 1.84 C 0 km/h
2821 09-12-2010 16:00:00 1.52 C 3.66 g/m*3 1.52 C 0 km/h
2822 09-12-2010 17:00:00 1.5 C 3.89 g/m*3 1.5 C 0 km/h
2823 09-12-2010 18:00:00 1.68 C 4.03 g/m*3 1.68 C 0 km/h
2824 09-12-2010 19:00:00 2.16 C 3.9 g/m*3 2.16 C 0 km/h
2825 09-12-2010 20:00:00 2.44 C 4 g/m*3 2.44 C 0 km/h
Sensor: Nr:Datum:Temp:Abs-Feuchte:Windchill:Wind:
Aussen-T/F 2826 09-12-2010 21:00:00 2.58 C 4.06 g/m*3 2.58 C 0 km/h
2827 09-12-2010 22:00:00 2.44 C 4.16 g/m*3 2.44 C 0 km/h
2828 09-12-2010 23:00:00 1.5 C 4.43 g/m*3 1.5 C 0 km/h
2829 10-12-2010 00:00:00 1.9 C 4.42 g/m*3 1.9 C 0 km/h
2830 10-12-2010 01:00:00 2.04 C 4.36 g/m*3 2.04 C 0 km/h
2831 10-12-2010 02:00:00 1.7 C 4.26 g/m*3 1.7 C 0 km/h
2832 10-12-2010 03:00:00 1.24 C 4.52 g/m*3 1.24 C 0 km/h
2833 10-12-2010 04:00:00 1.7 C 4.79 g/m*3 1.7 C 0 km/h
2834 10-12-2010 05:00:00 2.52 C 4.87 g/m*3 2.52 C 0 km/h
2835 10-12-2010 06:00:00 1.84 C 4.73 g/m*3 1.84 C 0 km/h
2836 10-12-2010 07:00:00 0.76 C 4.53 g/m*3 0.76 C 0 km/h
2837 10-12-2010 08:00:00 -0.32 C 4.28 g/m*3 -0.32 C 0 km/h
2838 10-12-2010 09:00:00 -0.4 C 4.3 g/m*3 -0.4 C 0 km/h
2839 10-12-2010 10:00:00 0.06 C 4.45 g/m*3 0.06 C 0 km/h
2840 10-12-2010 11:00:00 1.38 C 4.82 g/m*3 1.38 C 0 km/h
2841 10-12-2010 12:00:00 2.24 C 4.95 g/m*3 2.24 C 0 km/h
2842 10-12-2010 13:00:00 2.96 C 4.9 g/m*3 2.96 C 0 km/h
2843 10-12-2010 14:00:00 2.82 C 4.65 g/m*3 2.82 C 0 km/h
2844 10-12-2010 15:00:00 1.78 C 4.64 g/m*3 1.78 C 0 km/h
2845 10-12-2010 16:00:00 1.54 C 4.8 g/m*3 1.54 C 0 km/h
2846 10-12-2010 17:00:00 1.84 C 4.95 g/m*3 1.84 C 0 km/h
2847 10-12-2010 18:00:00 1.86 C 4.93 g/m*3 1.86 C 0 km/h
2848 10-12-2010 19:00:00 2.28 C 4.97 g/m*3 2.28 C 0 km/h
2849 10-12-2010 20:00:00 2.6 C 4.93 g/m*3 2.6 C 0 km/h
2850 10-12-2010 21:00:00 2.5 C 4.85 g/m*3 2.5 C 0 km/h
Sensor: Nr:Datum:Temp:Abs-Feuchte:Windchill:Wind:
Aussen-T/F 2851 10-12-2010 22:00:00 2.52 C 4.87 g/m*3 2.52 C 0 km/h
2852 10-12-2010 23:00:00 2.24 C 4.86 g/m*3 2.24 C 0 km/h
2853 11-12-2010 00:00:00 2.18 C 4.97 g/m*3 2.18 C 0 km/h
2854 11-12-2010 01:00:00 2.46 C 5.08 g/m*3 2.46 C 0 km/h
2855 11-12-2010 02:00:00 2.72 C 5.13 g/m*3 2.72 C 0 km/h
2856 11-12-2010 03:00:00 2.54 C 5.1 g/m*3 2.54 C 0 km/h
2857 11-12-2010 04:00:00 3.26 C 5.24 g/m*3 3.26 C 0 km/h
2858 11-12-2010 05:00:00 3.86 C 5.19 g/m*3 3.86 C 0 km/h
2859 11-12-2010 06:00:00 3.36 C 5.15 g/m*3 3.36 C 0 km/h
2860 11-12-2010 07:00:00 4.14 C 5.21 g/m*3 4.14 C 0 km/h
2861 11-12-2010 08:00:00 4.86 C 5.01 g/m*3 4.86 C 0 km/h
2862 11-12-2010 09:00:00 4.16 C 5.04 g/m*3 4.16 C 0 km/h
2863 11-12-2010 10:00:00 3.9 C 5.38 g/m*3 3.9 C 0 km/h
2864 11-12-2010 11:00:00 4.3 C 5.37 g/m*3 4.3 C 0 km/h
2865 11-12-2010 12:00:00 4.54 C 5.56 g/m*3 4.54 C 0 km/h
2866 11-12-2010 13:00:00 4.86 C 5.39 g/m*3 4.86 C 0 km/h
2867 11-12-2010 14:00:00 4.9 C 5.31 g/m*3 4.9 C 0 km/h
2868 11-12-2010 15:00:00 5.06 C 5.18 g/m*3 5.06 C 0 km/h
2869 11-12-2010 16:00:00 4.9 C 5.24 g/m*3 4.9 C 0 km/h
2870 11-12-2010 17:00:00 5.16 C 5.22 g/m*3 5.16 C 0 km/h
2871 11-12-2010 18:00:00 4.22 C 5.21 g/m*3 4.22 C 0 km/h
2872 11-12-2010 19:00:00 4.26 C 5.2 g/m*3 4.26 C 0 km/h
2873 11-12-2010 20:00:00 4.82 C 5.01 g/m*3 4.82 C 0 km/h
2874 11-12-2010 21:00:00 4.4 C 5.04 g/m*3 4.4 C 0 km/h
2875 11-12-2010 22:00:00 4.3 C 5.03 g/m*3 4.3 C 0 km/h
Sensor: Nr:Datum:Temp:Abs-Feuchte:Windchill:Wind:
Aussen-T/F 2876 11-12-2010 23:00:00 4.66 C 4.89 g/m*3 4.66 C 0 km/h
2877 12-12-2010 00:00:00 4.26 C 4.97 g/m*3 4.26 C 0 km/h
2878 12-12-2010 01:00:00 4.84 C 4.84 g/m*3 4.84 C 0 km/h
2879 12-12-2010 02:00:00 4.82 C 4.58 g/m*3 4.82 C 0 km/h
2880 12-12-2010 03:00:00 4.2 C 4.66 g/m*3 4.2 C 0 km/h
2881 12-12-2010 04:00:00 3.68 C 5.18 g/m*3 3.68 C 0 km/h
2882 12-12-2010 05:00:00 3.44 C 5.11 g/m*3 3.44 C 0 km/h
2883 12-12-2010 06:00:00 3.04 C 5.07 g/m*3 3.04 C 0 km/h
2884 12-12-2010 07:00:00 3.86 C 4.93 g/m*3 3.86 C 0 km/h
2885 12-12-2010 08:00:00 3.62 C 4.87 g/m*3 3.62 C 0 km/h
2886 12-12-2010 09:00:00 3.7 C 4.96 g/m*3 3.7 C 0 km/h
2887 12-12-2010 10:00:00 3.86 C 5.03 g/m*3 3.86 C 0 km/h
2888 12-12-2010 11:00:00 4.12 C 5.14 g/m*3 4.12 C 0 km/h
2889 12-12-2010 12:00:00 4.5 C 5.34 g/m*3 4.5 C 0 km/h
2890 12-12-2010 13:00:00 4.82 C 5.17 g/m*3 4.82 C 0 km/h
2891 12-12-2010 14:00:00 3.46 C 4.95 g/m*3 3.46 C 0 km/h
2892 12-12-2010 15:00:00 3.1 C 5.21 g/m*3 3.1 C 0 km/h
2893 12-12-2010 16:00:00 2.7 C 5.12 g/m*3 2.7 C 0 km/h
2894 12-12-2010 17:00:00 2.48 C 4.62 g/m*3 2.48 C 0 km/h
2895 12-12-2010 18:00:00 1.86 C 4.15 g/m*3 1.86 C 0 km/h
2896 12-12-2010 19:00:00 1.38 C 3.91 g/m*3 1.38 C 0 km/h
2897 12-12-2010 20:00:00 1.18 C 3.56 g/m*3 1.18 C 0 km/h
2898 12-12-2010 21:00:00 0.76 C 3.35 g/m*3 0.76 C 0 km/h
2899 12-12-2010 22:00:00 0.4 C 3.18 g/m*3 0.4 C 0 km/h
2900 12-12-2010 23:00:00 -0.04 C 2.73 g/m*3 -0.04 C 0 km/h
Sensor: Nr:Datum:Temp:Abs-Feuchte:Windchill:Wind:
Aussen-T/F 2901 13-12-2010 00:00:00 -0.52 C 2.5 g/m*3 -0.52 C 0 km/h
2902 13-12-2010 01:00:00 -0.84 C 2.45 g/m*3 -0.84 C 0 km/h
2903 13-12-2010 02:00:00 -2.28 C 2.3 g/m*3 -2.28 C 0 km/h
2904 13-12-2010 03:00:00 -3.5 C 2.27 g/m*3 -3.5 C 0 km/h
2905 13-12-2010 04:00:00 -4.2 C 2.29 g/m*3 -4.2 C 0 km/h
2906 13-12-2010 05:00:00 -5.8 C 2.22 g/m*3 -5.8 C 0 km/h
2907 13-12-2010 06:00:00 -6.94 C 2.21 g/m*3 -6.94 C 0 km/h
2908 13-12-2010 07:00:00 -7.2 C 2.22 g/m*3 -7.2 C 0 km/h
2909 13-12-2010 08:00:00 -7.18 C 2.27 g/m*3 -7.18 C 0 km/h
2910 13-12-2010 09:00:00 -7.12 C 2.29 g/m*3 -7.12 C 0 km/h
2911 13-12-2010 10:00:00 -6.62 C 2.4 g/m*3 -6.62 C 0 km/h
2912 13-12-2010 11:00:00 -4 C 2.63 g/m*3 -4 C 0 km/h
2913 13-12-2010 12:00:00 -2.78 C 2.52 g/m*3 -2.78 C 0 km/h
2914 13-12-2010 13:00:00 -2.32 C 2.5 g/m*3 -2.32 C 0 km/h
2915 13-12-2010 14:00:00 -2.2 C 2.39 g/m*3 -2.2 C 0 km/h
2916 13-12-2010 15:00:00 -3.66 C 2.47 g/m*3 -3.66 C 0 km/h
2917 13-12-2010 16:00:00 -4.98 C 2.58 g/m*3 -4.98 C 0 km/h
2918 13-12-2010 17:00:00 -5.88 C 2.5 g/m*3 -5.88 C 0 km/h
2919 13-12-2010 18:00:00 -6.2 C 2.48 g/m*3 -6.2 C 0 km/h
2920 13-12-2010 19:00:00 -5.44 C 2.72 g/m*3 -5.44 C 0 km/h
2921 13-12-2010 20:00:00 -4.86 C 2.8 g/m*3 -4.86 C 0 km/h
2922 13-12-2010 21:00:00 -4.22 C 2.82 g/m*3 -4.22 C 0 km/h
2923 13-12-2010 22:00:00 -3.92 C 2.86 g/m*3 -3.92 C 0 km/h
2924 13-12-2010 23:00:00 -4.1 C 3 g/m*3 -4.1 C 0 km/h
2925 14-12-2010 00:00:00 -4.1 C 3.02 g/m*3 -4.1 C 0 km/h
Sensor: Nr:Datum:Temp:Abs-Feuchte:Windchill:Wind:
Aussen-T/F 2926 14-12-2010 01:00:00 -4.06 C 3.03 g/m*3 -4.06 C 0 km/h
2927 14-12-2010 02:00:00 -3.84 C 3.07 g/m*3 -3.84 C 0 km/h
2928 14-12-2010 03:00:00 -3.66 C 3.11 g/m*3 -3.66 C 0 km/h
2929 14-12-2010 04:00:00 -3.62 C 3.09 g/m*3 -3.62 C 0 km/h
2930 14-12-2010 05:00:00 -3.8 C 3.04 g/m*3 -3.8 C 0 km/h
2931 14-12-2010 06:00:00 -4.7 C 2.87 g/m*3 -4.7 C 0 km/h
2932 14-12-2010 07:00:00 -6.22 C 2.59 g/m*3 -6.22 C 0 km/h
2933 14-12-2010 08:00:00 -6.38 C 2.62 g/m*3 -6.38 C 0 km/h
2934 14-12-2010 09:00:00 -6 C 2.69 g/m*3 -6 C 0 km/h
2935 14-12-2010 10:00:00 -4.06 C 3 g/m*3 -4.06 C 0 km/h
2936 14-12-2010 11:00:00 -3.24 C 2.75 g/m*3 -3.24 C 0 km/h
2937 14-12-2010 12:00:00 -2.42 C 2.66 g/m*3 -2.42 C 0 km/h
2938 14-12-2010 13:00:00 -2.2 C 2.64 g/m*3 -2.2 C 0 km/h
2939 14-12-2010 14:00:00 -2.44 C 2.66 g/m*3 -2.44 C 0 km/h
2940 14-12-2010 15:00:00 -2.76 C 2.7 g/m*3 -2.76 C 0 km/h
2941 14-12-2010 16:00:00 -2.9 C 2.8 g/m*3 -2.9 C 0 km/h
2942 14-12-2010 17:00:00 -2.98 C 2.91 g/m*3 -2.98 C 0 km/h
2943 14-12-2010 18:00:00 -3.06 C 2.78 g/m*3 -3.06 C 0 km/h
2944 14-12-2010 19:00:00 -2.82 C 2.84 g/m*3 -2.82 C 0 km/h
2945 14-12-2010 20:00:00 -3.04 C 2.74 g/m*3 -3.04 C 0 km/h
2946 14-12-2010 21:00:00 -3.12 C 2.64 g/m*3 -3.12 C 0 km/h
2947 14-12-2010 22:00:00 -3.16 C 2.58 g/m*3 -3.16 C 0 km/h
2948 14-12-2010 23:00:00 -3.22 C 2.51 g/m*3 -3.22 C 0 km/h
2949 15-12-2010 00:00:00 -3.3 C 2.5 g/m*3 -3.3 C 0 km/h
2950 15-12-2010 01:00:00 -3.26 C 2.57 g/m*3 -3.26 C 0 km/h
Sensor: Nr:Datum:Temp:Abs-Feuchte:Windchill:Wind:
Aussen-T/F 2951 15-12-2010 02:00:00 -4.16 C 2.54 g/m*3 -4.16 C 0 km/h
2952 15-12-2010 03:00:00 -4.9 C 2.5 g/m*3 -4.9 C 0 km/h
2953 15-12-2010 04:00:00 -4.86 C 2.54 g/m*3 -4.86 C 0 km/h
2954 15-12-2010 05:00:00 -4.72 C 2.63 g/m*3 -4.72 C 0 km/h
2955 15-12-2010 06:00:00 -3.78 C 2.71 g/m*3 -3.78 C 0 km/h
2956 15-12-2010 07:00:00 -3.42 C 2.81 g/m*3 -3.42 C 0 km/h
2957 15-12-2010 08:00:00 -3.3 C 2.88 g/m*3 -3.3 C 0 km/h
2958 15-12-2010 09:00:00 -2.56 C 3.02 g/m*3 -2.56 C 0 km/h
2959 15-12-2010 10:00:00 -1.76 C 3.22 g/m*3 -1.76 C 0 km/h
2960 15-12-2010 11:00:00 -0.68 C 3.51 g/m*3 -0.68 C 0 km/h
2961 15-12-2010 12:00:00 -0.48 C 3.47 g/m*3 -0.48 C 0 km/h
2962 15-12-2010 13:00:00 -0.38 C 3.56 g/m*3 -0.38 C 0 km/h
2963 15-12-2010 14:00:00 -0.12 C 3.36 g/m*3 -0.12 C 0 km/h
2964 15-12-2010 15:00:00 -1.44 C 2.8 g/m*3 -1.44 C 0 km/h
2965 15-12-2010 16:00:00 -3.2 C 2.7 g/m*3 -3.2 C 0 km/h
2966 15-12-2010 17:00:00 -4.34 C 2.74 g/m*3 -4.34 C 0 km/h
2967 15-12-2010 18:00:00 -4.86 C 2.77 g/m*3 -4.86 C 0 km/h
2968 15-12-2010 19:00:00 -4.42 C 2.86 g/m*3 -4.42 C 0 km/h
2969 15-12-2010 20:00:00 -3.62 C 2.83 g/m*3 -3.62 C 0 km/h
2970 15-12-2010 21:00:00 -3.18 C 2.77 g/m*3 -3.18 C 0 km/h
2971 15-12-2010 22:00:00 -3.78 C 2.76 g/m*3 -3.78 C 0 km/h
2972 15-12-2010 23:00:00 -4.54 C 2.76 g/m*3 -4.54 C 0 km/h
2973 16-12-2010 00:00:00 -4.68 C 2.85 g/m*3 -4.68 C 0 km/h
2974 16-12-2010 01:00:00 -4.84 C 2.87 g/m*3 -4.84 C 0 km/h
2975 16-12-2010 02:00:00 -5.3 C 2.73 g/m*3 -5.3 C 0 km/h
Sensor: Nr:Datum:Temp:Abs-Feuchte:Windchill:Wind:
Aussen-T/F 2976 16-12-2010 03:00:00 -5.36 C 2.75 g/m*3 -5.36 C 0 km/h
2977 16-12-2010 04:00:00 -5.58 C 2.66 g/m*3 -5.58 C 0 km/h
2978 16-12-2010 05:00:00 -6.4 C 2.41 g/m*3 -6.4 C 0 km/h
2979 16-12-2010 06:00:00 -7.54 C 2.25 g/m*3 -7.54 C 0 km/h
2980 16-12-2010 07:00:00 -8.28 C 2.11 g/m*3 -8.28 C 0 km/h
2981 16-12-2010 08:00:00 -7.86 C 2.18 g/m*3 -7.86 C 0 km/h
2982 16-12-2010 09:00:00 -6.6 C 2.26 g/m*3 -6.6 C 0 km/h
2983 16-12-2010 10:00:00 -4.84 C 2.47 g/m*3 -4.84 C 0 km/h
2984 16-12-2010 11:00:00 -3.42 C 2.65 g/m*3 -3.42 C 0 km/h
2985 16-12-2010 12:00:00 -2.84 C 2.8 g/m*3 -2.84 C 0 km/h
2986 16-12-2010 13:00:00 -2.12 C 2.99 g/m*3 -2.12 C 0 km/h
2987 16-12-2010 14:00:00 -1.72 C 3.2 g/m*3 -1.72 C 0 km/h
2988 16-12-2010 15:00:00 -1.4 C 3.45 g/m*3 -1.4 C 0 km/h
2989 16-12-2010 16:00:00 -1.3 C 3.43 g/m*3 -1.3 C 0 km/h
2990 16-12-2010 17:00:00 -1.26 C 3.47 g/m*3 -1.26 C 0 km/h
2991 16-12-2010 18:00:00 -0.7 C 3.61 g/m*3 -0.7 C 0 km/h
2992 16-12-2010 19:00:00 -0.28 C 3.67 g/m*3 -0.28 C 0 km/h
2993 16-12-2010 20:00:00 0.02 C 3.69 g/m*3 0.02 C 0 km/h
2994 16-12-2010 21:00:00 -0.12 C 3.79 g/m*3 -0.12 C 0 km/h
2995 16-12-2010 22:00:00 -0.34 C 3.88 g/m*3 -0.34 C 0 km/h
2996 16-12-2010 23:00:00 -0.46 C 3.84 g/m*3 -0.46 C 0 km/h
2997 17-12-2010 00:00:00 -0.28 C 3.85 g/m*3 -0.28 C 0 km/h
2998 17-12-2010 01:00:00 -0.34 C 3.88 g/m*3 -0.34 C 0 km/h
2999 17-12-2010 02:00:00 -0.58 C 3.62 g/m*3 -0.58 C 0 km/h
3000 17-12-2010 03:00:00 -1.2 C 3.36 g/m*3 -1.2 C 0 km/h
Sensor: Nr:Datum:Temp:Abs-Feuchte:Windchill:Wind:
Aussen-T/F 3001 17-12-2010 04:00:00 -1.28 C 3.16 g/m*3 -1.28 C 0 km/h
3002 17-12-2010 05:00:00 -1.62 C 3.26 g/m*3 -1.62 C 0 km/h
3003 17-12-2010 06:00:00 -2.24 C 2.97 g/m*3 -2.24 C 0 km/h
3004 17-12-2010 07:00:00 -2.28 C 2.65 g/m*3 -2.28 C 0 km/h
3005 17-12-2010 08:00:00 -2.22 C 3 g/m*3 -2.22 C 0 km/h
3006 17-12-2010 09:00:00 -1.92 C 3.01 g/m*3 -1.92 C 0 km/h
3007 17-12-2010 10:00:00 -1.66 C 2.95 g/m*3 -1.66 C 0 km/h
3008 17-12-2010 11:00:00 -1.2 C 2.74 g/m*3 -1.2 C 0 km/h
3009 17-12-2010 12:00:00 -1.14 C 2.52 g/m*3 -1.14 C 0 km/h
3010 17-12-2010 13:00:00 -1.22 C 2.43 g/m*3 -1.22 C 0 km/h
3011 17-12-2010 14:00:00 -1.4 C 2.66 g/m*3 -1.4 C 0 km/h
3012 17-12-2010 15:00:00 -1.82 C 2.98 g/m*3 -1.82 C 0 km/h
3013 17-12-2010 16:00:00 -2.08 C 3 g/m*3 -2.08 C 0 km/h
3014 17-12-2010 17:00:00 -4.06 C 2.8 g/m*3 -4.06 C 0 km/h
3015 17-12-2010 18:00:00 -5.22 C 2.69 g/m*3 -5.22 C 0 km/h
3016 17-12-2010 19:00:00 -6.48 C 2.51 g/m*3 -6.48 C 0 km/h
3017 17-12-2010 20:00:00 -6.58 C 2.52 g/m*3 -6.58 C 0 km/h
3018 17-12-2010 21:00:00 -6.94 C 2.44 g/m*3 -6.94 C 0 km/h
3019 17-12-2010 22:00:00 -6.92 C 2.44 g/m*3 -6.92 C 0 km/h
3020 17-12-2010 23:00:00 -5.9 C 2.66 g/m*3 -5.9 C 0 km/h
3021 18-12-2010 00:00:00 -4.74 C 2.93 g/m*3 -4.74 C 0 km/h
3022 18-12-2010 01:00:00 -4.44 C 2.9 g/m*3 -4.44 C 0 km/h
3023 18-12-2010 02:00:00 -5.28 C 2.7 g/m*3 -5.28 C 0 km/h
3024 18-12-2010 03:00:00 -4.36 C 2.87 g/m*3 -4.36 C 0 km/h
3025 18-12-2010 04:00:00 -4.36 C 2.94 g/m*3 -4.36 C 0 km/h
Sensor: Nr:Datum:Temp:Abs-Feuchte:Windchill:Wind:
Aussen-T/F 3026 18-12-2010 05:00:00 -4.44 C 2.98 g/m*3 -4.44 C 0 km/h
3027 18-12-2010 06:00:00 -4.34 C 3.01 g/m*3 -4.34 C 0 km/h
3028 18-12-2010 07:00:00 -5.26 C 2.81 g/m*3 -5.26 C 0 km/h
3029 18-12-2010 08:00:00 -5.34 C 2.8 g/m*3 -5.34 C 0 km/h
3030 18-12-2010 09:00:00 -4.84 C 2.73 g/m*3 -4.84 C 0 km/h
3031 18-12-2010 10:00:00 -3.82 C 2.68 g/m*3 -3.82 C 0 km/h
3032 18-12-2010 11:00:00 -3.48 C 2.59 g/m*3 -3.48 C 0 km/h
3033 18-12-2010 12:00:00 -3.28 C 2.46 g/m*3 -3.28 C 0 km/h
3034 18-12-2010 13:00:00 -2.96 C 2.36 g/m*3 -2.96 C 0 km/h
3035 18-12-2010 14:00:00 -3.84 C 2.29 g/m*3 -3.84 C 0 km/h
3036 18-12-2010 15:00:00 -5.48 C 2.31 g/m*3 -5.48 C 0 km/h
3037 18-12-2010 16:00:00 -7.06 C 2.27 g/m*3 -7.06 C 0 km/h
3038 18-12-2010 17:00:00 -7.56 C 2.29 g/m*3 -7.56 C 0 km/h
3039 18-12-2010 18:00:00 -6.74 C 2.48 g/m*3 -6.74 C 0 km/h
3040 18-12-2010 19:00:00 -5.34 C 2.79 g/m*3 -5.34 C 0 km/h
3041 18-12-2010 20:00:00 -4.36 C 2.97 g/m*3 -4.36 C 0 km/h
3042 18-12-2010 21:00:00 -3.98 C 3.05 g/m*3 -3.98 C 0 km/h
3043 18-12-2010 22:00:00 -3.42 C 3.2 g/m*3 -3.42 C 0 km/h
3044 18-12-2010 23:00:00 -3.08 C 3.28 g/m*3 -3.08 C 0 km/h
3045 19-12-2010 00:00:00 -2.56 C 3.41 g/m*3 -2.56 C 0 km/h
3046 19-12-2010 01:00:00 -2.44 C 3.53 g/m*3 -2.44 C 0 km/h
3047 19-12-2010 02:00:00 -2.5 C 3.54 g/m*3 -2.5 C 0 km/h
3048 19-12-2010 03:00:00 -2.7 C 3.49 g/m*3 -2.7 C 0 km/h
3049 19-12-2010 04:00:00 -2.46 C 3.55 g/m*3 -2.46 C 0 km/h
3050 19-12-2010 05:00:00 -1.02 C 3.67 g/m*3 -1.02 C 0 km/h
Sensor: Nr:Datum:Temp:Abs-Feuchte:Windchill:Wind:
Aussen-T/F 3051 19-12-2010 06:00:00 -1.64 C 3.24 g/m*3 -1.64 C 0 km/h
3052 19-12-2010 07:00:00 -2.58 C 3.19 g/m*3 -2.58 C 0 km/h
3053 19-12-2010 08:00:00 -2.5 C 3.2 g/m*3 -2.5 C 0 km/h
3054 19-12-2010 09:00:00 -2.04 C 3.37 g/m*3 -2.04 C 0 km/h
3055 19-12-2010 10:00:00 -0.94 C 3.41 g/m*3 -0.94 C 0 km/h
3056 19-12-2010 11:00:00 -0.38 C 3.56 g/m*3 -0.38 C 0 km/h
3057 19-12-2010 12:00:00 0.3 C 3.6 g/m*3 0.3 C 0 km/h
3058 19-12-2010 13:00:00 0.14 C 3.71 g/m*3 0.14 C 0 km/h
3059 19-12-2010 14:00:00 -0.18 C 3.94 g/m*3 -0.18 C 0 km/h
3060 19-12-2010 15:00:00 -0.4 C 4.08 g/m*3 -0.4 C 0 km/h
3061 19-12-2010 16:00:00 -0.3 C 4.23 g/m*3 -0.3 C 0 km/h
3062 19-12-2010 17:00:00 -0.2 C 4.33 g/m*3 -0.2 C 0 km/h
3063 19-12-2010 18:00:00 -0.18 C 4.36 g/m*3 -0.18 C 0 km/h
3064 19-12-2010 19:00:00 -0.04 C 4.45 g/m*3 -0.04 C 0 km/h
3065 19-12-2010 20:00:00 0.08 C 4.49 g/m*3 0.08 C 0 km/h
3066 19-12-2010 21:00:00 1.1 C 4.84 g/m*3 1.1 C 0 km/h
3067 19-12-2010 22:00:00 1.92 C 5.06 g/m*3 1.92 C 0 km/h
3068 19-12-2010 23:00:00 4.42 C 5.05 g/m*3 4.42 C 0 km/h
3069 20-12-2010 00:00:00 4.02 C 4.62 g/m*3 4.02 C 0 km/h
3070 20-12-2010 01:00:00 1.68 C 4.43 g/m*3 1.68 C 0 km/h
3071 20-12-2010 02:00:00 0.42 C 3.7 g/m*3 0.42 C 0 km/h
3072 20-12-2010 03:00:00 -0.08 C 3.63 g/m*3 -0.08 C 0 km/h
3073 20-12-2010 04:00:00 -0.44 C 3.67 g/m*3 -0.44 C 0 km/h
3074 20-12-2010 05:00:00 -1.02 C 3.56 g/m*3 -1.02 C 0 km/h
3075 20-12-2010 06:00:00 -1.66 C 3.46 g/m*3 -1.66 C 0 km/h
Sensor: Nr:Datum:Temp:Abs-Feuchte:Windchill:Wind:
Aussen-T/F 3076 20-12-2010 07:00:00 -2.6 C 3.38 g/m*3 -2.6 C 0 km/h
3077 20-12-2010 08:00:00 -2.42 C 3.54 g/m*3 -2.42 C 0 km/h
3078 20-12-2010 09:00:00 -1.8 C 3.59 g/m*3 -1.8 C 0 km/h
3079 20-12-2010 10:00:00 -1.22 C 3.33 g/m*3 -1.22 C 0 km/h
3080 20-12-2010 11:00:00 -0.8 C 3.28 g/m*3 -0.8 C 0 km/h
3081 20-12-2010 12:00:00 -1.06 C 3.27 g/m*3 -1.06 C 0 km/h
3082 20-12-2010 13:00:00 -0.92 C 3.28 g/m*3 -0.92 C 0 km/h
3083 20-12-2010 14:00:00 -0.98 C 3.26 g/m*3 -0.98 C 0 km/h
3084 20-12-2010 15:00:00 -1.08 C 3.26 g/m*3 -1.08 C 0 km/h
3085 20-12-2010 16:00:00 -3.04 C 3.05 g/m*3 -3.04 C 0 km/h
3086 20-12-2010 17:00:00 -3.52 C 3.23 g/m*3 -3.52 C 0 km/h
3087 20-12-2010 18:00:00 -3.04 C 3.42 g/m*3 -3.04 C 0 km/h
3088 20-12-2010 19:00:00 -3 C 3.45 g/m*3 -3 C 0 km/h
3089 20-12-2010 20:00:00 -2.92 C 3.48 g/m*3 -2.92 C 0 km/h
3090 20-12-2010 21:00:00 -3.64 C 3.26 g/m*3 -3.64 C 0 km/h
3091 20-12-2010 22:00:00 -4.3 C 3.11 g/m*3 -4.3 C 0 km/h
3092 20-12-2010 23:00:00 -3.46 C 3.37 g/m*3 -3.46 C 0 km/h
3093 21-12-2010 00:00:00 -3.62 C 3.33 g/m*3 -3.62 C 0 km/h
3094 21-12-2010 01:00:00 -2.88 C 3.53 g/m*3 -2.88 C 0 km/h
3095 21-12-2010 02:00:00 -2.6 C 3.6 g/m*3 -2.6 C 0 km/h
3096 21-12-2010 03:00:00 -2.54 C 3.57 g/m*3 -2.54 C 0 km/h
3097 21-12-2010 04:00:00 -2.14 C 3.67 g/m*3 -2.14 C 0 km/h
3098 21-12-2010 05:00:00 -1.88 C 3.76 g/m*3 -1.88 C 0 km/h
3099 21-12-2010 06:00:00 -1.78 C 3.81 g/m*3 -1.78 C 0 km/h
3100 21-12-2010 07:00:00 -1.7 C 3.83 g/m*3 -1.7 C 0 km/h
Sensor: Nr:Datum:Temp:Abs-Feuchte:Windchill:Wind:
Aussen-T/F 3101 21-12-2010 08:00:00 -1.64 C 3.85 g/m*3 -1.64 C 0 km/h
3102 21-12-2010 09:00:00 -1.24 C 3.91 g/m*3 -1.24 C 0 km/h
3103 21-12-2010 10:00:00 -0.6 C 3.91 g/m*3 -0.6 C 0 km/h
3104 21-12-2010 11:00:00 0.5 C 3.98 g/m*3 0.5 C 0 km/h
3105 21-12-2010 12:00:00 1.14 C 3.97 g/m*3 1.14 C 0 km/h
3106 21-12-2010 13:00:00 1.44 C 4.12 g/m*3 1.44 C 0 km/h
3107 21-12-2010 14:00:00 1.24 C 4.06 g/m*3 1.24 C 0 km/h
3108 21-12-2010 15:00:00 1.18 C 4.18 g/m*3 1.18 C 0 km/h
3109 21-12-2010 16:00:00 0.58 C 4.2 g/m*3 0.58 C 0 km/h
3110 21-12-2010 17:00:00 0.16 C 4.28 g/m*3 0.16 C 0 km/h
3111 21-12-2010 18:00:00 0.18 C 4.38 g/m*3 0.18 C 0 km/h
3112 21-12-2010 19:00:00 0.12 C 4.4 g/m*3 0.12 C 0 km/h
3113 21-12-2010 20:00:00 0.12 C 4.4 g/m*3 0.12 C 0 km/h
3114 21-12-2010 21:00:00 0.12 C 4.45 g/m*3 0.12 C 0 km/h
3115 21-12-2010 22:00:00 0.15 C 4.45 g/m*3 0.15 C 0 km/h
3116 21-12-2010 23:00:00 0.12 C 4.45 g/m*3 0.12 C 0 km/h
3117 22-12-2010 00:00:00 0.1 C 4.48 g/m*3 0.1 C 0 km/h
3118 22-12-2010 01:00:00 0.16 C 4.51 g/m*3 0.16 C 0 km/h
3119 22-12-2010 02:00:00 0.2 C 4.52 g/m*3 0.2 C 0 km/h
3120 22-12-2010 03:00:00 0.16 C 4.51 g/m*3 0.16 C 0 km/h
3121 22-12-2010 04:00:00 0.28 C 4.54 g/m*3 0.28 C 0 km/h
3122 22-12-2010 05:00:00 0.3 C 4.55 g/m*3 0.3 C 0 km/h
3123 22-12-2010 06:00:00 0.3 C 4.55 g/m*3 0.3 C 0 km/h
3124 22-12-2010 07:00:00 0.3 C 4.57 g/m*3 0.3 C 0 km/h
3125 22-12-2010 08:00:00 0.34 C 4.61 g/m*3 0.34 C 0 km/h
Sensor: Nr:Datum:Temp:Abs-Feuchte:Windchill:Wind:
Aussen-T/F 3126 22-12-2010 09:00:00 0.7 C 4.73 g/m*3 0.7 C 0 km/h
3127 22-12-2010 10:00:00 1.38 C 4.9 g/m*3 1.38 C 0 km/h
3128 22-12-2010 11:00:00 2.3 C 5.02 g/m*3 2.3 C 0 km/h
3129 22-12-2010 12:00:00 2.76 C 4.89 g/m*3 2.76 C 0 km/h
3130 22-12-2010 13:00:00 2.38 C 4.73 g/m*3 2.38 C 0 km/h
3131 22-12-2010 14:00:00 2.4 C 4.76 g/m*3 2.4 C 0 km/h
3132 22-12-2010 15:00:00 1.66 C 4.59 g/m*3 1.66 C 0 km/h
3133 22-12-2010 16:00:00 1.16 C 4.6 g/m*3 1.16 C 0 km/h
3134 22-12-2010 17:00:00 0.8 C 4.6 g/m*3 0.8 C 0 km/h
3135 22-12-2010 18:00:00 0.7 C 4.63 g/m*3 0.7 C 0 km/h
3136 22-12-2010 19:00:00 0.78 C 4.7 g/m*3 0.78 C 0 km/h
3137 22-12-2010 20:00:00 0.78 C 4.7 g/m*3 0.78 C 0 km/h
3138 22-12-2010 21:00:00 0.8 C 4.71 g/m*3 0.8 C 0 km/h
3139 22-12-2010 22:00:00 0.7 C 4.68 g/m*3 0.7 C 0 km/h
3140 22-12-2010 23:00:00 0.7 C 4.68 g/m*3 0.7 C 0 km/h
3141 23-12-2010 00:00:00 0.76 C 4.74 g/m*3 0.76 C 0 km/h
3142 23-12-2010 01:00:00 0.7 C 4.73 g/m*3 0.7 C 0 km/h
3143 23-12-2010 02:00:00 0.7 C 4.73 g/m*3 0.7 C 0 km/h
3144 23-12-2010 03:00:00 0.7 C 4.73 g/m*3 0.7 C 0 km/h
3145 23-12-2010 04:00:00 0.66 C 4.72 g/m*3 0.66 C 0 km/h
3146 23-12-2010 05:00:00 0.48 C 4.66 g/m*3 0.48 C 0 km/h
3147 23-12-2010 06:00:00 0.34 C 4.61 g/m*3 0.34 C 0 km/h
3148 23-12-2010 07:00:00 0 C 4.51 g/m*3 0 C 0 km/h
3149 23-12-2010 08:00:00 -0.32 C 4.39 g/m*3 -0.32 C 0 km/h
3150 23-12-2010 09:00:00 -0.5 C 4.31 g/m*3 -0.5 C 0 km/h
Sensor: Nr:Datum:Temp:Abs-Feuchte:Windchill:Wind:
Aussen-T/F 3151 23-12-2010 10:00:00 -0.54 C 4.27 g/m*3 -0.54 C 0 km/h
3152 23-12-2010 11:00:00 -0.58 C 4.19 g/m*3 -0.58 C 0 km/h
3153 23-12-2010 12:00:00 -0.68 C 4.06 g/m*3 -0.68 C 0 km/h
3154 23-12-2010 13:00:00 -0.66 C 4 g/m*3 -0.66 C 0 km/h
3155 23-12-2010 14:00:00 -0.62 C 3.99 g/m*3 -0.62 C 0 km/h
3156 23-12-2010 15:00:00 -0.86 C 3.93 g/m*3 -0.86 C 0 km/h
3157 23-12-2010 16:00:00 -0.9 C 3.96 g/m*3 -0.9 C 0 km/h
3158 23-12-2010 17:00:00 -1.02 C 3.93 g/m*3 -1.02 C 0 km/h
3159 23-12-2010 18:00:00 -1.14 C 3.89 g/m*3 -1.14 C 0 km/h
3160 23-12-2010 19:00:00 -1.26 C 3.84 g/m*3 -1.26 C 0 km/h
3161 23-12-2010 20:00:00 -1.26 C 3.84 g/m*3 -1.26 C 0 km/h
3162 23-12-2010 21:00:00 -1.1 C 3.86 g/m*3 -1.1 C 0 km/h
3163 23-12-2010 22:00:00 -0.94 C 3.92 g/m*3 -0.94 C 0 km/h
3164 23-12-2010 23:00:00 -0.8 C 3.98 g/m*3 -0.8 C 0 km/h
3165 24-12-2010 00:00:00 -0.9 C 3.91 g/m*3 -0.9 C 0 km/h
3166 24-12-2010 01:00:00 -0.74 C 3.98 g/m*3 -0.74 C 0 km/h
3167 24-12-2010 02:00:00 -0.5 C 4.03 g/m*3 -0.5 C 0 km/h
3168 24-12-2010 03:00:00 -0.48 C 4.03 g/m*3 -0.48 C 0 km/h
3169 24-12-2010 04:00:00 -0.5 C 4.03 g/m*3 -0.5 C 0 km/h
3170 24-12-2010 05:00:00 -0.74 C 3.91 g/m*3 -0.74 C 0 km/h
3171 24-12-2010 06:00:00 -0.96 C 3.79 g/m*3 -0.96 C 0 km/h
3172 24-12-2010 07:00:00 -1.2 C 3.64 g/m*3 -1.2 C 0 km/h
3173 24-12-2010 08:00:00 -1.48 C 3.64 g/m*3 -1.48 C 0 km/h
3174 24-12-2010 09:00:00 -1.7 C 3.66 g/m*3 -1.7 C 0 km/h
3175 24-12-2010 10:00:00 -1.54 C 3.68 g/m*3 -1.54 C 0 km/h
Sensor: Nr:Datum:Temp:Abs-Feuchte:Windchill:Wind:
Aussen-T/F 3176 24-12-2010 11:00:00 -1.32 C 3.67 g/m*3 -1.32 C 0 km/h
3177 24-12-2010 12:00:00 -1.34 C 3.58 g/m*3 -1.34 C 0 km/h
3178 24-12-2010 13:00:00 -1.38 C 3.52 g/m*3 -1.38 C 0 km/h
3179 24-12-2010 14:00:00 -1.4 C 3.52 g/m*3 -1.4 C 0 km/h
3180 24-12-2010 15:00:00 -1.84 C 3.46 g/m*3 -1.84 C 0 km/h
3181 24-12-2010 16:00:00 -2.42 C 3.35 g/m*3 -2.42 C 0 km/h
3182 24-12-2010 17:00:00 -2.56 C 3.22 g/m*3 -2.56 C 0 km/h
3183 24-12-2010 18:00:00 -2.8 C 3.23 g/m*3 -2.8 C 0 km/h
3184 24-12-2010 19:00:00 -2.94 C 3.13 g/m*3 -2.94 C 0 km/h
3185 24-12-2010 20:00:00 -3.02 C 3.11 g/m*3 -3.02 C 0 km/h
3186 24-12-2010 21:00:00 -3.23333 C 3.06 g/m*3 -3.23 C 0 km/h
3187 24-12-2010 22:00:00 -3.56 C 3.02 g/m*3 -3.56 C 0 km/h
3188 24-12-2010 23:00:00 -3.74 C 2.98 g/m*3 -3.74 C 0 km/h
3189 25-12-2010 00:00:00 -3.82 C 2.94 g/m*3 -3.82 C 0 km/h
3190 25-12-2010 01:00:00 -3.92 C 2.88 g/m*3 -3.92 C 0 km/h
3191 25-12-2010 02:00:00 -4.08 C 2.87 g/m*3 -4.08 C 0 km/h
3192 25-12-2010 03:00:00 -4.16 C 2.81 g/m*3 -4.16 C 0 km/h
3193 25-12-2010 04:00:00 -4.26 C 2.68 g/m*3 -4.26 C 0 km/h
3194 25-12-2010 05:00:00 -4.46 C 2.58 g/m*3 -4.46 C 0 km/h
3195 25-12-2010 06:00:00 -4.62 C 2.51 g/m*3 -4.62 C 0 km/h
3196 25-12-2010 07:00:00 -4.72 C 2.45 g/m*3 -4.72 C 0 km/h
3197 25-12-2010 08:00:00 -4.8 C 2.47 g/m*3 -4.8 C 0 km/h
3198 25-12-2010 09:00:00 -4.82 C 2.44 g/m*3 -4.82 C 0 km/h
3199 25-12-2010 10:00:00 -4.58 C 2.36 g/m*3 -4.58 C 0 km/h
3200 25-12-2010 11:00:00 -4.5 C 2.18 g/m*3 -4.5 C 0 km/h
Sensor: Nr:Datum:Temp:Abs-Feuchte:Windchill:Wind:
Aussen-T/F 3201 25-12-2010 12:00:00 -4.98 C 2.07 g/m*3 -4.98 C 0 km/h
3202 25-12-2010 13:00:00 -4.72 C 2.18 g/m*3 -4.72 C 0 km/h
3203 25-12-2010 14:00:00 -4.92 C 2.1 g/m*3 -4.92 C 0 km/h
3204 25-12-2010 15:00:00 -5.54 C 2.09 g/m*3 -5.54 C 0 km/h
3205 25-12-2010 16:00:00 -6.82 C 2.12 g/m*3 -6.82 C 0 km/h